Site Date LOGGERID PROGID SNOWDEP_MED_0_0_01 SNOWDEP_QUAL_0_0_01 WSPD_PRO_MEAN_1000_0_01 WMAG_PRO_MEAN_1000_0_01 WDIR_PRO_MEAN_1000_0_01 WDIR_PRO_STDDEV_1000_0_01 DEWPT_MEAN_150_0_04 DEWPT_MEAN_450_0_01 AIRTEMP_MEAN_150_0_04 AIRTEMP_MEAN_250_0_03 AIRTEMP_MEAN_350_0_02 AIRTEMP_MEAN_450_0_01 RELHUM_MEAN_150_0_04 RELHUM_MEAN_450_0_01 WSPD_PRO_MAX_1000_0_01 AIRTEMP_MAX_150_0_04 AIRTEMP_MAX_250_0_03 AIRTEMP_MAX_350_0_02 AIRTEMP_MAX_450_0_01 AIRTEMP_MIN_150_0_04 AIRTEMP_MIN_250_0_03 AIRTEMP_MIN_350_0_02 AIRTEMP_MIN_450_0_01 DEWPT_MAX_150_0_04 DEWPT_MAX_450_0_01 DEWPT_MIN_150_0_04 DEWPT_MIN_450_0_01 SATVP_MEAN_150_0_04 VAP_MEAN_150_0_04 VPD_MEAN_150_0_04 SATVP_MEAN_450_0_01 VAP_MEAN_450_0_01 VPD_MEAN_450_0_01
PRIMET_226 2014-10-01 00:00:00 226 1342.0 0.00 263 0.007 0.007 281.300 0.930 8.910 8.980 8.91 9.240 9.340 8.980 100.000 100.000                           11.410 11.410 0.000 11.464 11.464 0.000
PRIMET_226 2014-09-30 23:55:00 226 1342.0 0.00 414 0.007 0.007 279.100 0.000 8.900 9.020 8.90 9.170 9.330 9.020 100.000 100.000                           11.402 11.402 -0.000 11.495 11.495 0.000
PRIMET_226 2014-09-30 23:50:00 226 1342.0 0.00 204 0.007 0.007 279.100 0.000 9.010 9.070 9.01 9.260 9.390 9.070 100.000 100.000                           11.488 11.488 -0.000 11.534 11.534 0.000
PRIMET_226 2014-09-30 23:45:00 226 1342.0 0.00 237 0.007 0.007 279.200 0.000 9.040 9.110 9.04 9.290 9.430 9.110 100.000 100.000                           11.511 11.511 -0.000 11.565 11.565 0.000
PRIMET_226 2014-09-30 23:40:00 226 1342.0 0.00 211 0.007 0.007 279.100 0.000 9.080 9.170 9.08 9.310 9.460 9.170 100.000 100.000                           11.542 11.542 0.000 11.612 11.612 0.000
PRIMET_226 2014-09-30 23:35:00 226 1342.0 0.00 235 0.007 0.007 279.100 0.000 9.180 9.250 9.18 9.430 9.550 9.250 100.000 100.000                           11.620 11.620 0.000 11.675 11.675 0.000
PRIMET_226 2014-09-30 23:30:00 226 1342.0 0.00 300 0.007 0.007 279.200 0.000 9.260 9.310 9.26 9.510 9.630 9.310 100.000 100.000                           11.683 11.683 0.000 11.722 11.722 0.000
PRIMET_226 2014-09-30 23:25:00 226 1342.0 0.00 209 0.007 0.007 279.200 0.000 9.290 9.370 9.29 9.560 9.680 9.370 100.000 100.000                           11.707 11.707 0.000 11.770 11.770 0.000
PRIMET_226 2014-09-30 23:20:00 226 1342.0 0.00 410 0.007 0.007 279.200 0.000 9.360 9.460 9.36 9.650 9.780 9.460 100.000 100.000                           11.762 11.762 0.000 11.841 11.841 0.000
PRIMET_226 2014-09-30 23:15:00 226 1342.0 0.00 232 0.007 0.007 279.100 0.000 9.390 9.520 9.39 9.740 9.870 9.520 100.000 100.000                           11.786 11.786 0.000 11.889 11.889 0.000
PRIMET_226 2014-09-30 23:10:00 226 1342.0 0.00 418 0.007 0.007 279.100 0.168 9.400 9.540 9.40 9.720 9.870 9.540 100.000 100.000                           11.794 11.794 0.000 11.905 11.905 0.000
PRIMET_226 2014-09-30 23:05:00 226 1342.0 0.00 416 0.007 0.007 281.000 0.122 9.530 9.600 9.53 9.790 9.920 9.600 100.000 100.000                           11.897 11.897 -0.000 11.953 11.953 0.000
PRIMET_226 2014-09-30 23:00:00 226 1342.0 0.00 205 0.007 0.007 281.000 0.000 9.600 9.640 9.60 9.850 9.960 9.640 100.000 100.000                           11.953 11.953 0.000 11.986 11.986 0.000
PRIMET_226 2014-09-30 22:55:00 226 1342.0 0.00 241 0.007 0.007 281.000 0.000 9.670 9.710 9.67 9.910 10.020 9.710 100.000 100.000                           12.010 12.010 0.000 12.042 12.042 0.000
PRIMET_226 2014-09-30 22:50:00 226 1342.0 0.00 405 0.007 0.007 281.000 0.000 9.750 9.810 9.75 10.000 10.110 9.810 100.000 100.000                           12.075 12.075 0.000 12.123 12.123 0.000
PRIMET_226 2014-09-30 22:45:00 226 1342.0 0.00 201 0.007 0.007 281.000 0.000 9.840 9.900 9.84 10.100 10.210 9.900 100.000 100.000                           12.148 12.148 -0.000 12.197 12.197 0.000
PRIMET_226 2014-09-30 22:40:00 226 1342.0 0.00 227 0.007 0.007 281.000 0.000 9.970 10.000 9.97 10.230 10.330 10.000 100.000 100.000                           12.254 12.254 0.000 12.279 12.279 0.000
PRIMET_226 2014-09-30 22:35:00 226 1342.0 0.00 232 0.007 0.007 281.000 0.000 10.040 10.070 10.04 10.330 10.430 10.070 100.000 100.000                           12.312 12.312 0.000 12.336 12.336 0.000
PRIMET_226 2014-09-30 22:30:00 226 1342.0 0.00 230 0.007 0.007 280.900 0.000 10.130 10.140 10.13 10.410 10.510 10.140 100.000 100.000                           12.386 12.386 0.000 12.394 12.394 0.000
PRIMET_226 2014-09-30 22:25:00 226 1342.0 0.00 282 0.007 0.007 280.900 0.125 10.190 10.180 10.19 10.480 10.560 10.180 100.000 100.000                           12.436 12.436 0.000 12.428 12.428 0.000
PRIMET_226 2014-09-30 22:20:00 226 1342.0 0.00 421 0.007 0.007 280.500 0.000 10.210 10.200 10.21 10.500 10.580 10.200 100.000 100.000                           12.453 12.453 0.000 12.444 12.444 0.000
PRIMET_226 2014-09-30 22:15:00 226 1342.0 0.00 419 0.007 0.007 280.300 0.175 10.250 10.260 10.25 10.550 10.630 10.260 100.000 100.000                           12.486 12.486 0.000 12.494 12.494 0.000
PRIMET_226 2014-09-30 22:10:00 226 1342.0 0.00 434 0.007 0.007 280.200 0.040 10.310 10.320 10.31 10.600 10.690 10.320 100.000 100.000                           12.536 12.536 0.000 12.545 12.545 0.000
PRIMET_226 2014-09-30 22:05:00 226 1342.0 0.00 408 0.007 0.007 280.000 0.465 10.370 10.370 10.37 10.680 10.760 10.370 100.000 100.000                           12.586 12.586 0.000 12.586 12.586 0.000
PRIMET_226 2014-09-30 22:00:00 226 1342.0 0.00 414 0.007 0.007 279.300 0.000 10.420 10.420 10.42 10.720 10.810 10.420 100.000 100.000                           12.629 12.629 0.000 12.629 12.629 0.000
PRIMET_226 2014-09-30 21:55:00 226 1342.0 0.00 227 0.007 0.007 279.300 0.000 10.460 10.440 10.46 10.770 10.840 10.440 100.000 100.000                           12.662 12.662 0.000 12.645 12.645 0.000
PRIMET_226 2014-09-30 21:50:00 226 1342.0 0.00 426 0.007 0.007 279.100 0.528 10.450 10.440 10.45 10.790 10.860 10.440 100.000 100.000                           12.654 12.654 0.000 12.645 12.645 0.000
PRIMET_226 2014-09-30 21:45:00 226 1342.0 0.00 422 0.007 0.007 277.900 1.163 10.440 10.460 10.44 10.760 10.850 10.460 100.000 100.000                           12.645 12.645 0.000 12.662 12.662 0.000
PRIMET_226 2014-09-30 21:40:00 226 1342.0 0.00 409 0.007 0.007 280.800 0.040 10.500 10.500 10.50 10.840 10.910 10.500 100.000 100.000                           12.696 12.696 0.000 12.696 12.696 0.000
PRIMET_226 2014-09-30 21:35:00 226 1342.0 0.00 407 0.007 0.007 280.800 0.000 10.520 10.500 10.52 10.860 10.930 10.500 100.000 100.000                           12.713 12.713 0.000 12.696 12.696 0.000
PRIMET_226 2014-09-30 21:30:00 226 1342.0 0.00 427 0.007 0.007 279.900 0.729 10.500 10.500 10.50 10.850 10.920 10.500 100.000 100.000                           12.696 12.696 0.000 12.696 12.696 0.000
PRIMET_226 2014-09-30 21:25:00 226 1342.0 0.00 427 0.007 0.007 278.800 0.108 10.480 10.510 10.48 10.830 10.920 10.510 100.000 100.000                           12.679 12.679 0.000 12.705 12.705 0.000
PRIMET_226 2014-09-30 21:20:00 226 1342.0 0.00 444 0.007 0.007 279.400 0.403 10.490 10.520 10.49 10.840 10.930 10.520 100.000 100.000                           12.688 12.688 0.000 12.713 12.713 0.000
PRIMET_226 2014-09-30 21:15:00 226 1342.0 0.00 226 0.007 0.007 279.700 0.074 10.470 10.510 10.47 10.820 10.910 10.510 100.000 100.000                           12.671 12.671 0.000 12.705 12.705 0.000
PRIMET_226 2014-09-30 21:10:00 226 1342.0 0.00 227 0.007 0.007 279.800 0.108 10.500 10.520 10.50 10.830 10.910 10.520 100.000 100.000                           12.696 12.696 0.000 12.713 12.713 0.000
PRIMET_226 2014-09-30 21:05:00 226 1342.0 0.00 236 0.007 0.007 279.900 0.000 10.530 10.540 10.53 10.860 10.940 10.540 100.000 100.000                           12.722 12.722 0.000 12.730 12.730 0.000
PRIMET_226 2014-09-30 21:00:00 226 1342.0 0.00 392 0.007 0.007 279.500 0.698 10.490 10.510 10.49 10.830 10.910 10.510 100.000 100.000                           12.688 12.688 0.000 12.705 12.705 0.000
PRIMET_226 2014-09-30 20:55:00 226 1342.0 0.00 202 0.007 0.007 279.800 2.314 10.500 10.530 10.50 10.820 10.910 10.530 100.000 100.000                           12.696 12.696 0.000 12.722 12.722 0.000
PRIMET_226 2014-09-30 20:50:00 226 1342.0 0.00 433 0.007 0.007 283.200 0.028 10.520 10.550 10.52 10.870 10.950 10.550 100.000 100.000                           12.713 12.713 0.000 12.739 12.739 0.000
PRIMET_226 2014-09-30 20:45:00 226 1342.0 0.00 410 0.007 0.007 283.800 0.446 10.520 10.540 10.52 10.850 10.930 10.540 100.000 100.000                           12.713 12.713 0.000 12.730 12.730 0.000
PRIMET_226 2014-09-30 20:40:00 226 1342.0 0.00 284 0.007 0.006 259.900 10.040 10.480 10.530 10.48 10.790 10.880 10.530 100.000 100.000                           12.679 12.679 0.000 12.722 12.722 0.000
PRIMET_226 2014-09-30 20:35:00 226 1342.0 0.00 313 0.007 0.007 256.400 1.188 10.520 10.590 10.52 10.820 10.910 10.590 100.000 100.000                           12.713 12.713 0.000 12.773 12.773 0.000
PRIMET_226 2014-09-30 20:30:00 226 1342.0 0.00 281 0.025 0.025 254.400 1.074 10.570 10.670 10.57 10.870 10.980 10.670 100.000 100.000                           12.756 12.756 0.000 12.841 12.841 0.000
PRIMET_226 2014-09-30 20:25:00 226 1342.0 0.00 434 0.007 0.007 257.600 0.964 10.760 10.790 10.76 11.040 11.140 10.790 100.000 100.000                           12.918 12.918 -0.000 12.944 12.944 0.000
PRIMET_226 2014-09-30 20:20:00 226 1342.0 0.00 208 0.007 0.007 258.200 0.418 10.850 10.840 10.85 11.160 11.240 10.840 100.000 100.000                           12.996 12.996 0.000 12.987 12.987 0.000
PRIMET_226 2014-09-30 20:15:00 226 1342.0 0.00 319 0.007 0.007 256.200 0.338 10.850 10.840 10.85 11.180 11.260 10.840 100.000 100.000                           12.996 12.996 0.000 12.987 12.987 0.000
PRIMET_226 2014-09-30 20:10:00 226 1342.0 0.00 234 0.007 0.007 255.500 0.101 10.850 10.830 10.85 11.180 11.250 10.830 100.000 100.000                           12.996 12.996 0.000 12.979 12.979 -0.000
PRIMET_226 2014-09-30 20:05:00 226 1342.0 0.00 246 0.007 0.007 254.500 0.387 10.770 10.790 10.77 11.110 11.190 10.790 100.000 100.000                           12.927 12.927 0.000 12.944 12.944 0.000
PRIMET_226 2014-09-30 20:00:00 226 1342.0 0.00 207 0.024 0.024 255.900 2.785 10.780 10.830 10.78 11.110 11.200 10.830 100.000 100.000                           12.935 12.935 0.000 12.979 12.979 -0.000
PRIMET_226 2014-09-30 19:55:00 226 1342.0 0.00 201 0.213 0.072 301.600 65.950 10.840 10.890 10.84 11.160 11.250 10.890 100.000 100.000                           12.987 12.987 0.000 13.030 13.030 -0.000
PRIMET_226 2014-09-30 19:50:00 226 1342.0 0.00 209 0.147 0.147 39.820 0.105 10.920 10.970 10.92 11.240 11.320 10.970 100.000 100.000                           13.056 13.056 0.000 13.100 13.100 0.000
PRIMET_226 2014-09-30 19:45:00 226 1342.0 0.00 200 0.007 0.007 39.930 0.000 11.020 11.030 11.02 11.330 11.400 11.030 100.000 100.000                           13.144 13.144 0.000 13.152 13.152 0.000
PRIMET_226 2014-09-30 19:40:00 226 1342.0 0.00 210 0.007 0.007 39.940 0.000 11.070 11.070 11.07 11.390 11.460 11.070 100.000 100.000                           13.187 13.187 0.000 13.187 13.187 0.000
PRIMET_226 2014-09-30 19:35:00 226 1342.0 0.00 202 0.007 0.007 39.970 0.000 11.090 11.100 11.09 11.410 11.480 11.100 100.000 100.000                           13.205 13.205 0.000 13.214 13.214 0.000
PRIMET_226 2014-09-30 19:30:00 226 1342.0 0.00 202 0.007 0.007 39.810 0.000 11.160 11.150 11.16 11.490 11.540 11.150 100.000 100.000                           13.266 13.266 0.000 13.258 13.258 -0.000
PRIMET_226 2014-09-30 19:25:00 226 1342.0 0.00 201 0.007 0.007 39.810 0.000 11.150 11.170 11.15 11.490 11.560 11.170 100.000 100.000                           13.258 13.258 -0.000 13.275 13.275 0.000
PRIMET_226 2014-09-30 19:20:00 226 1342.0 0.00 233 0.007 0.007 39.810 0.000 11.140 11.170 11.14 11.470 11.540 11.170 100.000 100.000                           13.249 13.249 0.000 13.275 13.275 0.000
PRIMET_226 2014-09-30 19:15:00 226 1342.0 0.00 227 0.007 0.007 40.510 0.234 11.170 11.210 11.17 11.490 11.550 11.210 100.000 100.000                           13.275 13.275 0.000 13.310 13.310 0.000
PRIMET_226 2014-09-30 19:10:00 226 1342.0 0.00 202 0.007 0.007 40.060 0.414 11.250 11.280 11.25 11.580 11.640 11.280 100.000 100.000                           13.346 13.346 0.000 13.372 13.372 0.000
PRIMET_226 2014-09-30 19:05:00 226 1342.0 0.00 249 0.007 0.007 39.720 0.000 11.260 11.280 11.26 11.600 11.650 11.290 100.000 100.000                           13.355 13.355 0.000 13.381 13.372 0.000
PRIMET_226 2014-09-30 19:00:00 226 1342.0 0.00 202 0.007 0.007 39.720 0.000 11.320 11.310 11.32 11.650 11.700 11.350 100.000 99.700                           13.408 13.408 0.000 13.435 13.399 0.040
PRIMET_226 2014-09-30 18:55:00 226 1342.0 0.00 201 0.007 0.007 39.720 0.000 11.400 11.390 11.40 11.740 11.800 11.440 100.000 99.700                           13.479 13.479 -0.000 13.515 13.470 0.041
PRIMET_226 2014-09-30 18:50:00 226 1342.0 0.00 203 0.007 0.007 39.720 0.000 11.390 11.390 11.39 11.750 11.820 11.450 100.000 99.600                           13.470 13.470 -0.000 13.524 13.470 0.054
PRIMET_226 2014-09-30 18:45:00 226 1342.0 0.00 307 0.007 0.007 39.680 0.232 11.380 11.340 11.40 11.740 11.820 11.450 99.800 99.300                           13.479 13.461 0.027 13.524 13.426 0.095
PRIMET_226 2014-09-30 18:40:00 226 1342.0 0.00 261 0.007 0.007 38.910 0.000 11.340 11.260 11.44 11.760 11.820 11.460 99.300 98.700                           13.515 13.426 0.095 13.533 13.355 0.176
PRIMET_226 2014-09-30 18:35:00 226 1342.0 0.00 217 0.007 0.007 38.910 0.000 11.420 11.320 11.50 11.820 11.880 11.500 99.500 98.800                           13.569 13.497 0.068 13.569 13.408 0.163
PRIMET_226 2014-09-30 18:30:00 226 1342.0 0.00 220 0.007 0.007 38.900 0.000 11.460 11.340 11.52 11.850 11.900 11.520 99.600 98.800                           13.587 13.533 0.054 13.587 13.426 0.163
PRIMET_226 2014-09-30 18:25:00 226 1342.0 0.00 429 0.007 0.007 38.960 0.000 11.500 11.350 11.55 11.860 11.910 11.530 99.700 98.800                           13.614 13.569 0.041 13.596 13.435 0.163
PRIMET_226 2014-09-30 18:20:00 226 1342.0 0.00 269 0.007 0.007 38.950 0.063 11.420 11.340 11.52 11.850 11.920 11.540 99.300 98.700                           13.587 13.497 0.095 13.605 13.426 0.177
PRIMET_226 2014-09-30 18:15:00 226 1342.0 0.00 318 0.007 0.007 39.040 0.000 11.370 11.280 11.55 11.870 11.940 11.570 98.800 98.200                           13.614 13.452 0.163 13.632 13.372 0.245
PRIMET_226 2014-09-30 18:10:00 226 1342.0 0.00 229 0.007 0.007 39.010 0.000 11.410 11.270 11.59 11.920 11.980 11.600 98.800 97.800                           13.650 13.488 0.164 13.659 13.364 0.300
PRIMET_226 2014-09-30 18:05:00 226 1342.0 0.00 202 0.007 0.007 39.010 0.000 11.360 11.290 11.56 11.920 12.000 11.630 98.700 97.800                           13.623 13.444 0.177 13.686 13.381 0.301
PRIMET_226 2014-09-30 18:00:00 226 1342.0 0.00 232 0.007 0.007 39.010 0.000 11.260 11.180 11.58 11.910 11.990 11.640 97.900 97.000                           13.641 13.355 0.286 13.695 13.284 0.411
PRIMET_226 2014-09-30 17:55:00 226 1342.0 0.00 284 0.007 0.007 39.010 0.000 11.260 11.150 11.69 11.970 12.040 11.690 97.200 96.500                           13.740 13.355 0.385 13.740 13.258 0.481
PRIMET_226 2014-09-30 17:50:00 226 1342.0 0.00 224 0.007 0.007 39.010 0.000 11.360 11.210 11.84 12.100 12.140 11.780 96.900 96.300                           13.877 13.444 0.430 13.822 13.310 0.511
PRIMET_226 2014-09-30 17:45:00 226 1342.0 0.00 229 0.007 0.007 39.020 0.000 11.340 11.180 11.87 12.160 12.200 11.820 96.600 95.900                           13.905 13.426 0.473 13.859 13.284 0.568
PRIMET_226 2014-09-30 17:40:00 226 1342.0 0.00 230 0.007 0.007 39.030 0.000 11.470 11.250 11.91 12.190 12.240 11.870 97.100 96.000                           13.941 13.542 0.404 13.905 13.346 0.556
PRIMET_226 2014-09-30 17:35:00 226 1342.0 0.00 219 0.007 0.007 39.070 0.028 11.470 11.310 11.94 12.210 12.270 11.910 96.900 96.100                           13.969 13.542 0.433 13.941 13.399 0.544
PRIMET_226 2014-09-30 17:30:00 226 1342.0 0.00 209 0.007 0.007 39.350 0.470 11.460 11.330 11.97 12.240 12.310 11.950 96.700 96.000                           13.997 13.533 0.462 13.978 13.417 0.559
PRIMET_226 2014-09-30 17:25:00 226 1342.0 0.00 298 0.007 0.007 39.090 1.130 11.410 11.270 12.05 12.320 12.370 12.000 95.800 95.300                           14.071 13.488 0.591 14.025 13.364 0.659
PRIMET_226 2014-09-30 17:20:00 226 1342.0 0.00 233 0.007 0.007 38.180 0.000 11.410 11.230 12.12 12.330 12.400 12.060 95.400 94.700                           14.136 13.488 0.650 14.080 13.328 0.746
PRIMET_226 2014-09-30 17:15:00 226 1342.0 0.00 376 0.007 0.006 75.800 16.530 11.650 11.500 12.23 12.500 12.540 12.170 96.200 95.700                           14.239 13.704 0.541 14.182 13.569 0.610
PRIMET_226 2014-09-30 17:10:00 226 1342.0 0.00 260 0.007 0.007 83.000 0.179 11.670 11.390 12.28 12.540 12.580 12.200 96.000 94.800                           14.286 13.722 0.571 14.211 13.470 0.739
PRIMET_226 2014-09-30 17:05:00 226 1342.0 0.00 214 0.036 0.033 89.000 20.580 11.570 11.350 12.29 12.560 12.610 12.240 95.400 94.300                           14.295 13.632 0.658 14.248 13.435 0.812
PRIMET_226 2014-09-30 17:00:00 226 1342.0 0.00 294 0.007 0.007 169.300 1.635 11.770 11.520 12.36 12.640 12.670 12.320 96.200 94.800                           14.361 13.813 0.546 14.323 13.587 0.745
PRIMET_226 2014-09-30 16:55:00 226 1342.0 0.00 269 0.007 0.007 171.000 0.851 11.930 11.790 12.35 12.720 12.740 12.380 97.300 96.200                           14.351 13.960 0.387 14.380 13.831 0.546
PRIMET_226 2014-09-30 16:50:00 226 1342.0 0.00 237 0.007 0.005 198.500 32.440 11.830 11.620 12.33 12.660 12.710 12.340 96.800 95.400                           14.333 13.868 0.459 14.342 13.677 0.660
PRIMET_226 2014-09-30 16:45:00 226 1342.0 0.00 370 0.288 0.177 240.600 49.160 11.550 11.160 12.28 12.600 12.690 12.310 95.300 92.700                           14.286 13.614 0.671 14.314 13.266 1.045
PRIMET_226 2014-09-30 16:40:00 226 1342.0 0.00 380 0.007 0.006 322.600 11.170 11.530 11.220 12.26 12.510 12.580 12.230 95.400 93.500                           14.267 13.596 0.656 14.239 13.319 0.926
PRIMET_226 2014-09-30 16:35:00 226 1342.0 0.00 293 0.007 0.007 320.900 0.857 11.430 11.230 12.27 12.580 12.650 12.290 94.600 93.300                           14.276 13.506 0.771 14.295 13.328 0.958
PRIMET_226 2014-09-30 16:30:00 226 1342.0 0.00 216 0.007 0.007 323.600 0.000 11.350 10.960 12.21 12.490 12.590 12.290 94.500 91.600                           14.220 13.435 0.782 14.295 13.091 1.201
PRIMET_226 2014-09-30 16:25:00 226 1342.0 0.00 262 0.007 0.007 323.200 0.000 11.240 10.920 12.20 12.460 12.580 12.340 93.800 91.000                           14.211 13.337 0.881 14.342 13.056 1.291
PRIMET_226 2014-09-30 16:20:00 226 1342.0 0.00 246 0.089 0.088 322.300 8.090 11.340 10.910 12.25 12.590 12.720 12.470 94.200 90.200                           14.257 13.426 0.827 14.465 13.048 1.418
PRIMET_226 2014-09-30 16:15:00 226 1342.0 0.00 221 0.313 0.258 255.200 33.890 11.110 10.720 12.18 12.520 12.620 12.320 93.300 90.100                           14.192 13.222 0.951 14.323 12.884 1.418
PRIMET_226 2014-09-30 16:10:00 226 1342.0 0.00 235 0.609 0.478 217.700 37.550 12.000 11.770 12.32 12.630 12.710 12.430 97.900 95.800                           14.323 14.025 0.301 14.427 13.813 0.606
PRIMET_226 2014-09-30 16:05:00 226 1342.0 0.00 243 0.474 0.404 186.800 31.170 11.950 11.770 12.47 12.770 12.880 12.590 96.700 94.700                           14.465 13.978 0.477 14.579 13.813 0.773
PRIMET_226 2014-09-30 16:00:00 226 1342.0 0.00 359 0.137 0.136 314.000 4.144 11.750 11.350 12.58 12.800 12.900 12.590 94.700 92.200                           14.570 13.795 0.772 14.579 13.435 1.137
PRIMET_226 2014-09-30 15:55:00 226 1342.0 0.00 242 0.249 0.248 300.600 5.849 11.960 11.570 12.62 12.830 12.920 12.650 95.700 93.100                           14.608 13.988 0.628 14.637 13.632 1.010
PRIMET_226 2014-09-30 15:50:00 226 1342.0 0.00 246 0.050 0.050 314.400 0.962 12.130 11.760 12.68 12.910 13.020 12.780 96.500 93.500                           14.666 14.145 0.513 14.762 13.804 0.960
PRIMET_226 2014-09-30 15:45:00 226 1342.0 0.00 208 0.120 0.118 316.200 8.950 11.880 11.650 12.77 12.970 13.100 12.920 94.300 92.000                           14.753 13.914 0.841 14.898 13.704 1.192
PRIMET_226 2014-09-30 15:40:00 226 1342.0 0.00 211 0.221 0.134 265.600 50.820 11.760 11.390 13.03 13.060 13.200 13.130 92.000 89.200                           15.006 13.804 1.200 15.104 13.470 1.631
PRIMET_226 2014-09-30 15:35:00 226 1342.0 0.00 290 0.386 0.353 310.200 23.800 12.050 11.520 13.43 13.440 13.570 13.600 91.300 87.200                           15.403 14.071 1.340 15.574 13.587 1.994
PRIMET_226 2014-09-30 15:30:00 226 1342.0 0.00 227 0.228 0.195 289.700 30.680 12.410 12.070 14.03 14.240 14.340 14.270 90.000 86.600                           16.016 14.408 1.602 16.267 14.089 2.180
PRIMET_226 2014-09-30 15:25:00 226 1342.0 0.00 214 0.246 0.174 279.500 43.620 12.280 11.940 14.76 14.950 14.960 14.430 85.100 85.000                           16.790 14.286 2.502 16.436 13.969 2.465
PRIMET_226 2014-09-30 15:20:00 226 1342.0 0.00 228 0.349 0.314 298.800 25.730 12.220 11.720 15.12 14.990 14.920 14.370 82.800 84.100                           17.184 14.229 2.956 16.372 13.768 2.603
PRIMET_226 2014-09-30 15:15:00 226 1342.0 0.00 204 0.312 0.133 304.800 61.410 12.420 12.000 15.04 15.010 14.920 14.470 84.300 85.100                           17.096 14.418 2.684 16.479 14.025 2.455
PRIMET_226 2014-09-30 15:10:00 226 1342.0 0.00 204 0.712 0.521 275.700 41.950 12.030 11.440 15.08 14.970 14.920 14.560 82.100 81.600                           17.140 14.052 3.068 16.575 13.515 3.050
PRIMET_226 2014-09-30 15:05:00 226 1342.0 0.00 216 0.493 0.454 244.500 22.710 12.510 12.060 15.45 15.550 15.390 14.910 82.700 83.100                           17.552 14.503 3.037 16.953 14.080 2.865
PRIMET_226 2014-09-30 15:00:00 226 1342.0 0.00 276 0.517 0.380 229.800 41.690 12.730 12.520 15.76 15.900 15.670 15.160 82.200 84.300                           17.904 14.714 3.187 17.228 14.513 2.705
PRIMET_226 2014-09-30 14:55:00 226 1342.0 0.00 211 0.507 0.442 248.100 28.990 13.170 12.720 15.62 15.680 15.370 15.010 85.400 86.200                           17.745 15.144 2.591 17.063 14.704 2.355
PRIMET_226 2014-09-30 14:50:00 226 1342.0 0.00 197 0.575 0.455 183.600 37.070 13.200 12.990 15.96 15.940 15.710 15.500 83.700 85.000                           18.135 15.173 2.956 17.609 14.967 2.641
PRIMET_226 2014-09-30 14:45:00 226 1342.0 0.00 205 0.486 0.427 218.900 28.350 13.110 12.650 15.75 15.920 15.790 15.300 84.300 84.200                           17.893 15.085 2.809 17.384 14.637 2.747
PRIMET_226 2014-09-30 14:40:00 226 1342.0 0.00 212 0.310 0.275 243.500 27.390 13.110 12.800 15.77 16.020 15.840 15.350 84.300 84.800                           17.916 15.085 2.813 17.440 14.782 2.651
PRIMET_226 2014-09-30 14:35:00 226 1342.0 0.00 202 0.486 0.423 218.300 29.320 13.290 13.050 15.72 15.890 15.740 15.330 85.500 86.300                           17.859 15.263 2.589 17.418 15.025 2.386
PRIMET_226 2014-09-30 14:30:00 226 1342.0 0.00 203 0.448 0.370 227.400 33.710 12.740 12.400 15.75 15.750 15.730 15.190 82.400 83.500                           17.893 14.724 3.149 17.262 14.399 2.848
PRIMET_226 2014-09-30 14:25:00 226 1342.0 0.00 214 0.117 0.087 283.400 40.920 13.390 12.770 16.62 16.480 16.450 15.870 81.200 81.900                           18.914 15.363 3.556 18.031 14.753 3.264
PRIMET_226 2014-09-30 14:20:00 226 1342.0 0.00 210 0.237 0.162 254.100 45.610 13.660 13.280 16.70 16.920 16.720 16.240 82.300 82.600                           19.010 15.635 3.365 18.462 15.253 3.212
PRIMET_226 2014-09-30 14:15:00 226 1342.0 0.00 195 0.364 0.269 193.900 41.400 13.110 13.020 16.63 16.980 16.780 16.260 79.850 81.200                           18.926 15.085 3.814 18.485 14.996 3.475
PRIMET_226 2014-09-30 14:10:00 226 1342.0 0.00 200 0.175 0.137 208.300 37.890 13.690 13.250 16.54 16.770 16.530 15.900 83.300 84.300                           18.818 15.666 3.143 18.065 15.223 2.836
PRIMET_226 2014-09-30 14:05:00 226 1342.0 0.00 212 0.391 0.349 219.300 26.680 13.490 13.110 15.99 16.390 16.250 15.600 85.100 85.200                           18.170 15.463 2.707 17.722 15.085 2.623
PRIMET_226 2014-09-30 14:00:00 226 1342.0 0.00 200 0.149 0.146 183.400 11.960 13.590 13.350 15.13 15.440 15.370 14.800 90.500 91.000                           17.195 15.564 1.634 16.834 15.323 1.515
PRIMET_226 2014-09-30 13:55:00 226 1342.0 0.00 214 0.007 0.006 210.200 13.910 13.160 12.980 14.26 14.350 14.340 13.840 93.100 94.600                           16.256 15.134 1.122 15.819 14.957 0.854
PRIMET_226 2014-09-30 13:50:00 226 1342.0 0.00 211 0.063 0.063 233.700 0.761 12.910 12.640 14.24 14.230 14.220 13.640 91.700 93.700                           16.235 14.889 1.348 15.615 14.627 0.984
PRIMET_226 2014-09-30 13:45:00 226 1342.0 0.00 212 0.092 0.092 230.600 4.328 12.840 12.530 14.40 14.270 14.280 13.710 90.400 92.600                           16.404 14.820 1.575 15.686 14.522 1.161
PRIMET_226 2014-09-30 13:40:00 226 1342.0 0.00 202 0.075 0.074 225.700 5.929 12.800 12.320 14.58 14.340 14.460 13.920 89.100 90.100                           16.596 14.782 1.809 15.902 14.323 1.574
PRIMET_226 2014-09-30 13:35:00 226 1342.0 0.00 194 0.007 0.006 248.100 27.980 12.850 12.370 14.76 14.650 14.720 14.220 88.300 88.600                           16.790 14.830 1.964 16.214 14.370 1.848
PRIMET_226 2014-09-30 13:30:00 226 1342.0 0.00 206 0.149 0.141 179.200 19.280 12.960 12.630 14.65 14.640 14.660 14.210 89.700 90.200                           16.671 14.937 1.717 16.204 14.618 1.588
PRIMET_226 2014-09-30 13:25:00 226 1342.0 0.00 227 0.149 0.141 256.700 19.070 13.100 12.660 15.20 15.060 15.040 14.580 87.300 88.200                           17.273 15.075 2.194 16.596 14.647 1.958
PRIMET_226 2014-09-30 13:20:00 226 1342.0 0.00 214 0.793 0.461 259.700 52.430 11.900 11.410 15.72 15.950 15.860 15.260 78.150 77.900                           17.859 13.932 3.902 17.339 13.488 3.832
PRIMET_226 2014-09-30 13:15:00 226 1342.0 0.00 196 0.509 0.193 203.200 63.790 13.130 12.710 15.21 15.270 15.250 14.740 87.500 87.700                           17.284 15.104 2.160 16.769 14.695 2.063
PRIMET_226 2014-09-30 13:10:00 226 1342.0 0.00 197 0.059 0.059 228.100 8.130 12.860 12.440 14.95 14.710 14.760 14.370 87.300 88.200                           16.997 14.840 2.159 16.372 14.437 1.932
PRIMET_226 2014-09-30 13:05:00 226 1342.0 0.00 219 0.253 0.226 284.000 26.580 12.290 11.610 15.28 15.100 15.060 14.650 82.400 82.000                           17.362 14.295 3.056 16.671 13.668 3.001
PRIMET_226 2014-09-30 13:00:00 226 1342.0 0.00 206 0.398 0.310 315.600 38.090 12.230 11.480 15.80 15.600 15.540 15.240 79.460 78.280                           17.950 14.239 3.687 17.317 13.551 3.761
PRIMET_226 2014-09-30 12:55:00 226 1342.0 0.00 213 0.847 0.589 244.800 44.710 12.030 11.570 16.61 16.610 16.470 15.940 74.520 75.340                           18.902 14.052 4.816 18.112 13.632 4.466
PRIMET_226 2014-09-30 12:50:00 226 1342.0 0.00 199 0.563 0.285 192.100 56.910 12.520 11.810 16.41 16.410 16.210 15.660 77.900 77.900                           18.663 14.513 4.124 17.790 13.850 3.932
PRIMET_226 2014-09-30 12:45:00 226 1342.0 0.00 205 1.215 0.834 222.300 45.360 12.090 11.340 15.87 15.960 15.680 15.120 78.360 78.190                           18.031 14.108 3.902 17.184 13.426 3.748
PRIMET_226 2014-09-30 12:40:00 226 1342.0 0.00 208 1.000 0.549 236.000 54.430 12.090 11.450 15.61 15.780 15.570 15.010 79.630 79.330                           17.733 14.108 3.612 17.063 13.524 3.527
PRIMET_226 2014-09-30 12:35:00 226 1342.0 0.00 202 0.262 0.234 181.200 26.190 13.340 12.930 15.39 15.520 15.390 14.880 87.600 88.100                           17.485 15.313 2.168 16.921 14.908 2.014
PRIMET_226 2014-09-30 12:30:00 226 1342.0 0.00 194 0.113 0.095 153.200 32.070 13.380 12.910 15.12 15.200 14.990 14.510 89.300 90.100                           17.184 15.353 1.839 16.521 14.889 1.636
PRIMET_226 2014-09-30 12:25:00 226 1342.0 0.00 251 0.193 0.062 178.700 66.800 12.780 12.380 15.18 15.410 15.140 14.470 85.600 87.300                           17.250 14.762 2.484 16.479 14.380 2.093
PRIMET_226 2014-09-30 12:20:00 226 1342.0 0.00 210 0.320 0.252 255.900 37.190 13.620 12.940 14.91 15.150 14.870 14.180 92.000 92.300                           16.953 15.595 1.356 16.172 14.918 1.245
PRIMET_226 2014-09-30 12:15:00 226 1342.0 0.00 198 0.205 0.168 226.400 34.510 13.030 12.340 14.17 14.500 14.350 13.750 92.900 91.200                           16.162 15.006 1.147 15.727 14.342 1.384
PRIMET_226 2014-09-30 12:10:00 226 1342.0 0.00 197 0.108 0.101 166.600 21.300 12.320 11.880 14.03 14.300 14.190 13.680 89.500 88.900                           16.016 14.323 1.682 15.656 13.914 1.738
PRIMET_226 2014-09-30 12:05:00 226 1342.0 0.00 247 0.273 0.193 179.400 43.870 12.900 12.570 13.97 14.340 14.220 13.600 93.400 93.600                           15.954 14.879 1.053 15.574 14.560 0.997
PRIMET_226 2014-09-30 12:00:00 226 1342.0 0.00 258 0.266 0.154 205.900 52.550 12.230 11.990 13.19 13.460 13.430 12.890 93.900 94.200                           15.164 14.239 0.925 14.869 14.015 0.862
PRIMET_226 2014-09-30 11:55:00 226 1342.0 0.00 215 0.455 0.131 30.030 68.320 12.210 11.940 13.30 13.530 13.450 12.980 93.100 93.400                           15.273 14.220 1.054 14.957 13.969 0.987
PRIMET_226 2014-09-30 11:50:00 226 1342.0 0.00 227 0.278 0.277 97.500 3.207 12.640 12.370 13.36 13.620 13.570 13.110 95.400 95.200                           15.333 14.627 0.705 15.085 14.370 0.724
PRIMET_226 2014-09-30 11:45:00 226 1342.0 0.00 214 0.290 0.280 107.700 15.220 12.460 12.260 13.18 13.490 13.430 12.900 95.400 95.900                           15.154 14.456 0.697 14.879 14.267 0.610
PRIMET_226 2014-09-30 11:40:00 226 1342.0 0.00 218 0.085 0.084 112.800 10.230 12.290 11.940 12.93 13.170 13.120 12.590 95.900 95.800                           14.908 14.295 0.611 14.579 13.969 0.612
PRIMET_226 2014-09-30 11:35:00 226 1342.0 0.00 201 0.083 0.083 136.700 1.379 12.240 11.980 12.94 13.170 13.090 12.590 95.500 96.100                           14.918 14.248 0.671 14.579 14.006 0.569
PRIMET_226 2014-09-30 11:30:00 226 1342.0 0.00 206 0.106 0.090 205.000 31.410 12.230 11.930 12.88 13.150 13.100 12.500 95.800 96.300                           14.859 14.239 0.624 14.494 13.960 0.536
PRIMET_226 2014-09-30 11:25:00 226 1342.0 0.00 229 0.433 0.391 223.600 25.180 12.110 11.610 12.82 13.010 12.960 12.380 95.400 95.000                           14.801 14.127 0.681 14.380 13.668 0.719
PRIMET_226 2014-09-30 11:20:00 226 1342.0 0.00 0 0.672 0.509 239.000 39.810 12.140 11.680 13.03 13.240 13.190 12.580 94.300 94.200                           15.006 14.154 0.855 14.570 13.731 0.845
PRIMET_226 2014-09-30 11:15:00 226 1342.0 0.00 200 0.527 0.511 233.100 14.240 12.190 11.860 13.09 13.290 13.240 12.630 94.300 95.100                           15.065 14.201 0.859 14.618 13.896 0.716
PRIMET_226 2014-09-30 11:10:00 226 1342.0 0.00 267 0.106 0.098 226.200 22.550 12.350 11.920 13.06 13.210 13.150 12.590 95.400 95.700                           15.035 14.351 0.692 14.579 13.951 0.627
PRIMET_226 2014-09-30 11:05:00 226 1342.0 0.00 201 0.017 0.017 281.400 1.352 12.220 11.830 12.96 13.050 13.050 12.570 95.200 95.300                           14.937 14.229 0.717 14.560 13.868 0.684
PRIMET_226 2014-09-30 11:00:00 226 1342.0 0.00 209 0.263 0.249 218.700 18.910 11.930 11.690 12.92 13.090 13.060 12.550 93.700 94.500                           14.898 13.960 0.939 14.541 13.740 0.800
PRIMET_226 2014-09-30 10:55:00 226 1342.0 0.00 222 0.764 0.698 239.800 23.880 11.910 11.560 13.19 13.440 13.400 12.820 91.900 92.100                           15.164 13.941 1.228 14.801 13.623 1.169
PRIMET_226 2014-09-30 10:50:00 226 1342.0 0.00 211 0.663 0.598 205.600 25.250 12.020 11.860 13.39 13.700 13.680 13.060 91.400 92.500                           15.363 14.043 1.321 15.035 13.896 1.128
PRIMET_226 2014-09-30 10:45:00 226 1342.0 0.00 223 0.504 0.447 208.200 27.150 12.270 12.010 13.03 13.270 13.270 12.710 95.100 95.600                           15.006 14.276 0.735 14.695 14.034 0.647
PRIMET_226 2014-09-30 10:40:00 226 1342.0 0.00 203 0.337 0.308 219.400 24.010 12.120 11.910 12.84 13.130 13.130 12.520 95.400 96.100                           14.820 14.136 0.682 14.513 13.941 0.566
PRIMET_226 2014-09-30 10:35:00 226 1342.0 0.00 207 0.589 0.516 237.000 28.530 11.910 11.650 12.97 13.320 13.330 12.680 93.300 93.400                           14.947 13.941 1.001 14.666 13.704 0.968
PRIMET_226 2014-09-30 10:30:00 226 1342.0 0.00 202 0.257 0.248 203.900 15.330 12.300 12.020 12.77 13.160 13.130 12.510 96.900 96.800                           14.753 14.304 0.457 14.503 14.043 0.464
PRIMET_226 2014-09-30 10:25:00 226 1342.0 0.00 217 0.186 0.167 178.400 25.530 12.220 12.030 12.35 12.720 12.720 12.160 99.100 99.100                           14.351 14.229 0.129 14.173 14.052 0.128
PRIMET_226 2014-09-30 10:20:00 226 1342.0 0.00 224 0.007 0.007 120.200 3.872 11.980 11.770 12.25 12.570 12.530 12.040 98.200 98.200                           14.257 14.006 0.257 14.062 13.813 0.253
PRIMET_226 2014-09-30 10:15:00 226 1342.0 0.00 232 0.007 0.007 111.600 0.074 11.990 11.770 12.25 12.580 12.500 12.030 98.300 98.400                           14.257 14.015 0.242 14.052 13.813 0.225
PRIMET_226 2014-09-30 10:10:00 226 1342.0 0.00 345 0.007 0.007 111.600 0.056 11.970 11.740 12.20 12.570 12.530 11.970 98.500 98.500                           14.211 13.997 0.213 13.997 13.786 0.210
PRIMET_226 2014-09-30 10:05:00 226 1342.0 0.00 214 0.007 0.007 111.600 0.074 11.870 11.720 12.12 12.440 12.430 11.890 98.300 98.900                           14.136 13.905 0.240 13.923 13.768 0.153
PRIMET_226 2014-09-30 10:00:00 226 1342.0 0.00 221 0.007 0.007 111.500 5.350 11.790 11.570 12.03 12.390 12.380 11.780 98.400 98.600                           14.052 13.831 0.225 13.822 13.632 0.194
PRIMET_226 2014-09-30 09:55:00 226 1342.0 0.00 246 0.007 0.006 86.800 8.740 11.640 11.360 11.88 12.270 12.280 11.620 98.400 98.300                           13.914 13.695 0.223 13.677 13.444 0.233
PRIMET_226 2014-09-30 09:50:00 226 1342.0 0.00 0 0.061 0.051 194.100 33.220 11.450 11.320 11.74 12.080 12.100 11.510 98.100 98.700                           13.786 13.524 0.262 13.578 13.408 0.177
PRIMET_226 2014-09-30 09:45:00 226 1342.0 0.00 247 0.278 0.254 205.200 23.770 11.650 11.430 11.66 11.980 12.010 11.430 99.900 100.000                           13.713 13.704 0.014 13.506 13.506 0.000
PRIMET_226 2014-09-30 09:40:00 226 1342.0 0.00 286 0.007 0.006 230.500 8.860 11.610 11.370 11.61 11.920 11.960 11.370 100.000 100.000                           13.668 13.668 0.000 13.452 13.452 0.000
PRIMET_226 2014-09-30 09:35:00 226 1342.0 0.00 332 0.007 0.006 220.900 8.010 11.460 11.230 11.46 11.790 11.820 11.230 100.000 100.000                           13.533 13.533 0.000 13.328 13.328 0.000
PRIMET_226 2014-09-30 09:30:00 226 1342.0 0.00 228 0.007 0.007 243.000 1.722 11.280 11.050 11.28 11.580 11.640 11.050 100.000 100.000                           13.372 13.372 0.000 13.170 13.170 -0.000
PRIMET_226 2014-09-30 09:25:00 226 1342.0 0.00 292 0.007 0.007 244.000 0.069 11.140 10.950 11.14 11.400 11.470 10.950 100.000 100.000                           13.249 13.249 0.000 13.083 13.083 0.000
PRIMET_226 2014-09-30 09:20:00 226 1342.0 0.00 218 0.007 0.007 244.000 0.084 11.140 10.920 11.14 11.360 11.440 10.920 100.000 100.000                           13.249 13.249 0.000 13.056 13.056 0.000
PRIMET_226 2014-09-30 09:15:00 226 1342.0 0.00 235 0.007 0.007 243.700 0.420 11.210 10.920 11.22 11.400 11.460 10.920 100.000 100.000                           13.319 13.310 0.000 13.056 13.056 0.000
PRIMET_226 2014-09-30 09:10:00 226 1342.0 0.00 223 0.007 0.007 243.200 0.074 11.240 10.920 11.29 11.410 11.460 10.920 99.700 100.000                           13.381 13.337 0.040 13.056 13.056 0.000
PRIMET_226 2014-09-30 09:05:00 226 1342.0 0.00 233 0.007 0.007 240.600 1.689 11.330 10.940 11.34 11.480 11.500 10.940 99.900 100.000                           13.426 13.417 0.013 13.074 13.074 0.000
PRIMET_226 2014-09-30 09:00:00 226 1342.0 0.00 224 0.007 0.007 239.200 0.357 11.320 10.980 11.32 11.500 11.520 10.980 100.000 100.000                           13.408 13.408 0.000 13.109 13.109 -0.000
PRIMET_226 2014-09-30 08:55:00 226 1342.0 0.00 249 0.007 0.007 238.500 0.063 11.270 10.960 11.27 11.460 11.500 10.960 100.000 100.000                           13.364 13.364 0.000 13.091 13.091 0.000
PRIMET_226 2014-09-30 08:50:00 226 1342.0 0.00 200 0.007 0.007 237.300 3.260 11.200 10.950 11.22 11.410 11.460 10.950 99.900 100.000                           13.319 13.302 0.013 13.083 13.083 0.000
PRIMET_226 2014-09-30 08:45:00 226 1342.0 0.00 320 0.007 0.007 222.400 1.216 11.280 11.090 11.31 11.570 11.620 11.090 99.800 100.000                           13.399 13.372 0.027 13.205 13.205 0.000
PRIMET_226 2014-09-30 08:40:00 226 1342.0 0.00 201 0.112 0.103 190.500 23.340 11.330 11.180 11.40 11.720 11.750 11.180 99.500 100.000                           13.479 13.417 0.067 13.284 13.284 0.000
PRIMET_226 2014-09-30 08:35:00 226 1342.0 0.00 211 0.007 0.007 197.200 0.843 11.420 11.250 11.44 11.840 11.860 11.250 99.800 100.000                           13.515 13.497 0.027 13.346 13.346 0.000
PRIMET_226 2014-09-30 08:30:00 226 1342.0 0.00 201 0.023 0.023 197.300 0.341 11.470 11.300 11.47 11.870 11.890 11.300 100.000 100.000                           13.542 13.542 0.000 13.390 13.390 0.000
PRIMET_226 2014-09-30 08:25:00 226 1342.0 0.00 237 0.071 0.071 197.400 0.835 11.490 11.350 11.49 11.950 11.980 11.350 100.000 100.000                           13.560 13.560 0.000 13.435 13.435 0.000
PRIMET_226 2014-09-30 08:20:00 226 1342.0 0.00 200 0.009 0.009 192.900 0.776 11.430 11.250 11.43 11.890 11.910 11.250 100.000 100.000                           13.506 13.506 0.000 13.346 13.346 0.000
PRIMET_226 2014-09-30 08:15:00 226 1342.0 0.00 219 0.007 0.007 192.000 0.395 11.240 11.060 11.24 11.670 11.670 11.060 100.000 100.000                           13.337 13.337 -0.000 13.179 13.179 -0.000
PRIMET_226 2014-09-30 08:10:00 226 1342.0 0.00 222 0.007 0.007 196.900 3.070 11.090 10.890 11.09 11.480 11.510 10.890 100.000 100.000                           13.205 13.205 0.000 13.030 13.030 -0.000
PRIMET_226 2014-09-30 08:05:00 226 1342.0 0.00 206 0.007 0.007 183.700 3.584 10.940 10.780 10.94 11.330 11.380 10.780 100.000 100.000                           13.074 13.074 0.000 12.935 12.935 0.000
PRIMET_226 2014-09-30 08:00:00 226 1342.0 0.00 282 0.007 0.007 179.600 0.658 10.850 10.690 10.85 11.250 11.290 10.690 100.000 100.000                           12.996 12.996 0.000 12.858 12.858 0.000
PRIMET_226 2014-09-30 07:55:00 226 1342.0 0.00 253 0.007 0.007 180.100 0.468 10.750 10.580 10.75 11.120 11.160 10.580 100.000 100.000                           12.910 12.910 0.000 12.764 12.764 0.000
PRIMET_226 2014-09-30 07:50:00 226 1342.0 0.00 221 0.007 0.006 210.800 27.610 10.660 10.490 10.66 11.000 11.050 10.490 100.000 100.000                           12.832 12.832 0.000 12.688 12.688 0.000
PRIMET_226 2014-09-30 07:45:00 226 1342.0 0.00 214 0.007 0.007 238.300 0.063 10.580 10.380 10.58 10.880 10.930 10.380 100.000 100.000                           12.764 12.764 0.000 12.595 12.595 0.000
PRIMET_226 2014-09-30 07:40:00 226 1342.0 0.00 230 0.007 0.007 238.300 0.056 10.500 10.300 10.50 10.810 10.860 10.300 100.000 100.000                           12.696 12.696 0.000 12.528 12.528 0.000
PRIMET_226 2014-09-30 07:35:00 226 1342.0 0.00 216 0.007 0.007 238.300 0.063 10.360 10.190 10.36 10.660 10.710 10.190 100.000 100.000                           12.578 12.578 0.000 12.436 12.436 0.000
PRIMET_226 2014-09-30 07:30:00 226 1342.0 0.00 235 0.007 0.007 238.300 0.048 10.200 10.070 10.20 10.490 10.570 10.070 100.000 100.000                           12.444 12.444 0.000 12.336 12.336 0.000
PRIMET_226 2014-09-30 07:25:00 226 1342.0 0.00 217 0.007 0.006 227.800 6.633 10.070 9.980 10.07 10.360 10.450 9.980 100.000 100.000                           12.336 12.336 0.000 12.262 12.262 0.000
PRIMET_226 2014-09-30 07:20:00 226 1342.0 0.00 203 0.007 0.007 221.700 0.000 10.040 9.950 10.04 10.320 10.400 9.950 100.000 100.000                           12.312 12.312 0.000 12.238 12.238 0.000
PRIMET_226 2014-09-30 07:15:00 226 1342.0 0.00 209 0.007 0.007 222.900 0.588 10.120 10.000 10.12 10.400 10.480 10.000 100.000 100.000                           12.378 12.378 0.000 12.279 12.279 0.000
PRIMET_226 2014-09-30 07:10:00 226 1342.0 0.00 231 0.007 0.007 223.300 0.000 10.150 10.020 10.15 10.450 10.530 10.020 100.000 100.000                           12.403 12.403 0.000 12.295 12.295 0.000
PRIMET_226 2014-09-30 07:05:00 226 1342.0 0.00 246 0.007 0.007 223.300 0.000 10.160 10.020 10.16 10.460 10.540 10.020 100.000 100.000                           12.411 12.411 -0.000 12.295 12.295 0.000
PRIMET_226 2014-09-30 07:00:00 226 1342.0 0.00 227 0.007 0.007 223.200 0.179 10.140 10.010 10.14 10.440 10.510 10.010 100.000 100.000                           12.394 12.394 0.000 12.287 12.287 0.000
PRIMET_226 2014-09-30 06:55:00 226 1342.0 0.00 240 0.007 0.007 220.800 0.145 10.120 10.000 10.12 10.420 10.510 10.000 100.000 100.000                           12.378 12.378 0.000 12.279 12.279 0.000
PRIMET_226 2014-09-30 06:50:00 226 1342.0 0.00 233 0.007 0.007 220.700 0.028 10.100 9.970 10.10 10.390 10.470 9.970 100.000 100.000                           12.361 12.361 -0.000 12.254 12.254 0.000
PRIMET_226 2014-09-30 06:45:00 226 1342.0 0.00 220 0.007 0.007 224.700 1.117 10.080 9.950 10.08 10.370 10.460 9.950 100.000 100.000                           12.345 12.345 0.000 12.238 12.238 0.000
PRIMET_226 2014-09-30 06:40:00 226 1342.0 0.00 375 0.007 0.007 225.500 0.000 10.070 9.920 10.07 10.350 10.430 9.920 100.000 100.000                           12.336 12.336 0.000 12.213 12.213 -0.000
PRIMET_226 2014-09-30 06:35:00 226 1342.0 0.00 240 0.007 0.007 223.800 0.697 10.040 9.910 10.04 10.340 10.420 9.910 100.000 100.000                           12.312 12.312 0.000 12.205 12.205 0.000
PRIMET_226 2014-09-30 06:30:00 226 1342.0 0.00 198 0.007 0.007 222.900 0.151 10.000 9.870 10.00 10.300 10.380 9.870 100.000 100.000                           12.279 12.279 0.000 12.172 12.172 0.000
PRIMET_226 2014-09-30 06:25:00 226 1342.0 0.00 221 0.007 0.007 223.700 1.022 9.980 9.850 9.98 10.270 10.360 9.850 100.000 100.000                           12.262 12.262 0.000 12.156 12.156 0.000
PRIMET_226 2014-09-30 06:20:00 226 1342.0 0.00 226 0.007 0.007 224.300 1.096 9.930 9.820 9.93 10.220 10.310 9.820 100.000 100.000                           12.221 12.221 0.000 12.131 12.131 0.000
PRIMET_226 2014-09-30 06:15:00 226 1342.0 0.00 234 0.007 0.007 223.400 2.050 9.940 9.820 9.94 10.200 10.290 9.820 100.000 100.000                           12.229 12.229 0.000 12.131 12.131 0.000
PRIMET_226 2014-09-30 06:10:00 226 1342.0 0.00 234 0.007 0.007 227.100 0.000 9.970 9.840 9.97 10.230 10.310 9.840 100.000 100.000                           12.254 12.254 0.000 12.148 12.148 -0.000
PRIMET_226 2014-09-30 06:05:00 226 1342.0 0.00 249 0.007 0.007 227.100 0.000 9.990 9.870 9.99 10.260 10.350 9.870 100.000 100.000                           12.271 12.271 0.000 12.172 12.172 0.000
PRIMET_226 2014-09-30 06:00:00 226 1342.0 0.00 270 0.007 0.007 226.900 0.093 9.980 9.860 9.98 10.250 10.340 9.860 100.000 100.000                           12.262 12.262 0.000 12.164 12.164 0.000
PRIMET_226 2014-09-30 05:55:00 226 1342.0 0.00 238 0.007 0.007 226.800 0.000 9.980 9.870 9.98 10.270 10.350 9.870 100.000 100.000                           12.262 12.262 0.000 12.172 12.172 0.000
PRIMET_226 2014-09-30 05:50:00 226 1342.0 0.00 249 0.007 0.007 226.800 0.000 10.000 9.880 10.00 10.270 10.350 9.880 100.000 100.000                           12.279 12.279 0.000 12.180 12.180 0.000
PRIMET_226 2014-09-30 05:45:00 226 1342.0 0.00 229 0.007 0.007 226.800 0.000 10.040 9.900 10.04 10.300 10.360 9.900 100.000 100.000                           12.312 12.312 0.000 12.197 12.197 0.000
PRIMET_226 2014-09-30 05:40:00 226 1342.0 0.00 208 0.007 0.007 226.800 0.000 10.130 9.970 10.13 10.360 10.430 9.970 100.000 100.000                           12.386 12.386 0.000 12.254 12.254 0.000
PRIMET_226 2014-09-30 05:35:00 226 1342.0 0.00 308 0.007 0.007 225.100 0.510 10.210 10.080 10.21 10.480 10.560 10.080 100.000 100.000                           12.453 12.453 0.000 12.345 12.345 0.000
PRIMET_226 2014-09-30 05:30:00 226 1342.0 0.00 213 0.007 0.007 224.000 0.225 10.230 10.120 10.23 10.540 10.610 10.120 100.000 100.000                           12.469 12.469 0.000 12.378 12.378 0.000
PRIMET_226 2014-09-30 05:25:00 226 1342.0 0.00 308 0.007 0.007 229.600 5.739 10.250 10.140 10.25 10.550 10.620 10.140 100.000 100.000                           12.486 12.486 0.000 12.394 12.394 0.000
PRIMET_226 2014-09-30 05:20:00 226 1342.0 0.00 262 0.007 0.007 236.000 0.040 10.230 10.110 10.23 10.540 10.620 10.110 100.000 100.000                           12.469 12.469 0.000 12.370 12.370 0.000
PRIMET_226 2014-09-30 05:15:00 226 1342.0 0.00 213 0.007 0.007 236.000 0.040 10.190 10.080 10.19 10.490 10.570 10.080 100.000 100.000                           12.436 12.436 0.000 12.345 12.345 0.000
PRIMET_226 2014-09-30 05:10:00 226 1342.0 0.00 225 0.007 0.007 236.000 0.040 10.200 10.080 10.20 10.490 10.570 10.080 100.000 100.000                           12.444 12.444 0.000 12.345 12.345 0.000
PRIMET_226 2014-09-30 05:05:00 226 1342.0 0.00 208 0.007 0.007 236.000 0.028 10.190 10.080 10.19 10.490 10.570 10.080 100.000 100.000                           12.436 12.436 0.000 12.345 12.345 0.000
PRIMET_226 2014-09-30 05:00:00 226 1342.0 0.00 228 0.007 0.007 236.000 0.040 10.170 10.070 10.17 10.460 10.550 10.070 100.000 100.000                           12.419 12.419 0.000 12.336 12.336 0.000
PRIMET_226 2014-09-30 04:55:00 226 1342.0 0.00 317 0.007 0.007 236.000 0.028 10.170 10.080 10.17 10.470 10.560 10.080 100.000 100.000                           12.419 12.419 0.000 12.345 12.345 0.000
PRIMET_226 2014-09-30 04:50:00 226 1342.0 0.00 214 0.007 0.007 236.000 0.040 10.130 10.050 10.13 10.440 10.530 10.050 100.000 100.000                           12.386 12.386 0.000 12.320 12.320 0.000
PRIMET_226 2014-09-30 04:45:00 226 1342.0 0.00 210 0.007 0.007 236.000 0.040 10.110 10.040 10.11 10.420 10.510 10.040 100.000 100.000                           12.370 12.370 0.000 12.312 12.312 0.000
PRIMET_226 2014-09-30 04:40:00 226 1342.0 0.00 230 0.007 0.007 236.000 0.048 10.110 10.030 10.11 10.410 10.510 10.030 100.000 100.000                           12.370 12.370 0.000 12.303 12.303 0.000
PRIMET_226 2014-09-30 04:35:00 226 1342.0 0.00 216 0.007 0.007 236.000 0.040 10.120 10.050 10.12 10.430 10.520 10.050 100.000 100.000                           12.378 12.378 0.000 12.320 12.320 0.000
PRIMET_226 2014-09-30 04:30:00 226 1342.0 0.00 205 0.007 0.007 236.000 0.040 10.120 10.060 10.12 10.430 10.530 10.060 100.000 100.000                           12.378 12.378 0.000 12.328 12.328 0.000
PRIMET_226 2014-09-30 04:25:00 226 1342.0 0.00 211 0.007 0.007 236.000 0.048 10.140 10.060 10.14 10.450 10.540 10.060 100.000 100.000                           12.394 12.394 0.000 12.328 12.328 0.000
PRIMET_226 2014-09-30 04:20:00 226 1342.0 0.00 230 0.007 0.007 236.000 0.040 10.170 10.080 10.17 10.470 10.550 10.080 100.000 100.000                           12.419 12.419 0.000 12.345 12.345 0.000
PRIMET_226 2014-09-30 04:15:00 226 1342.0 0.00 220 0.007 0.007 235.900 0.093 10.200 10.100 10.20 10.500 10.580 10.100 100.000 100.000                           12.444 12.444 0.000 12.361 12.361 -0.000
PRIMET_226 2014-09-30 04:10:00 226 1342.0 0.00 228 0.007 0.007 235.800 0.048 10.200 10.110 10.20 10.500 10.580 10.110 100.000 100.000                           12.444 12.444 0.000 12.370 12.370 0.000
PRIMET_226 2014-09-30 04:05:00 226 1342.0 0.00 222 0.007 0.007 235.800 0.048 10.210 10.120 10.21 10.510 10.600 10.120 100.000 100.000                           12.453 12.453 0.000 12.378 12.378 0.000
PRIMET_226 2014-09-30 04:00:00 226 1342.0 0.00 234 0.007 0.007 235.900 0.048 10.220 10.130 10.22 10.530 10.620 10.130 100.000 100.000                           12.461 12.461 0.000 12.386 12.386 0.000
PRIMET_226 2014-09-30 03:55:00 226 1342.0 0.00 246 0.007 0.007 235.800 0.040 10.210 10.110 10.21 10.520 10.600 10.110 100.000 100.000                           12.453 12.453 0.000 12.370 12.370 0.000
PRIMET_226 2014-09-30 03:50:00 226 1342.0 0.00 258 0.007 0.007 235.800 0.048 10.210 10.110 10.21 10.520 10.600 10.110 100.000 100.000                           12.453 12.453 0.000 12.370 12.370 0.000
PRIMET_226 2014-09-30 03:45:00 226 1342.0 0.00 227 0.007 0.007 235.800 0.028 10.210 10.110 10.21 10.520 10.600 10.110 100.000 100.000                           12.453 12.453 0.000 12.370 12.370 0.000
PRIMET_226 2014-09-30 03:40:00 226 1342.0 0.00 344 0.007 0.007 235.800 0.040 10.180 10.080 10.18 10.490 10.570 10.080 100.000 100.000                           12.428 12.428 0.000 12.345 12.345 0.000
PRIMET_226 2014-09-30 03:35:00 226 1342.0 0.00 321 0.007 0.007 235.800 0.040 10.170 10.070 10.17 10.480 10.550 10.070 100.000 100.000                           12.419 12.419 0.000 12.336 12.336 0.000
PRIMET_226 2014-09-30 03:30:00 226 1342.0 0.00 258 0.007 0.007 235.800 0.084 10.140 10.060 10.14 10.450 10.530 10.070 100.000 100.000                           12.394 12.394 0.000 12.336 12.328 0.000
PRIMET_226 2014-09-30 03:25:00 226 1342.0 0.00 258 0.007 0.007 236.000 0.028 10.120 10.060 10.12 10.440 10.530 10.060 100.000 100.000                           12.378 12.378 0.000 12.328 12.328 0.000
PRIMET_226 2014-09-30 03:20:00 226 1342.0 0.00 317 0.007 0.007 235.700 0.264 10.120 10.040 10.12 10.410 10.500 10.040 100.000 100.000                           12.378 12.378 0.000 12.312 12.312 0.000
PRIMET_226 2014-09-30 03:15:00 226 1342.0 0.00 377 0.007 0.007 235.900 0.028 10.140 10.050 10.14 10.430 10.510 10.050 100.000 100.000                           12.394 12.394 0.000 12.320 12.320 0.000
PRIMET_226 2014-09-30 03:10:00 226 1342.0 0.00 350 0.007 0.007 235.900 0.048 10.140 10.050 10.14 10.450 10.520 10.050 100.000 100.000                           12.394 12.394 0.000 12.320 12.320 0.000
PRIMET_226 2014-09-30 03:05:00 226 1342.0 0.00 242 0.007 0.007 236.200 0.207 10.140 10.060 10.14 10.440 10.520 10.060 100.000 100.000                           12.394 12.394 0.000 12.328 12.328 0.000
PRIMET_226 2014-09-30 03:00:00 226 1342.0 0.00 375 0.007 0.007 236.300 0.168 10.160 10.080 10.16 10.460 10.550 10.080 100.000 100.000                           12.411 12.411 -0.000 12.345 12.345 0.000
PRIMET_226 2014-09-30 02:55:00 226 1342.0 0.00 262 0.007 0.007 235.900 0.048 10.160 10.080 10.16 10.460 10.540 10.080 100.000 100.000                           12.411 12.411 -0.000 12.345 12.345 0.000
PRIMET_226 2014-09-30 02:50:00 226 1342.0 0.00 341 0.007 0.007 235.900 0.028 10.180 10.100 10.18 10.470 10.550 10.100 100.000 100.000                           12.428 12.428 0.000 12.361 12.361 -0.000
PRIMET_226 2014-09-30 02:45:00 226 1342.0 0.00 389 0.007 0.007 235.900 0.040 10.220 10.140 10.22 10.520 10.610 10.140 100.000 100.000                           12.461 12.461 0.000 12.394 12.394 0.000
PRIMET_226 2014-09-30 02:40:00 226 1342.0 0.00 241 0.007 0.007 235.200 0.521 10.240 10.160 10.24 10.530 10.620 10.160 100.000 100.000                           12.478 12.478 0.000 12.411 12.411 -0.000
PRIMET_226 2014-09-30 02:35:00 226 1342.0 0.00 402 0.007 0.007 235.900 0.204 10.280 10.170 10.28 10.570 10.650 10.170 100.000 100.000                           12.511 12.511 0.000 12.419 12.419 0.000
PRIMET_226 2014-09-30 02:30:00 226 1342.0 0.00 252 0.007 0.007 234.800 0.924 10.250 10.170 10.25 10.540 10.630 10.170 100.000 100.000                           12.486 12.486 0.000 12.419 12.419 0.000
PRIMET_226 2014-09-30 02:25:00 226 1342.0 0.00 360 0.007 0.007 237.300 0.063 10.260 10.180 10.26 10.570 10.660 10.180 100.000 100.000                           12.494 12.494 0.000 12.428 12.428 0.000
PRIMET_226 2014-09-30 02:20:00 226 1342.0 0.00 262 0.007 0.007 234.900 1.546 10.190 10.110 10.19 10.500 10.570 10.110 100.000 100.000                           12.436 12.436 0.000 12.370 12.370 0.000
PRIMET_226 2014-09-30 02:15:00 226 1342.0 0.00 262 0.007 0.006 248.500 5.919 10.210 10.130 10.21 10.520 10.600 10.130 100.000 100.000                           12.453 12.453 0.000 12.386 12.386 0.000
PRIMET_226 2014-09-30 02:10:00 226 1342.0 0.00 265 0.007 0.007 251.700 0.093 10.240 10.140 10.24 10.540 10.620 10.140 100.000 100.000                           12.478 12.478 0.000 12.394 12.394 0.000
PRIMET_226 2014-09-30 02:05:00 226 1342.0 0.00 253 0.007 0.007 251.600 0.079 10.210 10.120 10.21 10.520 10.600 10.120 100.000 100.000                           12.453 12.453 0.000 12.378 12.378 0.000
PRIMET_226 2014-09-30 02:00:00 226 1342.0 0.00 242 0.007 0.007 251.700 0.093 10.210 10.140 10.21 10.520 10.600 10.140 100.000 100.000                           12.453 12.453 0.000 12.394 12.394 0.000
PRIMET_226 2014-09-30 01:55:00 226 1342.0 0.00 232 0.007 0.007 251.700 0.084 10.230 10.150 10.23 10.530 10.620 10.150 100.000 100.000                           12.469 12.469 0.000 12.403 12.403 0.000
PRIMET_226 2014-09-30 01:50:00 226 1342.0 0.00 235 0.007 0.007 251.700 0.088 10.230 10.150 10.23 10.550 10.630 10.150 100.000 100.000                           12.469 12.469 0.000 12.403 12.403 0.000
PRIMET_226 2014-09-30 01:45:00 226 1342.0 0.00 224 0.007 0.007 251.600 0.084 10.230 10.140 10.23 10.530 10.610 10.140 100.000 100.000                           12.469 12.469 0.000 12.394 12.394 0.000
PRIMET_226 2014-09-30 01:40:00 226 1342.0 0.00 0 0.007 0.007 251.600 0.079 10.290 10.170 10.29 10.570 10.650 10.170 100.000 100.000                           12.519 12.519 0.000 12.419 12.419 0.000
PRIMET_226 2014-09-30 01:35:00 226 1342.0 0.00 234 0.007 0.007 251.600 0.079 10.260 10.160 10.26 10.580 10.650 10.160 100.000 100.000                           12.494 12.494 0.000 12.411 12.411 -0.000
PRIMET_226 2014-09-30 01:30:00 226 1342.0 0.00 226 0.007 0.007 251.600 0.079 10.190 10.110 10.19 10.520 10.590 10.110 100.000 100.000                           12.436 12.436 0.000 12.370 12.370 0.000
PRIMET_226 2014-09-30 01:25:00 226 1342.0 0.00 238 0.007 0.007 251.600 0.084 10.180 10.100 10.18 10.480 10.560 10.100 100.000 100.000                           12.428 12.428 0.000 12.361 12.361 -0.000
PRIMET_226 2014-09-30 01:20:00 226 1342.0 0.00 210 0.007 0.007 251.700 0.084 10.180 10.100 10.18 10.480 10.560 10.100 100.000 100.000                           12.428 12.428 0.000 12.361 12.361 -0.000
PRIMET_226 2014-09-30 01:15:00 226 1342.0 0.00 216 0.007 0.007 251.700 0.079 10.160 10.090 10.16 10.480 10.560 10.090 100.000 100.000                           12.411 12.411 -0.000 12.353 12.353 0.000
PRIMET_226 2014-09-30 01:10:00 226 1342.0 0.00 230 0.007 0.007 251.700 0.074 10.130 10.060 10.13 10.440 10.520 10.060 100.000 100.000                           12.386 12.386 0.000 12.328 12.328 0.000
PRIMET_226 2014-09-30 01:05:00 226 1342.0 0.00 222 0.007 0.007 251.700 0.074 10.130 10.050 10.13 10.440 10.510 10.060 100.000 100.000                           12.386 12.386 0.000 12.328 12.320 0.000
PRIMET_226 2014-09-30 01:00:00 226 1342.0 0.00 226 0.007 0.007 251.700 0.079 10.130 10.040 10.13 10.430 10.510 10.040 100.000 100.000                           12.386 12.386 0.000 12.312 12.312 0.000
PRIMET_226 2014-09-30 00:55:00 226 1342.0 0.00 202 0.007 0.007 251.700 0.079 10.100 10.030 10.10 10.400 10.480 10.030 100.000 100.000                           12.361 12.361 -0.000 12.303 12.303 0.000
PRIMET_226 2014-09-30 00:50:00 226 1342.0 0.00 226 0.007 0.007 251.700 0.074 10.080 10.020 10.08 10.390 10.470 10.020 100.000 100.000                           12.345 12.345 0.000 12.295 12.295 0.000
PRIMET_226 2014-09-30 00:45:00 226 1342.0 0.00 234 0.007 0.007 251.700 0.074 10.080 10.020 10.08 10.400 10.480 10.020 100.000 100.000                           12.345 12.345 0.000 12.295 12.295 0.000
PRIMET_226 2014-09-30 00:40:00 226 1342.0 0.00 206 0.007 0.007 251.700 0.079 10.080 10.010 10.08 10.390 10.470 10.010 100.000 100.000                           12.345 12.345 0.000 12.287 12.287 0.000
PRIMET_226 2014-09-30 00:35:00 226 1342.0 0.00 198 0.007 0.007 251.700 0.084 10.090 10.010 10.09 10.380 10.470 10.010 100.000 100.000                           12.353 12.353 0.000 12.287 12.287 0.000
PRIMET_226 2014-09-30 00:30:00 226 1342.0 0.00 200 0.007 0.007 251.600 0.177 10.050 10.000 10.05 10.380 10.460 10.000 100.000 100.000                           12.320 12.320 0.000 12.279 12.279 0.000
PRIMET_226 2014-09-30 00:25:00 226 1342.0 0.00 204 0.007 0.007 250.700 0.431 10.000 9.950 10.00 10.300 10.380 9.950 100.000 100.000                           12.279 12.279 0.000 12.238 12.238 0.000
PRIMET_226 2014-09-30 00:20:00 226 1342.0 0.00 208 0.007 0.007 253.900 0.484 10.020 9.950 10.02 10.320 10.400 9.950 100.000 100.000                           12.295 12.295 0.000 12.238 12.238 0.000
PRIMET_226 2014-09-30 00:15:00 226 1342.0 0.00 203 0.007 0.007 253.800 0.466 10.010 9.940 10.01 10.320 10.390 9.940 100.000 100.000                           12.287 12.287 0.000 12.229 12.229 0.000
PRIMET_226 2014-09-30 00:10:00 226 1342.0 0.00 202 0.007 0.007 251.100 0.215 9.990 9.930 9.99 10.280 10.370 9.930 100.000 100.000                           12.271 12.271 0.000 12.221 12.221 0.000
PRIMET_226 2014-09-30 00:05:00 226 1342.0 0.00 202 0.007 0.006 277.700 23.230 9.980 9.950 9.98 10.280 10.370 9.950 100.000 100.000                           12.262 12.262 0.000 12.238 12.238 0.000
PRIMET_226 2014-09-30 00:00:00 226 1342.0 0.00 206 0.007 0.007 304.300 0.000 10.000 9.950 10.00 10.300 10.380 9.950 100.000 100.000                           12.279 12.279 0.000 12.238 12.238 0.000
PRIMET_226 2014-09-29 23:55:00 226 1342.0 0.00 203 0.007 0.007 304.300 0.000 9.970 9.910 9.97 10.290 10.360 9.910 100.000 100.000                           12.254 12.254 0.000 12.205 12.205 0.000
PRIMET_226 2014-09-29 23:50:00 226 1342.0 0.00 203 0.007 0.007 304.300 0.000 9.940 9.890 9.94 10.230 10.310 9.890 100.000 100.000                           12.229 12.229 0.000 12.189 12.189 0.000
PRIMET_226 2014-09-29 23:45:00 226 1342.0 0.00 201 0.007 0.007 304.300 0.000 9.950 9.920 9.95 10.240 10.330 9.920 100.000 100.000                           12.238 12.238 0.000 12.213 12.213 -0.000
PRIMET_226 2014-09-29 23:40:00 226 1342.0 0.00 212 0.007 0.007 304.200 0.000 9.970 9.920 9.97 10.260 10.350 9.920 100.000 100.000                           12.254 12.254 0.000 12.213 12.213 -0.000
PRIMET_226 2014-09-29 23:35:00 226 1342.0 0.00 208 0.007 0.007 304.200 0.000 9.950 9.890 9.95 10.250 10.330 9.890 100.000 100.000                           12.238 12.238 0.000 12.189 12.189 0.000
PRIMET_226 2014-09-29 23:30:00 226 1342.0 0.00 206 0.007 0.007 304.200 0.000 9.960 9.890 9.96 10.240 10.330 9.890 100.000 100.000                           12.246 12.246 0.000 12.189 12.189 0.000
PRIMET_226 2014-09-29 23:25:00 226 1342.0 0.00 201 0.007 0.007 304.200 0.000 9.960 9.880 9.96 10.240 10.310 9.880 100.000 100.000                           12.246 12.246 0.000 12.180 12.180 0.000
PRIMET_226 2014-09-29 23:20:00 226 1342.0 0.00 202 0.007 0.007 304.200 0.000 9.930 9.880 9.93 10.220 10.300 9.880 100.000 100.000                           12.221 12.221 0.000 12.180 12.180 0.000
PRIMET_226 2014-09-29 23:15:00 226 1342.0 0.00 200 0.007 0.007 304.200 0.000 9.940 9.890 9.94 10.230 10.310 9.890 100.000 100.000                           12.229 12.229 0.000 12.189 12.189 0.000
PRIMET_226 2014-09-29 23:10:00 226 1342.0 0.00 203 0.007 0.007 304.200 0.000 9.920 9.910 9.92 10.210 10.300 9.910 100.000 100.000                           12.213 12.213 -0.000 12.205 12.205 0.000
PRIMET_226 2014-09-29 23:05:00 226 1342.0 0.00 202 0.007 0.007 303.400 0.659 9.930 9.930 9.93 10.230 10.330 9.930 100.000 100.000                           12.221 12.221 0.000 12.221 12.221 0.000
PRIMET_226 2014-09-29 23:00:00 226 1342.0 0.00 207 0.007 0.007 302.400 0.148 9.910 9.920 9.91 10.200 10.290 9.920 100.000 100.000                           12.205 12.205 0.000 12.213 12.213 -0.000
PRIMET_226 2014-09-29 22:55:00 226 1342.0 0.00 210 0.007 0.007 301.500 0.644 9.960 9.970 9.96 10.270 10.370 9.970 100.000 100.000                           12.246 12.246 0.000 12.254 12.254 0.000
PRIMET_226 2014-09-29 22:50:00 226 1342.0 0.00 201 0.007 0.004 328.400 45.460 10.020 10.020 10.02 10.310 10.390 10.020 100.000 100.000                           12.295 12.295 0.000 12.295 12.295 0.000
PRIMET_226 2014-09-29 22:45:00 226 1342.0 0.00 200 0.007 0.007 47.060 0.000 10.100 10.070 10.10 10.390 10.460 10.070 100.000 100.000                           12.361 12.361 -0.000 12.336 12.336 0.000
PRIMET_226 2014-09-29 22:40:00 226 1342.0 0.00 201 0.007 0.007 47.130 0.093 10.110 10.090 10.11 10.410 10.480 10.090 100.000 100.000                           12.370 12.370 0.000 12.353 12.353 0.000
PRIMET_226 2014-09-29 22:35:00 226 1342.0 0.00 203 0.007 0.007 47.340 0.000 10.140 10.120 10.14 10.430 10.510 10.120 100.000 100.000                           12.394 12.394 0.000 12.378 12.378 0.000
PRIMET_226 2014-09-29 22:30:00 226 1342.0 0.00 202 0.007 0.007 47.030 0.000 10.160 10.130 10.16 10.450 10.540 10.130 100.000 100.000                           12.411 12.411 -0.000 12.386 12.386 0.000
PRIMET_226 2014-09-29 22:25:00 226 1342.0 0.00 200 0.007 0.007 47.030 0.000 10.140 10.120 10.14 10.440 10.530 10.120 100.000 100.000                           12.394 12.394 0.000 12.378 12.378 0.000
PRIMET_226 2014-09-29 22:20:00 226 1342.0 0.00 200 0.007 0.007 47.030 0.000 10.100 10.100 10.10 10.400 10.490 10.100 100.000 100.000                           12.361 12.361 -0.000 12.361 12.361 -0.000
PRIMET_226 2014-09-29 22:15:00 226 1342.0 0.00 221 0.007 0.007 47.110 0.115 10.080 10.110 10.08 10.370 10.470 10.110 100.000 100.000                           12.345 12.345 0.000 12.370 12.370 0.000
PRIMET_226 2014-09-29 22:10:00 226 1342.0 0.00 200 0.007 0.007 46.600 0.585 10.120 10.170 10.12 10.400 10.510 10.170 100.000 100.000                           12.378 12.378 0.000 12.419 12.419 0.000
PRIMET_226 2014-09-29 22:05:00 226 1342.0 0.00 200 0.007 0.007 46.080 0.000 10.170 10.160 10.17 10.450 10.530 10.160 100.000 100.000                           12.419 12.419 0.000 12.411 12.411 -0.000
PRIMET_226 2014-09-29 22:00:00 226 1342.0 0.00 200 0.007 0.007 47.310 0.680 10.160 10.170 10.16 10.420 10.500 10.170 100.000 100.000                           12.411 12.411 -0.000 12.419 12.419 0.000
PRIMET_226 2014-09-29 21:55:00 226 1342.0 0.00 205 0.007 0.007 47.200 0.740 10.270 10.280 10.27 10.520 10.600 10.280 100.000 100.000                           12.503 12.503 0.000 12.511 12.511 0.000
PRIMET_226 2014-09-29 21:50:00 226 1342.0 0.00 201 0.007 0.007 45.420 1.324 10.400 10.390 10.40 10.650 10.730 10.390 100.000 100.000                           12.612 12.612 0.000 12.603 12.603 0.000
PRIMET_226 2014-09-29 21:45:00 226 1342.0 0.00 205 0.007 0.005 83.000 37.870 10.480 10.450 10.48 10.740 10.800 10.450 100.000 100.000                           12.679 12.679 0.000 12.654 12.654 0.000
PRIMET_226 2014-09-29 21:40:00 226 1342.0 0.00 201 0.073 0.073 131.000 4.321 10.540 10.540 10.54 10.800 10.880 10.540 100.000 100.000                           12.730 12.730 0.000 12.730 12.730 0.000
PRIMET_226 2014-09-29 21:35:00 226 1342.0 0.00 202 0.170 0.170 111.100 0.571 10.650 10.660 10.65 10.900 10.970 10.660 100.000 100.000                           12.824 12.824 0.000 12.832 12.832 0.000
PRIMET_226 2014-09-29 21:30:00 226 1342.0 0.00 200 0.110 0.110 112.900 3.617 10.840 10.840 10.84 11.070 11.130 10.840 100.000 100.000                           12.987 12.987 0.000 12.987 12.987 0.000
PRIMET_226 2014-09-29 21:25:00 226 1342.0 0.00 202 0.122 0.122 103.300 4.755 11.160 11.180 11.16 11.380 11.440 11.180 100.000 100.000                           13.266 13.266 0.000 13.284 13.284 0.000
PRIMET_226 2014-09-29 21:20:00 226 1342.0 0.00 207 0.175 0.175 101.600 2.638 11.360 11.380 11.36 11.680 11.770 11.380 100.000 100.000                           13.444 13.444 0.000 13.461 13.461 -0.000
PRIMET_226 2014-09-29 21:15:00 226 1342.0 0.00 228 0.007 0.007 68.070 0.589 11.410 11.410 11.41 11.710 11.780 11.410 100.000 100.000                           13.488 13.488 0.000 13.488 13.488 0.000
PRIMET_226 2014-09-29 21:10:00 226 1342.0 0.00 204 0.007 0.007 68.090 0.920 11.480 11.470 11.48 11.780 11.850 11.470 100.000 100.000                           13.551 13.551 0.000 13.542 13.542 0.000
PRIMET_226 2014-09-29 21:05:00 226 1342.0 0.00 218 0.007 0.006 126.100 26.370 11.520 11.500 11.52 11.830 11.900 11.500 100.000 100.000                           13.587 13.587 0.000 13.569 13.569 0.000
PRIMET_226 2014-09-29 21:00:00 226 1342.0 0.00 204 0.144 0.144 142.100 0.000 11.510 11.510 11.51 11.830 11.900 11.510 100.000 100.000                           13.578 13.578 0.000 13.578 13.578 0.000
PRIMET_226 2014-09-29 20:55:00 226 1342.0 0.00 202 0.010 0.010 142.100 0.000 11.520 11.530 11.53 11.830 11.900 11.530 100.000 100.000                           13.596 13.587 0.000 13.596 13.596 0.000
PRIMET_226 2014-09-29 20:50:00 226 1342.0 0.00 219 0.007 0.007 142.100 0.000 11.560 11.560 11.56 11.870 11.940 11.560 100.000 100.000                           13.623 13.623 0.000 13.623 13.623 0.000
PRIMET_226 2014-09-29 20:45:00 226 1342.0 0.00 210 0.007 0.007 142.100 0.000 11.610 11.590 11.61 11.900 11.950 11.590 100.000 100.000                           13.668 13.668 0.000 13.650 13.650 0.000
PRIMET_226 2014-09-29 20:40:00 226 1342.0 0.00 230 0.007 0.006 152.200 8.620 11.670 11.670 11.67 11.980 12.040 11.670 100.000 100.000                           13.722 13.722 0.000 13.722 13.722 0.000
PRIMET_226 2014-09-29 20:35:00 226 1342.0 0.00 203 0.007 0.007 159.600 0.862 11.700 11.710 11.70 11.990 12.060 11.710 100.000 100.000                           13.749 13.749 0.000 13.759 13.759 0.000
PRIMET_226 2014-09-29 20:30:00 226 1342.0 0.00 214 0.007 0.007 159.000 0.218 11.760 11.780 11.76 12.060 12.140 11.780 100.000 100.000                           13.804 13.804 0.000 13.822 13.822 0.000
PRIMET_226 2014-09-29 20:25:00 226 1342.0 0.00 215 0.007 0.006 182.000 11.160 11.810 11.840 11.81 12.100 12.180 11.840 100.000 100.000                           13.850 13.850 0.000 13.877 13.877 0.000
PRIMET_226 2014-09-29 20:20:00 226 1342.0 0.00 218 0.199 0.197 124.600 8.460 11.880 11.890 11.88 12.160 12.230 11.890 100.000 100.000                           13.914 13.914 0.000 13.923 13.923 0.000
PRIMET_226 2014-09-29 20:15:00 226 1342.0 0.00 218 0.007 0.006 253.500 20.900 11.960 11.950 11.96 12.250 12.320 11.950 100.000 100.000                           13.988 13.988 0.000 13.978 13.978 0.000
PRIMET_226 2014-09-29 20:10:00 226 1342.0 0.00 240 0.050 0.050 224.200 3.550 12.040 12.040 12.04 12.330 12.390 12.040 100.000 100.000                           14.062 14.062 0.000 14.062 14.062 0.000
PRIMET_226 2014-09-29 20:05:00 226 1342.0 0.00 302 0.162 0.162 228.100 2.916 12.100 12.110 12.10 12.380 12.430 12.110 100.000 100.000                           14.117 14.117 0.000 14.127 14.127 0.000
PRIMET_226 2014-09-29 20:00:00 226 1342.0 0.00 304 0.007 0.006 43.940 25.280 12.220 12.260 12.22 12.510 12.560 12.260 100.000 100.000                           14.229 14.229 0.000 14.267 14.267 0.000
PRIMET_226 2014-09-29 19:55:00 226 1342.0 0.00 217 0.096 0.095 34.460 8.260 12.440 12.510 12.44 12.720 12.790 12.510 100.000 100.000                           14.437 14.437 0.000 14.503 14.503 0.000
PRIMET_226 2014-09-29 19:50:00 226 1342.0 0.00 232 0.007 0.006 303.500 20.350 12.630 12.670 12.63 12.930 13.010 12.670 100.000 100.000                           14.618 14.618 0.000 14.656 14.656 0.000
PRIMET_226 2014-09-29 19:45:00 226 1342.0 0.00 233 0.007 0.007 316.400 0.538 12.710 12.730 12.71 13.020 13.090 12.730 100.000 100.000                           14.695 14.695 0.000 14.714 14.714 0.000
PRIMET_226 2014-09-29 19:40:00 226 1342.0 0.00 333 0.090 0.089 209.900 9.220 12.690 12.710 12.69 13.010 13.080 12.710 100.000 100.000                           14.675 14.675 0.000 14.695 14.695 0.000
PRIMET_226 2014-09-29 19:35:00 226 1342.0 0.00 268 0.015 0.005 143.000 67.350 12.700 12.730 12.70 13.030 13.100 12.730 100.000 100.000                           14.685 14.685 0.000 14.714 14.714 0.000
PRIMET_226 2014-09-29 19:30:00 226 1342.0 0.00 274 0.137 0.071 188.300 56.220 12.670 12.720 12.67 13.010 13.080 12.720 100.000 100.000                           14.656 14.656 0.000 14.704 14.704 -0.000
PRIMET_226 2014-09-29 19:25:00 226 1342.0 0.00 217 0.007 0.007 36.650 4.664 12.670 12.710 12.67 12.980 13.050 12.710 100.000 100.000                           14.656 14.656 0.000 14.695 14.695 0.000
PRIMET_226 2014-09-29 19:20:00 226 1342.0 0.00 275 0.007 0.007 30.190 0.427 12.710 12.730 12.71 13.020 13.070 12.730 100.000 100.000                           14.695 14.695 0.000 14.714 14.714 0.000
PRIMET_226 2014-09-29 19:15:00 226 1342.0 0.00 382 0.007 0.007 31.600 0.028 12.720 12.760 12.72 13.030 13.090 12.760 100.000 100.000                           14.704 14.704 -0.000 14.743 14.743 0.000
PRIMET_226 2014-09-29 19:10:00 226 1342.0 0.00 382 0.007 0.007 28.740 1.043 12.760 12.780 12.76 13.060 13.130 12.780 100.000 100.000                           14.743 14.743 0.000 14.762 14.762 0.000
PRIMET_226 2014-09-29 19:05:00 226 1342.0 0.00 233 0.007 0.005 136.000 42.610 12.690 12.740 12.69 13.010 13.070 12.740 100.000 100.000                           14.675 14.675 0.000 14.724 14.724 0.000
PRIMET_226 2014-09-29 19:00:00 226 1342.0 0.00 438 0.007 0.006 111.500 25.820 12.780 12.830 12.78 13.070 13.130 12.830 100.000 100.000                           14.762 14.762 0.000 14.811 14.811 0.000
PRIMET_226 2014-09-29 18:55:00 226 1342.0 0.00 417 0.007 0.007 86.700 0.268 12.830 12.860 12.83 13.160 13.210 12.860 100.000 100.000                           14.811 14.811 0.000 14.840 14.840 0.000
PRIMET_226 2014-09-29 18:50:00 226 1342.0 0.00 205 0.007 0.007 87.600 0.465 12.810 12.870 12.81 13.140 13.200 12.870 100.000 100.000                           14.791 14.791 0.000 14.850 14.850 0.000
PRIMET_226 2014-09-29 18:45:00 226 1342.0 0.00 216 0.007 0.007 79.640 2.142 12.860 12.900 12.86 13.180 13.240 12.900 100.000 100.000                           14.840 14.840 0.000 14.879 14.879 0.000
PRIMET_226 2014-09-29 18:40:00 226 1342.0 0.00 210 0.007 0.007 78.540 0.256 12.830 12.870 12.83 13.160 13.220 12.870 100.000 100.000                           14.811 14.811 0.000 14.850 14.850 0.000
PRIMET_226 2014-09-29 18:35:00 226 1342.0 0.00 280 0.007 0.007 79.050 0.000 12.820 12.870 12.82 13.140 13.200 12.870 100.000 100.000                           14.801 14.801 0.000 14.850 14.850 0.000
PRIMET_226 2014-09-29 18:30:00 226 1342.0 0.00 201 0.007 0.007 75.630 2.462 12.840 12.900 12.84 13.170 13.230 12.900 100.000 100.000                           14.820 14.820 0.000 14.879 14.879 0.000
PRIMET_226 2014-09-29 18:25:00 226 1342.0 0.00 238 0.007 0.007 73.620 0.063 12.850 12.880 12.85 13.180 13.230 12.880 100.000 100.000                           14.830 14.830 0.000 14.859 14.859 0.000
PRIMET_226 2014-09-29 18:20:00 226 1342.0 0.00 417 0.007 0.007 73.630 0.063 12.870 12.880 12.87 13.180 13.220 12.880 100.000 100.000                           14.850 14.850 0.000 14.859 14.859 0.000
PRIMET_226 2014-09-29 18:15:00 226 1342.0 0.00 262 0.190 0.176 58.650 21.510 12.900 12.920 12.90 13.210 13.250 12.920 100.000 100.000                           14.879 14.879 0.000 14.898 14.898 0.000
PRIMET_226 2014-09-29 18:10:00 226 1342.0 0.00 403 0.007 0.007 233.900 0.534 12.890 12.920 12.89 13.230 13.270 12.920 100.000 100.000                           14.869 14.869 -0.000 14.898 14.898 0.000
PRIMET_226 2014-09-29 18:05:00 226 1342.0 0.00 224 0.007 0.006 237.800 15.080 12.890 12.920 12.89 13.200 13.250 12.920 100.000 100.000                           14.869 14.869 -0.000 14.898 14.898 0.000
PRIMET_226 2014-09-29 18:00:00 226 1342.0 0.00 412 0.007 0.007 249.000 0.270 12.950 12.980 12.95 13.250 13.290 12.980 100.000 100.000                           14.928 14.928 0.000 14.957 14.957 0.000
PRIMET_226 2014-09-29 17:55:00 226 1342.0 0.00 222 0.007 0.007 249.300 0.204 13.030 13.060 13.03 13.310 13.360 13.060 100.000 100.000                           15.006 15.006 0.000 15.035 15.035 0.000
PRIMET_226 2014-09-29 17:50:00 226 1342.0 0.00 339 0.091 0.075 224.500 34.210 13.100 13.110 13.10 13.400 13.450 13.110 100.000 100.000                           15.075 15.075 0.000 15.085 15.085 -0.000
PRIMET_226 2014-09-29 17:45:00 226 1342.0 0.00 303 0.141 0.093 247.400 47.300 13.130 13.130 13.13 13.420 13.460 13.130 100.000 100.000                           15.104 15.104 0.000 15.104 15.104 0.000
PRIMET_226 2014-09-29 17:40:00 226 1342.0 0.00 360 0.007 0.006 194.400 19.970 13.190 13.190 13.19 13.480 13.510 13.190 100.000 100.000                           15.164 15.164 -0.000 15.164 15.164 -0.000
PRIMET_226 2014-09-29 17:35:00 226 1342.0 0.00 259 0.007 0.005 258.500 38.230 13.230 13.240 13.23 13.540 13.580 13.240 100.000 100.000                           15.203 15.203 0.000 15.213 15.213 0.000
PRIMET_226 2014-09-29 17:30:00 226 1342.0 0.00 239 0.007 0.006 260.700 25.680 13.240 13.240 13.24 13.540 13.580 13.240 100.000 100.000                           15.213 15.213 0.000 15.213 15.213 0.000
PRIMET_226 2014-09-29 17:25:00 226 1342.0 0.00 288 0.007 0.007 217.200 0.063 13.260 13.260 13.26 13.560 13.590 13.260 100.000 100.000                           15.233 15.233 0.000 15.233 15.233 0.000
PRIMET_226 2014-09-29 17:20:00 226 1342.0 0.00 202 0.007 0.007 216.800 1.188 13.270 13.280 13.27 13.570 13.600 13.280 100.000 100.000                           15.243 15.243 0.000 15.253 15.253 0.000
PRIMET_226 2014-09-29 17:15:00 226 1342.0 0.00 198 0.007 0.007 213.100 0.093 13.310 13.350 13.31 13.610 13.650 13.350 100.000 100.000                           15.283 15.283 0.000 15.323 15.323 0.000
PRIMET_226 2014-09-29 17:10:00 226 1342.0 0.00 210 0.058 0.058 216.100 0.768 13.340 13.330 13.36 13.670 13.710 13.380 99.900 99.700                           15.333 15.313 0.015 15.353 15.303 0.046
PRIMET_226 2014-09-29 17:05:00 226 1342.0 0.00 258 0.257 0.257 209.400 1.026 13.370 13.320 13.40 13.700 13.740 13.420 99.800 99.300                           15.373 15.343 0.031 15.393 15.293 0.108
PRIMET_226 2014-09-29 17:00:00 226 1342.0 0.00 208 0.290 0.289 206.400 5.215 13.410 13.380 13.46 13.780 13.820 13.510 99.700 99.200                           15.433 15.383 0.046 15.483 15.353 0.124
PRIMET_226 2014-09-29 16:55:00 226 1342.0 0.00 207 0.007 0.007 212.700 5.717 13.390 13.340 13.51 13.840 13.870 13.560 99.200 98.600                           15.483 15.363 0.124 15.534 15.313 0.217
PRIMET_226 2014-09-29 16:50:00 226 1342.0 0.00 216 0.007 0.007 217.500 0.000 13.330 13.280 13.52 13.840 13.890 13.570 98.800 98.100                           15.494 15.303 0.186 15.544 15.253 0.295
PRIMET_226 2014-09-29 16:45:00 226 1342.0 0.00 233 0.007 0.006 221.800 10.200 13.210 13.210 13.54 13.850 13.910 13.610 97.800 97.400                           15.514 15.183 0.341 15.585 15.183 0.405
PRIMET_226 2014-09-29 16:40:00 226 1342.0 0.00 243 0.068 0.067 233.500 9.630 13.330 13.260 13.69 13.980 14.010 13.720 97.700 97.100                           15.666 15.303 0.360 15.697 15.233 0.455
PRIMET_226 2014-09-29 16:35:00 226 1342.0 0.00 210 0.007 0.007 180.500 0.406 13.440 13.420 13.82 14.150 14.150 13.840 97.600 97.300                           15.799 15.413 0.379 15.819 15.393 0.427
PRIMET_226 2014-09-29 16:30:00 226 1342.0 0.00 381 0.022 0.022 190.700 4.288 13.480 13.390 13.88 14.190 14.200 13.900 97.400 96.700                           15.861 15.453 0.412 15.881 15.363 0.524
PRIMET_226 2014-09-29 16:25:00 226 1342.0 0.00 210 0.007 0.006 188.600 5.861 13.580 13.500 13.93 14.280 14.270 13.970 97.800 97.000                           15.912 15.554 0.350 15.954 15.473 0.479
PRIMET_226 2014-09-29 16:20:00 226 1342.0 0.00 222 0.007 0.007 178.500 0.519 13.440 13.400 13.93 14.250 14.250 13.970 96.900 96.300                           15.912 15.413 0.493 15.954 15.373 0.590
PRIMET_226 2014-09-29 16:15:00 226 1342.0 0.00 224 0.007 0.007 179.200 0.247 13.220 13.190 13.94 14.260 14.270 13.980 95.400 95.000                           15.923 15.193 0.732 15.964 15.164 0.798
PRIMET_226 2014-09-29 16:10:00 226 1342.0 0.00 224 0.079 0.078 187.700 8.200 13.190 13.210 13.94 14.280 14.290 13.970 95.200 95.100                           15.923 15.164 0.764 15.954 15.183 0.782
PRIMET_226 2014-09-29 16:05:00 226 1342.0 0.00 225 0.008 0.008 177.600 12.030 13.360 13.340 13.93 14.270 14.280 13.970 96.300 96.000                           15.912 15.333 0.589 15.954 15.313 0.638
PRIMET_226 2014-09-29 16:00:00 226 1342.0 0.00 202 0.007 0.007 175.700 3.174 13.410 13.330 13.93 14.260 14.250 13.930 96.700 96.100                           15.912 15.383 0.525 15.912 15.303 0.621
PRIMET_226 2014-09-29 15:55:00 226 1342.0 0.00 206 0.007 0.007 177.500 0.000 13.440 13.330 13.88 14.230 14.220 13.920 97.100 96.300                           15.861 15.413 0.460 15.902 15.303 0.588
PRIMET_226 2014-09-29 15:50:00 226 1342.0 0.00 195 0.007 0.007 177.500 0.361 13.160 13.160 13.85 14.120 14.140 13.880 95.600 95.400                           15.830 15.134 0.697 15.861 15.134 0.730
PRIMET_226 2014-09-29 15:45:00 226 1342.0 0.00 208 0.007 0.007 177.100 0.684 13.260 13.160 13.91 14.200 14.190 13.960 95.800 94.900                           15.892 15.233 0.667 15.943 15.134 0.813
PRIMET_226 2014-09-29 15:40:00 226 1342.0 0.00 211 0.007 0.007 176.300 1.398 13.220 13.100 13.96 14.200 14.190 14.020 95.300 94.200                           15.943 15.193 0.749 16.005 15.075 0.928
PRIMET_226 2014-09-29 15:35:00 226 1342.0 0.00 209 0.007 0.007 182.800 0.671 13.230 13.220 14.09 14.310 14.310 14.140 94.500 94.200                           16.078 15.203 0.884 16.130 15.193 0.936
PRIMET_226 2014-09-29 15:30:00 226 1342.0 0.00 209 0.007 0.007 183.500 1.038 13.300 13.280 14.27 14.460 14.460 14.310 93.900 93.500                           16.267 15.273 0.992 16.309 15.253 1.060
PRIMET_226 2014-09-29 15:25:00 226 1342.0 0.00 200 0.007 0.007 181.900 0.392 13.240 13.090 14.51 14.630 14.630 14.570 92.100 90.800                           16.521 15.213 1.305 16.586 15.065 1.526
PRIMET_226 2014-09-29 15:20:00 226 1342.0 0.00 196 0.232 0.229 192.100 10.240 12.890 12.820 14.84 14.950 14.980 14.960 88.100 87.000                           16.877 14.869 2.008 17.008 14.801 2.211
PRIMET_226 2014-09-29 15:15:00 226 1342.0 0.00 198 0.153 0.142 138.800 21.620 13.100 13.010 15.29 15.400 15.420 15.430 86.800 85.500                           17.373 15.075 2.293 17.530 14.986 2.542
PRIMET_226 2014-09-29 15:10:00 226 1342.0 0.00 206 0.469 0.427 211.500 24.100 11.670 11.520 15.63 15.860 15.910 15.780 77.350 75.880                           17.756 13.722 4.022 17.927 13.587 4.324
PRIMET_226 2014-09-29 15:05:00 226 1342.0 0.00 209 0.064 0.052 201.200 35.790 12.320 12.030 15.77 16.050 16.080 15.890 80.000 77.890                           17.916 14.323 3.583 18.054 14.052 3.992
PRIMET_226 2014-09-29 15:00:00 226 1342.0 0.00 261 0.322 0.276 179.100 30.610 12.980 12.620 15.93 16.180 16.200 16.080 82.600 79.950                           18.100 14.957 3.149 18.274 14.608 3.664
PRIMET_226 2014-09-29 14:55:00 226 1342.0 0.00 206 0.007 0.007 33.890 0.292 12.850 12.810 16.14 16.450 16.500 16.350 80.800 79.600                           18.344 14.830 3.522 18.592 14.791 3.793
PRIMET_226 2014-09-29 14:50:00 226 1342.0 0.00 250 0.120 0.074 289.000 49.870 11.510 11.010 16.17 16.580 16.670 16.420 74.030 70.440                           18.379 13.578 4.773 18.675 13.135 5.520
PRIMET_226 2014-09-29 14:45:00 226 1342.0 0.00 202 0.633 0.129 192.000 72.310 10.900 10.480 15.92 16.340 16.430 16.120 72.310 69.340                           18.088 13.039 5.009 18.321 12.679 5.617
PRIMET_226 2014-09-29 14:40:00 226 1342.0 0.00 232 0.227 0.136 155.500 51.160 13.210 12.870 15.87 16.160 16.170 15.970 84.300 81.900                           18.031 15.183 2.831 18.146 14.850 3.284
PRIMET_226 2014-09-29 14:35:00 226 1342.0 0.00 215 0.069 0.059 226.700 30.480 12.740 12.450 15.80 16.090 16.110 15.900 82.100 79.980                           17.950 14.724 3.213 18.065 14.446 3.617
PRIMET_226 2014-09-29 14:30:00 226 1342.0 0.00 198 0.166 0.159 236.000 15.860 12.850 12.630 15.83 16.070 16.090 15.980 82.500 80.500                           17.985 14.830 3.147 18.158 14.618 3.541
PRIMET_226 2014-09-29 14:25:00 226 1342.0 0.00 203 0.516 0.369 154.500 43.220 12.830 12.430 16.04 16.200 16.240 16.280 81.300 78.060                           18.228 14.811 3.409 18.509 14.427 4.061
PRIMET_226 2014-09-29 14:20:00 226 1342.0 0.00 216 0.823 0.713 189.300 29.600 12.730 12.070 16.56 16.610 16.690 16.830 78.190 73.550                           18.842 14.714 4.109 19.168 14.089 5.070
PRIMET_226 2014-09-29 14:15:00 226 1342.0 0.00 227 0.719 0.571 227.600 36.710 11.980 11.400 17.21 17.390 17.430 17.400 71.620 68.050                           19.635 14.006 5.572 19.872 13.479 6.349
PRIMET_226 2014-09-29 14:10:00 226 1342.0 0.00 197 0.746 0.372 193.500 57.360 11.920 11.080 17.58 17.840 17.870 17.700 69.570 65.390                           20.099 13.951 6.116 20.252 13.196 7.009
PRIMET_226 2014-09-29 14:05:00 226 1342.0 0.00 203 0.525 0.340 201.700 48.120 12.840 12.430 17.72 17.880 17.900 17.860 73.180 70.570                           20.277 14.820 5.438 20.457 14.427 6.020
PRIMET_226 2014-09-29 14:00:00 226 1342.0 0.00 205 0.409 0.339 219.000 33.450 12.780 12.330 18.13 18.340 18.420 18.430 71.000 67.710                           20.807 14.762 6.034 21.202 14.333 6.846
PRIMET_226 2014-09-29 13:55:00 226 1342.0 0.00 225 0.828 0.669 236.400 35.560 10.630 10.140 18.48 18.760 18.850 18.790 60.620 57.550                           21.269 12.807 8.376 21.685 12.394 9.205
PRIMET_226 2014-09-29 13:50:00 226 1342.0 0.00 201 0.798 0.392 220.200 57.760 11.030 10.290 18.74 18.920 18.980 19.000 61.350 57.400                           21.618 13.152 8.355 21.972 12.519 9.360
PRIMET_226 2014-09-29 13:45:00 226 1342.0 0.00 202 1.183 0.845 232.100 43.260 10.000 9.880 19.02 19.150 19.250 19.250 56.270 54.930                           21.999 12.279 9.620 22.317 12.180 10.058
PRIMET_226 2014-09-29 13:40:00 226 1342.0 0.00 210 0.779 0.677 218.800 29.420 9.350 9.030 19.41 19.620 19.670 19.600 52.430 50.580                           22.540 11.754 10.722 22.808 11.503 11.272
PRIMET_226 2014-09-29 13:35:00 226 1342.0 0.00 202 0.856 0.763 201.800 26.700 9.330 8.620 19.64 19.830 19.860 19.720 51.970 49.040                           22.864 11.738 10.982 22.978 11.188 11.710
PRIMET_226 2014-09-29 13:30:00 226 1342.0 0.00 211 0.709 0.335 253.100 58.850 10.260 9.250 19.66 19.790 19.810 19.710 54.780 51.100                           22.893 12.494 10.352 22.964 11.675 11.229
PRIMET_226 2014-09-29 13:25:00 226 1342.0 0.00 205 0.778 0.605 244.500 38.250 10.200 9.830 19.75 19.890 19.860 19.850 54.430 52.810                           23.021 12.444 10.491 23.164 12.140 10.931
PRIMET_226 2014-09-29 13:20:00 226 1342.0 0.00 207 0.477 0.333 167.700 44.520 10.360 10.350 20.08 20.110 20.110 20.230 54.240 53.710                           23.496 12.578 10.752 23.715 12.570 10.978
PRIMET_226 2014-09-29 13:15:00 226 1342.0 0.00 205 1.297 0.823 234.500 48.930 8.390 7.746 20.61 20.660 20.670 20.650 45.850 43.620                           24.278 11.015 13.146 24.338 10.543 13.722
PRIMET_226 2014-09-29 13:10:00 226 1342.0 0.00 201 1.723 1.307 245.600 39.800 5.704 5.539 21.11 21.270 21.220 21.050 36.700 36.400                           25.036 9.161 15.848 24.944 9.056 15.864
PRIMET_226 2014-09-29 13:05:00 226 1342.0 0.00 212 1.103 0.662 224.800 51.220 6.817 6.686 21.00 21.050 20.990 20.970 40.400 39.940                           24.867 9.893 14.821 24.821 9.804 14.908
PRIMET_226 2014-09-29 13:00:00 226 1342.0 0.00 201 1.108 0.292 221.700 69.510 7.586 6.952 21.25 21.280 21.260 21.200 41.970 40.030                           25.252 10.428 14.654 25.174 9.985 15.097
PRIMET_226 2014-09-29 12:55:00 226 1342.0 0.00 196 0.931 0.710 209.800 39.460 9.390 9.150 20.97 21.020 20.880 20.730 47.970 47.710                           24.821 11.786 12.915 24.458 11.597 12.789
PRIMET_226 2014-09-29 12:50:00 226 1342.0 0.00 224 0.472 0.420 228.000 26.860 11.680 10.990 20.68 20.690 20.650 20.580 56.690 54.460                           24.383 13.731 10.560 24.233 13.117 11.036
PRIMET_226 2014-09-29 12:45:00 226 1342.0 0.00 209 1.176 0.639 196.500 54.720 7.653 7.626 21.05 21.110 21.110 21.100 42.200 41.910                           24.944 10.476 14.417 25.020 10.457 14.534
PRIMET_226 2014-09-29 12:40:00 226 1342.0 0.00 202 0.791 0.344 202.800 60.870 8.200 8.260 21.35 21.540 21.510 21.330 42.860 43.080                           25.407 10.874 14.517 25.376 10.918 14.444
PRIMET_226 2014-09-29 12:35:00 226 1342.0 0.00 208 1.025 0.889 217.600 29.520 9.890 9.430 21.16 21.290 21.260 21.230 48.850 47.080                           25.113 12.189 12.845 25.221 11.818 13.347
PRIMET_226 2014-09-29 12:30:00 226 1342.0 0.00 210 0.912 0.476 139.300 55.980 9.220 8.680 20.68 20.990 20.820 20.660 48.030 46.180                           24.383 11.652 12.672 24.353 11.234 13.107
PRIMET_226 2014-09-29 12:25:00 226 1342.0 0.00 197 0.976 0.725 129.700 41.100 11.450 10.690 20.30 20.240 20.090 20.320 56.930 54.060                           23.818 13.524 10.258 23.847 12.858 10.955
PRIMET_226 2014-09-29 12:20:00 226 1342.0 0.00 212 0.830 0.365 165.900 60.650 11.720 10.940 20.45 20.560 20.420 20.500 57.550 54.500                           24.039 13.768 10.205 24.114 13.074 10.972
PRIMET_226 2014-09-29 12:15:00 226 1342.0 0.00 203 0.407 0.281 108.000 45.050 12.270 11.320 20.27 20.410 20.300 20.270 60.060 56.480                           23.774 14.276 9.495 23.774 13.408 10.346
PRIMET_226 2014-09-29 12:10:00 226 1342.0 0.00 201 0.607 0.417 133.000 45.290 12.810 11.870 20.05 19.920 19.910 20.160 63.160 58.950                           23.453 14.791 8.640 23.613 13.905 9.693
PRIMET_226 2014-09-29 12:05:00 226 1342.0 0.00 217 1.232 0.876 202.000 43.520 9.750 9.730 20.06 20.450 20.440 20.310 51.600 50.700                           23.467 12.075 11.358 23.833 12.058 11.749
PRIMET_226 2014-09-29 12:00:00 226 1342.0 0.00 275 0.829 0.431 156.200 56.110 12.040 10.930 19.58 19.790 19.850 19.980 62.060 56.160                           22.779 14.062 8.642 23.351 13.065 10.237
PRIMET_226 2014-09-29 11:55:00 226 1342.0 0.00 206 0.657 0.355 195.200 54.920 11.710 11.170 19.51 19.590 19.600 19.740 60.980 57.850                           22.680 13.759 8.850 23.007 13.275 9.697
PRIMET_226 2014-09-29 11:50:00 226 1342.0 0.00 203 0.408 0.183 172.800 60.130 11.570 10.740 19.62 19.730 19.720 19.840 60.110 55.960                           22.836 13.632 9.109 23.150 12.901 10.195
PRIMET_226 2014-09-29 11:45:00 226 1342.0 0.00 209 0.480 0.337 214.900 44.160 12.990 12.130 19.76 19.770 19.750 19.960 65.220 60.870                           23.035 14.967 8.012 23.322 14.145 9.126
PRIMET_226 2014-09-29 11:40:00 226 1342.0 0.00 265 0.528 0.347 170.300 47.330 11.870 10.940 19.82 20.090 20.020 19.750 60.360 56.940                           23.121 13.905 9.165 23.021 13.074 9.913
PRIMET_226 2014-09-29 11:35:00 226 1342.0 0.00 200 1.082 0.756 197.400 44.500 11.940 11.580 19.39 19.610 19.580 19.230 62.320 61.360                           22.512 13.969 8.482 22.289 13.641 8.612
PRIMET_226 2014-09-29 11:30:00 226 1342.0 0.00 212 0.792 0.455 168.900 52.870 11.810 11.290 18.82 19.120 19.040 18.770 64.130 62.010                           21.726 13.850 7.793 21.658 13.381 8.228
PRIMET_226 2014-09-29 11:25:00 226 1342.0 0.00 213 0.576 0.451 155.000 37.710 13.550 12.610 18.33 18.590 18.620 18.700 73.780 67.840                           21.070 15.524 5.525 21.564 14.599 6.935
PRIMET_226 2014-09-29 11:20:00 226 1342.0 0.00 208 0.418 0.330 169.600 37.170 13.450 12.390 18.28 18.440 18.570 18.590 73.490 67.300                           21.004 15.423 5.568 21.416 14.389 7.003
PRIMET_226 2014-09-29 11:15:00 226 1342.0 0.00 218 1.021 0.705 205.800 45.030 12.930 12.050 18.03 18.190 18.240 18.110 72.310 67.900                           20.677 14.908 5.725 20.781 14.071 6.671
PRIMET_226 2014-09-29 11:10:00 226 1342.0 0.00 216 0.434 0.375 178.100 29.980 13.760 12.830 17.68 17.720 17.730 17.750 77.850 72.920                           20.226 15.737 4.480 20.316 14.811 5.501
PRIMET_226 2014-09-29 11:05:00 226 1342.0 0.00 200 0.424 0.345 146.200 35.060 13.380 12.690 17.64 17.620 17.560 17.610 76.180 72.910                           20.175 15.353 4.806 20.137 14.675 5.455
PRIMET_226 2014-09-29 11:00:00 226 1342.0 0.00 222 0.312 0.247 177.600 37.030 13.670 13.020 17.44 17.630 17.640 17.530 78.620 74.900                           19.922 15.646 4.259 20.036 14.996 5.029
PRIMET_226 2014-09-29 10:55:00 226 1342.0 0.00 208 0.317 0.267 136.700 32.310 14.060 13.360 17.38 17.400 17.400 17.340 80.900 77.470                           19.847 16.047 3.791 19.797 15.333 4.460
PRIMET_226 2014-09-29 10:50:00 226 1342.0 0.00 195 0.482 0.208 163.500 61.090 13.710 12.880 17.13 17.430 17.440 17.080 80.400 76.420                           19.536 15.686 3.829 19.474 14.859 4.592
PRIMET_226 2014-09-29 10:45:00 226 1342.0 0.00 198 0.300 0.289 143.300 15.650 14.360 13.710 16.43 16.600 16.560 16.410 87.500 84.100                           18.686 16.362 2.336 18.663 15.686 2.967
PRIMET_226 2014-09-29 10:40:00 226 1342.0 0.00 209 0.416 0.206 153.400 57.510 14.300 13.540 16.48 16.680 16.650 16.440 87.000 83.000                           18.746 16.298 2.437 18.698 15.514 3.179
PRIMET_226 2014-09-29 10:35:00 226 1342.0 0.00 260 0.507 0.278 150.600 54.420 14.250 13.780 16.56 16.760 16.760 16.430 86.200 84.300                           18.842 16.246 2.600 18.686 15.758 2.934
PRIMET_226 2014-09-29 10:30:00 226 1342.0 0.00 208 0.548 0.163 211.500 67.910 14.260 13.660 16.20 16.390 16.360 16.070 88.300 85.700                           18.415 16.256 2.155 18.263 15.635 2.612
PRIMET_226 2014-09-29 10:25:00 226 1342.0 0.00 208 0.227 0.166 166.700 42.010 14.220 13.720 16.33 16.500 16.470 16.280 87.400 84.800                           18.568 16.214 2.340 18.509 15.697 2.813
PRIMET_226 2014-09-29 10:20:00 226 1342.0 0.00 205 0.186 0.125 117.500 46.100 14.010 13.560 16.07 16.370 16.350 16.170 87.600 84.500                           18.263 15.995 2.265 18.379 15.534 2.849
PRIMET_226 2014-09-29 10:15:00 226 1342.0 0.00 203 0.412 0.352 133.900 30.940 13.940 13.540 15.88 16.190 16.190 16.090 88.300 84.900                           18.042 15.923 2.111 18.286 15.514 2.761
PRIMET_226 2014-09-29 10:10:00 226 1342.0 0.00 199 0.392 0.381 115.100 13.580 13.750 13.410 15.66 15.950 15.950 15.770 88.400 85.800                           17.790 15.727 2.064 17.916 15.383 2.544
PRIMET_226 2014-09-29 10:05:00 226 1342.0 0.00 228 0.519 0.447 124.900 30.230 13.610 13.270 15.26 15.580 15.650 15.410 89.900 87.000                           17.339 15.585 1.751 17.507 15.243 2.276
PRIMET_226 2014-09-29 10:00:00 226 1342.0 0.00 202 0.383 0.280 168.400 42.060 13.360 13.070 14.84 15.180 15.240 14.940 90.900 88.600                           16.877 15.333 1.536 16.986 15.045 1.936
PRIMET_226 2014-09-29 09:55:00 226 1342.0 0.00 208 0.445 0.440 112.900 8.170 13.470 13.180 14.81 15.080 15.130 14.940 91.700 89.200                           16.844 15.443 1.398 16.986 15.154 1.835
PRIMET_226 2014-09-29 09:50:00 226 1342.0 0.00 192 0.241 0.241 118.000 4.185 13.470 13.060 14.63 14.940 15.060 14.860 92.800 89.000                           16.650 15.443 1.199 16.899 15.035 1.859
PRIMET_226 2014-09-29 09:45:00 226 1342.0 0.00 250 0.183 0.183 111.600 1.174 13.380 12.900 14.13 14.500 14.750 14.640 95.200 89.300                           16.120 15.353 0.774 16.661 14.879 1.783
PRIMET_226 2014-09-29 09:40:00 226 1342.0 0.00 199 0.285 0.261 134.900 23.520 13.060 12.810 13.67 14.010 14.360 14.390 96.100 90.200                           15.646 15.035 0.610 16.394 14.791 1.607
PRIMET_226 2014-09-29 09:35:00 226 1342.0 0.00 205 0.268 0.257 125.700 15.710 12.940 12.760 13.70 14.010 14.520 14.480 95.200 89.400                           15.676 14.918 0.752 16.489 14.743 1.748
PRIMET_226 2014-09-29 09:30:00 226 1342.0 0.00 254 0.283 0.281 115.400 5.576 12.870 12.710 13.74 14.250 14.510 14.220 94.500 90.700                           15.717 14.850 0.864 16.214 14.695 1.508
PRIMET_226 2014-09-29 09:25:00 226 1342.0 0.00 225 0.381 0.380 112.000 3.932 12.730 12.530 13.61 14.110 14.210 13.870 94.400 91.600                           15.585 14.714 0.873 15.850 14.522 1.331
PRIMET_226 2014-09-29 09:20:00 226 1342.0 0.00 208 0.404 0.404 121.100 1.884 12.600 12.380 13.04 13.750 13.860 13.520 97.100 92.800                           15.016 14.589 0.435 15.494 14.380 1.116
PRIMET_226 2014-09-29 09:15:00 226 1342.0 0.00 221 0.333 0.332 108.700 3.911 12.340 12.260 12.56 13.320 13.580 13.390 98.600 92.900                           14.551 14.342 0.204 15.363 14.267 1.091
PRIMET_226 2014-09-29 09:10:00 226 1342.0 0.00 203 0.324 0.324 107.100 0.215 12.060 12.130 12.22 12.730 12.930 13.000 98.900 94.500                           14.229 14.080 0.157 14.976 14.145 0.824
PRIMET_226 2014-09-29 09:05:00 226 1342.0 0.00 203 0.257 0.257 106.600 0.063 11.880 12.000 12.14 12.580 12.770 12.720 98.300 95.400                           14.154 13.914 0.241 14.704 14.025 0.676
PRIMET_226 2014-09-29 09:00:00 226 1342.0 0.00 226 0.483 0.483 107.100 0.380 11.840 11.910 12.24 12.730 12.920 12.700 97.400 94.900                           14.248 13.877 0.370 14.685 13.941 0.749
PRIMET_226 2014-09-29 08:55:00 226 1342.0 0.00 213 0.007 0.007 74.750 4.206 12.030 12.000 12.33 12.980 13.220 12.770 98.100 95.100                           14.333 14.052 0.272 14.753 14.025 0.723
PRIMET_226 2014-09-29 08:50:00 226 1342.0 0.00 207 0.007 0.007 72.860 0.063 11.900 11.920 11.90 12.380 12.540 12.100 100.000 98.800                           13.932 13.932 -0.000 14.117 13.951 0.169
PRIMET_226 2014-09-29 08:45:00 226 1342.0 0.00 208 0.007 0.006 64.400 20.140 11.410 11.490 11.41 11.740 11.850 11.490 100.000 100.000                           13.488 13.488 0.000 13.560 13.560 0.000
PRIMET_226 2014-09-29 08:40:00 226 1342.0 0.00 227 0.007 0.007 318.400 1.383 11.210 11.170 11.21 11.510 11.610 11.170 100.000 100.000                           13.310 13.310 0.000 13.275 13.275 0.000
PRIMET_226 2014-09-29 08:35:00 226 1342.0 0.00 208 0.007 0.007 317.800 0.145 11.000 10.960 11.00 11.270 11.370 10.960 100.000 100.000                           13.126 13.126 0.000 13.091 13.091 0.000
PRIMET_226 2014-09-29 08:30:00 226 1342.0 0.00 209 0.007 0.007 317.500 0.000 10.860 10.810 10.86 11.120 11.210 10.810 100.000 100.000                           13.004 13.004 0.000 12.961 12.961 0.000
PRIMET_226 2014-09-29 08:25:00 226 1342.0 0.00 200 0.007 0.007 317.500 0.000 10.810 10.710 10.81 11.070 11.140 10.710 100.000 100.000                           12.961 12.961 0.000 12.875 12.875 0.000
PRIMET_226 2014-09-29 08:20:00 226 1342.0 0.00 206 0.007 0.007 317.500 0.000 10.860 10.730 10.86 11.100 11.160 10.730 100.000 100.000                           13.004 13.004 0.000 12.892 12.892 0.000
PRIMET_226 2014-09-29 08:15:00 226 1342.0 0.00 210 0.007 0.007 317.500 0.000 10.950 10.810 10.95 11.180 11.250 10.810 100.000 100.000                           13.083 13.083 0.000 12.961 12.961 0.000
PRIMET_226 2014-09-29 08:10:00 226 1342.0 0.00 206 0.007 0.007 317.500 0.000 10.940 10.800 10.94 11.180 11.250 10.800 100.000 100.000                           13.074 13.074 0.000 12.953 12.953 0.000
PRIMET_226 2014-09-29 08:05:00 226 1342.0 0.00 198 0.007 0.007 317.500 0.000 10.900 10.760 10.90 11.180 11.230 10.760 100.000 100.000                           13.039 13.039 0.000 12.918 12.918 -0.000
PRIMET_226 2014-09-29 08:00:00 226 1342.0 0.00 202 0.007 0.007 317.500 0.000 10.760 10.620 10.76 11.030 11.100 10.620 100.000 100.000                           12.918 12.918 -0.000 12.798 12.798 0.000
PRIMET_226 2014-09-29 07:55:00 226 1342.0 0.00 204 0.007 0.007 317.500 0.000 10.580 10.460 10.58 10.830 10.910 10.460 100.000 100.000                           12.764 12.764 0.000 12.662 12.662 0.000
PRIMET_226 2014-09-29 07:50:00 226 1342.0 0.00 221 0.007 0.007 317.500 0.000 10.410 10.340 10.41 10.690 10.770 10.340 100.000 100.000                           12.620 12.620 0.000 12.561 12.561 0.000
PRIMET_226 2014-09-29 07:45:00 226 1342.0 0.00 202 0.007 0.007 317.500 0.000 10.310 10.240 10.31 10.590 10.680 10.240 100.000 100.000                           12.536 12.536 0.000 12.478 12.478 0.000
PRIMET_226 2014-09-29 07:40:00 226 1342.0 0.00 199 0.007 0.007 317.500 0.000 10.190 10.110 10.19 10.460 10.550 10.110 100.000 100.000                           12.436 12.436 0.000 12.370 12.370 0.000
PRIMET_226 2014-09-29 07:35:00 226 1342.0 0.00 212 0.007 0.007 317.400 0.000 10.120 10.020 10.12 10.430 10.520 10.020 100.000 100.000                           12.378 12.378 0.000 12.295 12.295 0.000
PRIMET_226 2014-09-29 07:30:00 226 1342.0 0.00 200 0.007 0.007 317.400 0.000 9.950 9.820 9.95 10.250 10.320 9.820 100.000 100.000                           12.238 12.238 0.000 12.131 12.131 0.000
PRIMET_226 2014-09-29 07:25:00 226 1342.0 0.00 207 0.007 0.007 317.400 0.000 9.780 9.660 9.78 10.090 10.170 9.660 100.000 100.000                           12.099 12.099 -0.000 12.002 12.002 0.000
PRIMET_226 2014-09-29 07:20:00 226 1342.0 0.00 201 0.007 0.007 317.400 0.000 9.540 9.470 9.54 9.820 9.930 9.470 100.000 100.000                           11.905 11.905 0.000 11.849 11.849 0.000
PRIMET_226 2014-09-29 07:15:00 226 1342.0 0.00 202 0.007 0.007 317.400 0.000 9.400 9.330 9.40 9.680 9.780 9.330 100.000 100.000                           11.794 11.794 0.000 11.738 11.738 -0.000
PRIMET_226 2014-09-29 07:10:00 226 1342.0 0.00 196 0.007 0.007 317.500 0.000 9.250 9.180 9.25 9.540 9.640 9.180 100.000 100.000                           11.675 11.675 0.000 11.620 11.620 0.000
PRIMET_226 2014-09-29 07:05:00 226 1342.0 0.00 202 0.007 0.007 317.500 0.000 9.110 9.040 9.11 9.390 9.490 9.040 100.000 100.000                           11.565 11.565 0.000 11.511 11.511 -0.000
PRIMET_226 2014-09-29 07:00:00 226 1342.0 0.00 207 0.007 0.007 317.500 0.000 8.970 8.930 8.97 9.220 9.340 8.930 100.000 100.000                           11.457 11.457 0.000 11.426 11.426 0.000
PRIMET_226 2014-09-29 06:55:00 226 1342.0 0.00 200 0.007 0.007 317.500 0.000 8.920 8.900 8.92 9.170 9.290 8.900 100.000 100.000                           11.418 11.418 0.000 11.402 11.402 -0.000
PRIMET_226 2014-09-29 06:50:00 226 1342.0 0.00 201 0.007 0.007 317.500 0.000 8.960 8.930 8.96 9.200 9.310 8.930 100.000 100.000                           11.449 11.449 0.000 11.426 11.426 0.000
PRIMET_226 2014-09-29 06:45:00 226 1342.0 0.00 200 0.007 0.007 317.500 0.000 9.010 8.950 9.01 9.280 9.390 8.950 100.000 100.000                           11.488 11.488 -0.000 11.441 11.441 0.000
PRIMET_226 2014-09-29 06:40:00 226 1342.0 0.00 200 0.007 0.007 317.500 0.000 8.990 8.900 8.99 9.250 9.340 8.900 100.000 100.000                           11.472 11.472 0.000 11.402 11.402 -0.000
PRIMET_226 2014-09-29 06:35:00 226 1342.0 0.00 202 0.007 0.007 317.500 0.000 8.950 8.850 8.95 9.230 9.320 8.850 100.000 100.000                           11.441 11.441 0.000 11.364 11.364 0.000
PRIMET_226 2014-09-29 06:30:00 226 1342.0 0.00 202 0.007 0.007 317.500 0.000 8.860 8.780 8.86 9.160 9.250 8.780 100.000 100.000                           11.372 11.372 0.000 11.310 11.310 0.000
PRIMET_226 2014-09-29 06:25:00 226 1342.0 0.00 201 0.007 0.007 317.500 0.000 8.780 8.730 8.78 9.090 9.190 8.730 100.000 100.000                           11.310 11.310 0.000 11.272 11.272 0.000
PRIMET_226 2014-09-29 06:20:00 226 1342.0 0.00 200 0.007 0.007 317.500 0.000 8.700 8.650 8.70 9.010 9.120 8.650 100.000 100.000                           11.249 11.249 0.000 11.211 11.211 0.000
PRIMET_226 2014-09-29 06:15:00 226 1342.0 0.00 200 0.007 0.007 317.500 0.000 8.600 8.560 8.60 8.900 9.010 8.560 100.000 100.000                           11.173 11.173 0.000 11.143 11.143 0.000
PRIMET_226 2014-09-29 06:10:00 226 1342.0 0.00 199 0.007 0.007 317.500 0.000 8.510 8.490 8.51 8.810 8.930 8.490 100.000 100.000                           11.105 11.105 0.000 11.090 11.090 0.000
PRIMET_226 2014-09-29 06:05:00 226 1342.0 0.00 200 0.007 0.007 317.500 0.000 8.450 8.410 8.45 8.750 8.870 8.410 100.000 100.000                           11.060 11.060 0.000 11.030 11.030 0.000
PRIMET_226 2014-09-29 06:00:00 226 1342.0 0.00 200 0.007 0.007 317.500 0.000 8.330 8.290 8.33 8.620 8.740 8.290 100.000 100.000                           10.970 10.970 0.000 10.941 10.941 0.000
PRIMET_226 2014-09-29 05:55:00 226 1342.0 0.00 201 0.007 0.007 317.500 0.000 8.200 8.180 8.20 8.470 8.600 8.180 100.000 100.000                           10.874 10.874 0.000 10.859 10.859 0.000
PRIMET_226 2014-09-29 05:50:00 226 1342.0 0.00 200 0.007 0.007 317.500 0.000 8.200 8.170 8.20 8.430 8.540 8.170 100.000 100.000                           10.874 10.874 0.000 10.852 10.852 0.000
PRIMET_226 2014-09-29 05:45:00 226 1342.0 0.00 199 0.007 0.007 317.500 0.000 8.170 8.160 8.17 8.410 8.520 8.160 100.000 100.000                           10.852 10.852 0.000 10.844 10.844 0.000
PRIMET_226 2014-09-29 05:40:00 226 1342.0 0.00 200 0.007 0.007 317.500 0.000 8.150 8.190 8.15 8.380 8.520 8.190 100.000 100.000                           10.837 10.837 -0.000 10.867 10.867 0.000
PRIMET_226 2014-09-29 05:35:00 226 1342.0 0.00 200 0.007 0.007 317.500 0.000 8.110 8.180 8.11 8.330 8.490 8.180 100.000 100.000                           10.808 10.808 0.000 10.859 10.859 0.000
PRIMET_226 2014-09-29 05:30:00 226 1342.0 0.00 195 0.007 0.007 317.500 0.000 8.140 8.170 8.14 8.290 8.430 8.170 100.000 100.000                           10.830 10.830 0.000 10.852 10.852 0.000
PRIMET_226 2014-09-29 05:25:00 226 1342.0 0.00 200 0.007 0.007 317.500 0.000 8.190 8.220 8.19 8.380 8.520 8.220 100.000 100.000                           10.867 10.867 0.000 10.889 10.889 0.000
PRIMET_226 2014-09-29 05:20:00 226 1342.0 0.00 200 0.007 0.007 317.400 0.000 8.180 8.260 8.18 8.430 8.570 8.260 100.000 100.000                           10.859 10.859 0.000 10.918 10.918 0.000
PRIMET_226 2014-09-29 05:15:00 226 1342.0 0.00 200 0.007 0.007 317.400 0.000 8.210 8.280 8.21 8.430 8.590 8.280 100.000 100.000                           10.881 10.881 0.000 10.933 10.933 0.000
PRIMET_226 2014-09-29 05:10:00 226 1342.0 0.00 201 0.007 0.007 317.400 0.000 8.300 8.330 8.30 8.480 8.610 8.330 100.000 100.000                           10.948 10.948 0.000 10.970 10.970 0.000
PRIMET_226 2014-09-29 05:05:00 226 1342.0 0.00 219 0.007 0.007 317.500 0.000 8.360 8.370 8.36 8.520 8.650 8.370 100.000 100.000                           10.993 10.993 0.000 11.000 11.000 0.000
PRIMET_226 2014-09-29 05:00:00 226 1342.0 0.00 202 0.007 0.007 317.500 0.000 8.410 8.430 8.41 8.600 8.730 8.430 100.000 100.000                           11.030 11.030 0.000 11.045 11.045 -0.000
PRIMET_226 2014-09-29 04:55:00 226 1342.0 0.00 198 0.007 0.007 317.500 0.000 8.420 8.490 8.42 8.650 8.800 8.490 100.000 100.000                           11.038 11.038 0.000 11.090 11.090 0.000
PRIMET_226 2014-09-29 04:50:00 226 1342.0 0.00 206 0.007 0.007 317.500 0.000 8.400 8.510 8.40 8.660 8.820 8.510 100.000 100.000                           11.023 11.023 0.000 11.105 11.105 0.000
PRIMET_226 2014-09-29 04:45:00 226 1342.0 0.00 198 0.007 0.007 317.500 0.000 8.490 8.570 8.49 8.700 8.860 8.570 100.000 100.000                           11.090 11.090 0.000 11.151 11.151 0.000
PRIMET_226 2014-09-29 04:40:00 226 1342.0 0.00 200 0.007 0.007 317.500 0.000 8.580 8.630 8.58 8.820 8.970 8.630 100.000 100.000                           11.158 11.158 0.000 11.196 11.196 0.000
PRIMET_226 2014-09-29 04:35:00 226 1342.0 0.00 214 0.007 0.007 317.500 0.000 8.620 8.650 8.62 8.880 9.020 8.650 100.000 100.000                           11.188 11.188 0.000 11.211 11.211 0.000
PRIMET_226 2014-09-29 04:30:00 226 1342.0 0.00 199 0.007 0.007 317.500 0.000 8.600 8.610 8.60 8.850 8.980 8.610 100.000 100.000                           11.173 11.173 0.000 11.181 11.181 0.000
PRIMET_226 2014-09-29 04:25:00 226 1342.0 0.00 201 0.007 0.007 317.400 0.000 8.590 8.600 8.59 8.820 8.950 8.600 100.000 100.000                           11.166 11.166 0.000 11.173 11.173 0.000
PRIMET_226 2014-09-29 04:20:00 226 1342.0 0.00 200 0.007 0.007 317.400 0.000 8.580 8.600 8.58 8.830 8.950 8.600 100.000 100.000                           11.158 11.158 0.000 11.173 11.173 0.000
PRIMET_226 2014-09-29 04:15:00 226 1342.0 0.00 200 0.007 0.007 317.400 0.000 8.610 8.630 8.61 8.860 8.980 8.630 100.000 100.000                           11.181 11.181 0.000 11.196 11.196 0.000
PRIMET_226 2014-09-29 04:10:00 226 1342.0 0.00 206 0.033 0.033 317.400 0.000 8.660 8.650 8.66 8.890 8.990 8.650 100.000 100.000                           11.219 11.219 0.000 11.211 11.211 0.000
PRIMET_226 2014-09-29 04:05:00 226 1342.0 0.00 203 0.094 0.090 316.300 17.940 8.670 8.680 8.67 8.880 8.990 8.680 100.000 100.000                           11.226 11.226 0.000 11.234 11.234 0.000
PRIMET_226 2014-09-29 04:00:00 226 1342.0 0.00 200 0.007 0.007 173.800 0.000 8.720 8.740 8.72 8.910 9.040 8.740 100.000 100.000                           11.264 11.264 0.000 11.280 11.280 0.000
PRIMET_226 2014-09-29 03:55:00 226 1342.0 0.00 209 0.007 0.007 173.800 0.000 8.760 8.790 8.76 8.990 9.120 8.790 100.000 100.000                           11.295 11.295 0.000 11.318 11.318 0.000
PRIMET_226 2014-09-29 03:50:00 226 1342.0 0.00 200 0.007 0.007 174.300 1.463 8.760 8.820 8.76 9.000 9.120 8.820 100.000 100.000                           11.295 11.295 0.000 11.341 11.341 0.000
PRIMET_226 2014-09-29 03:45:00 226 1342.0 0.00 214 0.007 0.007 176.600 0.000 8.810 8.900 8.81 9.070 9.200 8.900 100.000 100.000                           11.333 11.333 0.000 11.402 11.402 -0.000
PRIMET_226 2014-09-29 03:40:00 226 1342.0 0.00 196 0.007 0.007 176.600 0.000 8.900 8.960 8.90 9.150 9.290 8.960 100.000 100.000                           11.402 11.402 -0.000 11.449 11.449 0.000
PRIMET_226 2014-09-29 03:35:00 226 1342.0 0.00 201 0.007 0.007 176.600 0.000 8.970 8.990 8.97 9.210 9.330 8.990 100.000 100.000                           11.457 11.457 0.000 11.472 11.472 0.000
PRIMET_226 2014-09-29 03:30:00 226 1342.0 0.00 200 0.007 0.007 171.300 4.262 8.970 8.990 8.97 9.190 9.300 8.990 100.000 100.000                           11.457 11.457 0.000 11.472 11.472 0.000
PRIMET_226 2014-09-29 03:25:00 226 1342.0 0.00 199 0.007 0.007 167.000 0.028 9.030 9.070 9.03 9.240 9.380 9.070 100.000 100.000                           11.503 11.503 0.000 11.534 11.534 0.000
PRIMET_226 2014-09-29 03:20:00 226 1342.0 0.00 207 0.017 0.017 167.000 0.000 9.070 9.100 9.07 9.280 9.420 9.100 100.000 100.000                           11.534 11.534 0.000 11.558 11.558 0.000
PRIMET_226 2014-09-29 03:15:00 226 1342.0 0.00 201 0.007 0.007 167.100 0.000 9.110 9.150 9.11 9.320 9.450 9.150 100.000 100.000                           11.565 11.565 0.000 11.597 11.597 0.000
PRIMET_226 2014-09-29 03:10:00 226 1342.0 0.00 202 0.007 0.007 166.600 0.340 9.170 9.200 9.17 9.380 9.500 9.200 100.000 100.000                           11.612 11.612 0.000 11.636 11.636 0.000
PRIMET_226 2014-09-29 03:05:00 226 1342.0 0.00 194 0.007 0.007 165.900 0.701 9.190 9.220 9.19 9.400 9.530 9.220 100.000 100.000                           11.628 11.628 -0.000 11.652 11.652 0.000
PRIMET_226 2014-09-29 03:00:00 226 1342.0 0.00 202 0.007 0.005 213.000 36.520 9.250 9.260 9.25 9.440 9.560 9.260 100.000 100.000                           11.675 11.675 0.000 11.683 11.683 0.000
PRIMET_226 2014-09-29 02:55:00 226 1342.0 0.00 200 0.007 0.007 243.200 0.069 9.310 9.320 9.31 9.500 9.630 9.320 100.000 100.000                           11.722 11.722 0.000 11.730 11.730 0.000
PRIMET_226 2014-09-29 02:50:00 226 1342.0 0.00 200 0.007 0.007 243.200 0.074 9.280 9.320 9.28 9.490 9.610 9.320 100.000 100.000                           11.699 11.699 0.000 11.730 11.730 0.000
PRIMET_226 2014-09-29 02:45:00 226 1342.0 0.00 195 0.007 0.007 243.200 0.084 9.310 9.380 9.31 9.480 9.630 9.380 100.000 100.000                           11.722 11.722 0.000 11.778 11.778 0.000
PRIMET_226 2014-09-29 02:40:00 226 1342.0 0.00 200 0.007 0.007 243.200 0.079 9.420 9.470 9.42 9.640 9.770 9.470 100.000 100.000                           11.810 11.810 0.000 11.849 11.849 0.000
PRIMET_226 2014-09-29 02:35:00 226 1342.0 0.00 208 0.007 0.007 243.200 0.084 9.420 9.500 9.42 9.680 9.820 9.500 100.000 100.000                           11.810 11.810 0.000 11.873 11.873 0.000
PRIMET_226 2014-09-29 02:30:00 226 1342.0 0.00 199 0.007 0.007 243.200 0.084 9.500 9.560 9.50 9.740 9.860 9.560 100.000 100.000                           11.873 11.873 0.000 11.921 11.921 -0.000
PRIMET_226 2014-09-29 02:25:00 226 1342.0 0.00 217 0.007 0.007 243.200 0.084 9.550 9.600 9.55 9.810 9.920 9.600 100.000 100.000                           11.913 11.913 0.000 11.953 11.953 0.000
PRIMET_226 2014-09-29 02:20:00 226 1342.0 0.00 200 0.007 0.007 243.200 0.084 9.610 9.650 9.61 9.830 9.950 9.650 100.000 100.000                           11.962 11.962 0.000 11.994 11.994 0.000
PRIMET_226 2014-09-29 02:15:00 226 1342.0 0.00 206 0.007 0.007 243.200 0.084 9.670 9.720 9.67 9.900 10.020 9.720 100.000 100.000                           12.010 12.010 0.000 12.050 12.050 0.000
PRIMET_226 2014-09-29 02:10:00 226 1342.0 0.00 203 0.007 0.007 243.200 0.079 9.660 9.740 9.66 9.910 10.040 9.740 100.000 100.000                           12.002 12.002 0.000 12.066 12.066 0.000
PRIMET_226 2014-09-29 02:05:00 226 1342.0 0.00 206 0.007 0.007 243.200 0.074 9.760 9.780 9.76 9.930 10.050 9.780 100.000 100.000                           12.083 12.083 0.000 12.099 12.099 -0.000
PRIMET_226 2014-09-29 02:00:00 226 1342.0 0.00 206 0.007 0.007 243.200 0.079 9.810 9.850 9.81 10.020 10.140 9.850 100.000 100.000                           12.123 12.123 0.000 12.156 12.156 0.000
PRIMET_226 2014-09-29 01:55:00 226 1342.0 0.00 202 0.007 0.007 243.200 0.074 9.850 9.930 9.85 10.090 10.230 9.930 100.000 100.000                           12.156 12.156 0.000 12.221 12.221 0.000
PRIMET_226 2014-09-29 01:50:00 226 1342.0 0.00 204 0.007 0.007 243.200 0.074 9.840 9.950 9.84 10.090 10.240 9.950 100.000 100.000                           12.148 12.148 -0.000 12.238 12.238 0.000
PRIMET_226 2014-09-29 01:45:00 226 1342.0 0.00 201 0.007 0.007 243.200 0.074 9.910 9.990 9.91 10.140 10.300 9.990 100.000 100.000                           12.205 12.205 0.000 12.271 12.271 0.000
PRIMET_226 2014-09-29 01:40:00 226 1342.0 0.00 194 0.007 0.007 243.200 0.079 9.990 10.030 9.99 10.200 10.360 10.030 100.000 100.000                           12.271 12.271 0.000 12.303 12.303 0.000
PRIMET_226 2014-09-29 01:35:00 226 1342.0 0.00 203 0.007 0.007 243.200 0.069 10.050 10.080 10.05 10.240 10.360 10.080 100.000 100.000                           12.320 12.320 0.000 12.345 12.345 0.000
PRIMET_226 2014-09-29 01:30:00 226 1342.0 0.00 202 0.007 0.007 243.200 0.079 10.100 10.150 10.10 10.300 10.420 10.150 100.000 100.000                           12.361 12.361 -0.000 12.403 12.403 0.000
PRIMET_226 2014-09-29 01:25:00 226 1342.0 0.00 203 0.007 0.007 243.200 0.074 10.120 10.240 10.12 10.350 10.500 10.240 100.000 100.000                           12.378 12.378 0.000 12.478 12.478 0.000
PRIMET_226 2014-09-29 01:20:00 226 1342.0 0.00 329 0.007 0.007 243.200 0.074 10.180 10.260 10.18 10.390 10.540 10.260 100.000 100.000                           12.428 12.428 0.000 12.494 12.494 0.000
PRIMET_226 2014-09-29 01:15:00 226 1342.0 0.00 200 0.007 0.007 243.200 0.063 10.260 10.310 10.26 10.450 10.580 10.310 100.000 100.000                           12.494 12.494 0.000 12.536 12.536 0.000
PRIMET_226 2014-09-29 01:10:00 226 1342.0 0.00 197 0.007 0.007 243.200 0.074 10.320 10.370 10.32 10.520 10.650 10.370 100.000 100.000                           12.545 12.545 0.000 12.586 12.586 0.000
PRIMET_226 2014-09-29 01:05:00 226 1342.0 0.00 208 0.007 0.007 243.200 0.079 10.390 10.410 10.39 10.600 10.720 10.410 100.000 100.000                           12.603 12.603 0.000 12.620 12.620 0.000
PRIMET_226 2014-09-29 01:00:00 226 1342.0 0.00 201 0.007 0.007 243.200 0.074 10.410 10.470 10.41 10.620 10.750 10.470 100.000 100.000                           12.620 12.620 0.000 12.671 12.671 0.000
PRIMET_226 2014-09-29 00:55:00 226 1342.0 0.00 200 0.007 0.007 243.200 0.079 10.450 10.540 10.45 10.690 10.830 10.540 100.000 100.000                           12.654 12.654 0.000 12.730 12.730 0.000
PRIMET_226 2014-09-29 00:50:00 226 1342.0 0.00 201 0.007 0.007 243.200 0.079 10.430 10.540 10.43 10.650 10.820 10.540 100.000 100.000                           12.637 12.637 0.000 12.730 12.730 0.000
PRIMET_226 2014-09-29 00:45:00 226 1342.0 0.00 202 0.007 0.007 243.200 0.069 10.500 10.590 10.50 10.630 10.810 10.590 100.000 100.000                           12.696 12.696 0.000 12.773 12.773 0.000
PRIMET_226 2014-09-29 00:40:00 226 1342.0 0.00 209 0.007 0.007 243.200 0.074 10.630 10.690 10.63 10.800 10.940 10.690 100.000 100.000                           12.807 12.807 0.000 12.858 12.858 0.000
PRIMET_226 2014-09-29 00:35:00 226 1342.0 0.00 202 0.007 0.007 243.200 0.074 10.690 10.760 10.69 10.910 11.050 10.760 100.000 100.000                           12.858 12.858 0.000 12.918 12.918 -0.000
PRIMET_226 2014-09-29 00:30:00 226 1342.0 0.00 203 0.007 0.007 243.200 0.079 10.760 10.800 10.76 10.970 11.090 10.800 100.000 100.000                           12.918 12.918 -0.000 12.953 12.953 0.000
PRIMET_226 2014-09-29 00:25:00 226 1342.0 0.00 202 0.007 0.007 243.200 0.074 10.810 10.860 10.81 11.040 11.160 10.860 100.000 100.000                           12.961 12.961 0.000 13.004 13.004 0.000
PRIMET_226 2014-09-29 00:20:00 226 1342.0 0.00 202 0.007 0.007 243.200 0.063 10.870 10.920 10.87 11.110 11.220 10.920 100.000 100.000                           13.013 13.013 -0.000 13.056 13.056 0.000
PRIMET_226 2014-09-29 00:15:00 226 1342.0 0.00 203 0.007 0.007 243.200 0.063 10.890 10.950 10.89 11.110 11.240 10.950 100.000 100.000                           13.030 13.030 -0.000 13.083 13.083 0.000
PRIMET_226 2014-09-29 00:10:00 226 1342.0 0.00 212 0.007 0.007 243.200 0.063 10.960 11.000 10.96 11.140 11.260 11.000 100.000 100.000                           13.091 13.091 0.000 13.126 13.126 0.000
PRIMET_226 2014-09-29 00:05:00 226 1342.0 0.00 201 0.007 0.007 243.200 0.074 11.020 11.070 11.02 11.200 11.310 11.070 100.000 100.000                           13.144 13.144 0.000 13.187 13.187 0.000
PRIMET_226 2014-09-29 00:00:00 226 1342.0 0.00 205 0.007 0.007 243.200 0.074 11.080 11.140 11.08 11.280 11.400 11.140 100.000 100.000                           13.196 13.196 0.000 13.249 13.249 0.000
PRIMET_226 2014-09-28 23:55:00 226 1342.0 0.00 202 0.007 0.007 243.200 0.074 11.130 11.200 11.13 11.360 11.480 11.200 100.000 100.000                           13.240 13.240 0.000 13.302 13.302 0.000
PRIMET_226 2014-09-28 23:50:00 226 1342.0 0.00 202 0.007 0.007 243.200 0.069 11.170 11.250 11.17 11.410 11.540 11.250 100.000 100.000                           13.275 13.275 0.000 13.346 13.346 0.000
PRIMET_226 2014-09-28 23:45:00 226 1342.0 0.00 209 0.007 0.007 243.200 0.069 11.170 11.280 11.17 11.420 11.550 11.280 100.000 100.000                           13.275 13.275 0.000 13.372 13.372 0.000
PRIMET_226 2014-09-28 23:40:00 226 1342.0 0.00 201 0.007 0.007 243.200 0.079 11.180 11.310 11.18 11.400 11.550 11.310 100.000 100.000                           13.284 13.284 0.000 13.399 13.399 0.000
PRIMET_226 2014-09-28 23:35:00 226 1342.0 0.00 213 0.007 0.007 243.200 0.074 11.340 11.400 11.34 11.510 11.640 11.400 100.000 100.000                           13.426 13.426 0.000 13.479 13.479 -0.000
PRIMET_226 2014-09-28 23:30:00 226 1342.0 0.00 226 0.007 0.007 243.200 0.069 11.410 11.460 11.41 11.600 11.710 11.460 100.000 100.000                           13.488 13.488 0.000 13.533 13.533 0.000
PRIMET_226 2014-09-28 23:25:00 226 1342.0 0.00 201 0.007 0.007 243.200 0.079 11.440 11.520 11.44 11.660 11.780 11.520 100.000 100.000                           13.515 13.515 0.000 13.587 13.587 0.000
PRIMET_226 2014-09-28 23:20:00 226 1342.0 0.00 230 0.007 0.007 243.200 0.079 11.450 11.580 11.45 11.700 11.820 11.580 100.000 100.000                           13.524 13.524 0.000 13.641 13.641 0.000
PRIMET_226 2014-09-28 23:15:00 226 1342.0 0.00 206 0.007 0.007 243.200 0.079 11.510 11.630 11.51 11.740 11.870 11.630 100.000 100.000                           13.578 13.578 0.000 13.686 13.686 0.000
PRIMET_226 2014-09-28 23:10:00 226 1342.0 0.00 213 0.007 0.007 243.200 0.069 11.620 11.680 11.62 11.780 11.920 11.680 100.000 100.000                           13.677 13.677 0.000 13.731 13.731 0.000
PRIMET_226 2014-09-28 23:05:00 226 1342.0 0.00 200 0.007 0.007 243.200 0.084 11.690 11.760 11.69 11.870 11.990 11.760 100.000 100.000                           13.740 13.740 0.000 13.804 13.804 0.000
PRIMET_226 2014-09-28 23:00:00 226 1342.0 0.00 209 0.007 0.007 243.200 0.069 11.740 11.830 11.74 11.940 12.070 11.830 100.000 100.000                           13.786 13.786 0.000 13.868 13.868 0.000
PRIMET_226 2014-09-28 22:55:00 226 1342.0 0.00 203 0.007 0.007 243.200 0.074 11.770 11.880 11.77 11.980 12.120 11.880 100.000 100.000                           13.813 13.813 -0.000 13.914 13.914 0.000
PRIMET_226 2014-09-28 22:50:00 226 1342.0 0.00 230 0.007 0.007 243.200 0.074 11.770 11.940 11.77 11.980 12.160 11.940 100.000 100.000                           13.813 13.813 -0.000 13.969 13.969 0.000
PRIMET_226 2014-09-28 22:45:00 226 1342.0 0.00 203 0.007 0.007 243.200 0.079 11.890 12.010 11.89 12.040 12.200 12.010 100.000 100.000                           13.923 13.923 0.000 14.034 14.034 0.000
PRIMET_226 2014-09-28 22:40:00 226 1342.0 0.00 210 0.007 0.007 243.200 0.074 12.010 12.100 12.01 12.210 12.330 12.100 100.000 100.000                           14.034 14.034 0.000 14.117 14.117 0.000
PRIMET_226 2014-09-28 22:35:00 226 1342.0 0.00 218 0.007 0.007 243.200 0.079 12.080 12.180 12.08 12.330 12.460 12.180 100.000 100.000                           14.099 14.099 -0.000 14.192 14.192 0.000
PRIMET_226 2014-09-28 22:30:00 226 1342.0 0.00 206 0.007 0.007 240.500 1.524 12.080 12.210 12.08 12.340 12.470 12.210 100.000 100.000                           14.099 14.099 -0.000 14.220 14.220 0.000
PRIMET_226 2014-09-28 22:25:00 226 1342.0 0.00 219 0.007 0.007 238.900 0.524 12.120 12.260 12.12 12.370 12.520 12.260 100.000 100.000                           14.136 14.136 0.000 14.267 14.267 0.000
PRIMET_226 2014-09-28 22:20:00 226 1342.0 0.00 221 0.007 0.007 241.100 0.063 12.200 12.330 12.20 12.440 12.580 12.330 100.000 100.000                           14.211 14.211 0.000 14.333 14.333 0.000
PRIMET_226 2014-09-28 22:15:00 226 1342.0 0.00 226 0.007 0.007 241.100 0.069 12.240 12.360 12.24 12.480 12.600 12.360 100.000 100.000                           14.248 14.248 -0.000 14.361 14.361 -0.000
PRIMET_226 2014-09-28 22:10:00 226 1342.0 0.00 225 0.007 0.007 241.100 0.074 12.280 12.420 12.28 12.510 12.650 12.420 100.000 100.000                           14.286 14.286 0.000 14.418 14.418 0.000
PRIMET_226 2014-09-28 22:05:00 226 1342.0 0.00 209 0.007 0.007 241.100 0.079 12.340 12.490 12.34 12.600 12.730 12.490 100.000 100.000                           14.342 14.342 0.000 14.484 14.484 0.000
PRIMET_226 2014-09-28 22:00:00 226 1342.0 0.00 230 0.007 0.007 238.800 2.596 12.360 12.520 12.36 12.620 12.760 12.520 100.000 100.000                           14.361 14.361 -0.000 14.513 14.513 0.000
PRIMET_226 2014-09-28 21:55:00 226 1342.0 0.00 226 0.007 0.007 235.900 0.048 12.350 12.560 12.35 12.590 12.770 12.560 100.000 100.000                           14.351 14.351 0.000 14.551 14.551 0.000
PRIMET_226 2014-09-28 21:50:00 226 1342.0 0.00 221 0.007 0.007 235.900 0.040 12.410 12.630 12.41 12.630 12.830 12.630 100.000 100.000                           14.408 14.408 0.000 14.618 14.618 0.000
PRIMET_226 2014-09-28 21:45:00 226 1342.0 0.00 210 0.007 0.007 235.900 0.040 12.500 12.700 12.50 12.760 12.930 12.700 100.000 100.000                           14.494 14.494 0.000 14.685 14.685 0.000
PRIMET_226 2014-09-28 21:40:00 226 1342.0 0.00 216 0.007 0.007 235.900 0.040 12.600 12.780 12.60 12.860 13.010 12.780 100.000 100.000                           14.589 14.589 0.000 14.762 14.762 0.000
PRIMET_226 2014-09-28 21:35:00 226 1342.0 0.00 216 0.007 0.007 235.300 1.009 12.680 12.830 12.68 12.920 13.070 12.830 100.000 100.000                           14.666 14.666 0.000 14.811 14.811 0.000
PRIMET_226 2014-09-28 21:30:00 226 1342.0 0.00 205 0.007 0.007 233.800 0.063 12.740 12.900 12.74 12.980 13.130 12.900 100.000 100.000                           14.724 14.724 0.000 14.879 14.879 0.000
PRIMET_226 2014-09-28 21:25:00 226 1342.0 0.00 216 0.007 0.007 233.900 0.000 12.840 12.960 12.84 13.090 13.190 12.960 100.000 100.000                           14.820 14.820 0.000 14.937 14.937 -0.000
PRIMET_226 2014-09-28 21:20:00 226 1342.0 0.00 216 0.007 0.007 233.900 0.028 12.890 13.000 12.89 13.140 13.240 13.000 100.000 100.000                           14.869 14.869 -0.000 14.976 14.976 0.000
PRIMET_226 2014-09-28 21:15:00 226 1342.0 0.00 238 0.007 0.007 233.900 0.028 12.940 13.050 12.94 13.170 13.280 13.050 100.000 100.000                           14.918 14.918 0.000 15.025 15.025 0.000
PRIMET_226 2014-09-28 21:10:00 226 1342.0 0.00 212 0.007 0.007 233.900 0.028 13.000 13.110 13.00 13.240 13.340 13.110 100.000 100.000                           14.976 14.976 0.000 15.085 15.085 -0.000
PRIMET_226 2014-09-28 21:05:00 226 1342.0 0.00 211 0.007 0.007 233.900 0.040 13.030 13.140 13.03 13.260 13.370 13.140 100.000 100.000                           15.006 15.006 0.000 15.114 15.114 0.000
PRIMET_226 2014-09-28 21:00:00 226 1342.0 0.00 227 0.007 0.007 233.900 0.040 13.060 13.170 13.06 13.270 13.370 13.170 100.000 100.000                           15.035 15.035 0.000 15.144 15.144 0.000
PRIMET_226 2014-09-28 20:55:00 226 1342.0 0.00 218 0.007 0.007 233.900 0.028 13.090 13.220 13.09 13.330 13.440 13.220 100.000 100.000                           15.065 15.065 0.000 15.193 15.193 0.000
PRIMET_226 2014-09-28 20:50:00 226 1342.0 0.00 244 0.007 0.007 233.800 0.048 13.150 13.290 13.15 13.400 13.510 13.290 100.000 100.000                           15.124 15.124 0.000 15.263 15.263 0.000
PRIMET_226 2014-09-28 20:45:00 226 1342.0 0.00 221 0.007 0.007 233.900 0.048 13.220 13.360 13.22 13.460 13.570 13.360 100.000 100.000                           15.193 15.193 0.000 15.333 15.333 0.000
PRIMET_226 2014-09-28 20:40:00 226 1342.0 0.00 233 0.007 0.007 233.900 0.028 13.290 13.400 13.29 13.500 13.610 13.400 100.000 100.000                           15.263 15.263 0.000 15.373 15.373 0.000
PRIMET_226 2014-09-28 20:35:00 226 1342.0 0.00 213 0.007 0.007 233.900 0.028 13.340 13.440 13.34 13.550 13.650 13.440 100.000 100.000                           15.313 15.313 0.000 15.413 15.413 0.000
PRIMET_226 2014-09-28 20:30:00 226 1342.0 0.00 235 0.007 0.007 233.100 0.308 13.380 13.490 13.38 13.610 13.710 13.490 100.000 100.000                           15.353 15.353 0.000 15.463 15.463 0.000
PRIMET_226 2014-09-28 20:25:00 226 1342.0 0.00 224 0.007 0.007 233.000 0.000 13.420 13.550 13.42 13.650 13.760 13.550 100.000 100.000                           15.393 15.393 0.000 15.524 15.524 0.000
PRIMET_226 2014-09-28 20:20:00 226 1342.0 0.00 241 0.007 0.007 233.000 0.000 13.480 13.610 13.48 13.710 13.820 13.610 100.000 100.000                           15.453 15.453 0.000 15.585 15.585 0.000
PRIMET_226 2014-09-28 20:15:00 226 1342.0 0.00 227 0.007 0.007 233.000 0.000 13.530 13.660 13.53 13.750 13.860 13.660 100.000 100.000                           15.504 15.504 0.000 15.635 15.635 0.000
PRIMET_226 2014-09-28 20:10:00 226 1342.0 0.00 227 0.007 0.007 233.000 0.063 13.570 13.730 13.57 13.810 13.930 13.730 100.000 100.000                           15.544 15.544 -0.000 15.707 15.707 0.000
PRIMET_226 2014-09-28 20:05:00 226 1342.0 0.00 222 0.007 0.007 235.200 0.108 13.650 13.800 13.65 13.880 14.000 13.800 100.000 100.000                           15.625 15.625 0.000 15.778 15.778 0.000
PRIMET_226 2014-09-28 20:00:00 226 1342.0 0.00 237 0.007 0.007 235.200 0.040 13.680 13.830 13.68 13.920 14.020 13.830 100.000 100.000                           15.656 15.656 -0.000 15.809 15.809 0.000
PRIMET_226 2014-09-28 19:55:00 226 1342.0 0.00 219 0.007 0.007 235.200 0.040 13.720 13.860 13.72 13.940 14.030 13.860 100.000 100.000                           15.697 15.697 0.000 15.840 15.840 0.000
PRIMET_226 2014-09-28 19:50:00 226 1342.0 0.00 220 0.007 0.007 235.200 0.056 13.780 13.930 13.78 14.000 14.100 13.930 100.000 100.000                           15.758 15.758 -0.000 15.912 15.912 0.000
PRIMET_226 2014-09-28 19:45:00 226 1342.0 0.00 208 0.007 0.007 235.300 0.048 13.810 13.990 13.81 14.080 14.180 13.990 100.000 100.000                           15.789 15.789 0.000 15.974 15.974 -0.000
PRIMET_226 2014-09-28 19:40:00 226 1342.0 0.00 235 0.007 0.007 235.300 0.048 13.850 14.030 13.85 14.130 14.220 14.030 100.000 100.000                           15.830 15.830 0.000 16.016 16.016 0.000
PRIMET_226 2014-09-28 19:35:00 226 1342.0 0.00 225 0.007 0.007 235.200 0.063 13.860 14.050 13.86 14.130 14.240 14.070 100.000 99.900                           15.840 15.840 0.000 16.057 16.037 0.016
PRIMET_226 2014-09-28 19:30:00 226 1342.0 0.00 211 0.007 0.007 235.200 0.048 13.900 14.080 13.90 14.170 14.280 14.120 100.000 99.800                           15.881 15.881 0.000 16.110 16.068 0.032
PRIMET_226 2014-09-28 19:25:00 226 1342.0 0.00 211 0.007 0.007 235.200 0.063 13.950 14.110 13.95 14.200 14.320 14.180 100.000 99.600                           15.933 15.933 0.000 16.172 16.099 0.065
PRIMET_226 2014-09-28 19:20:00 226 1342.0 0.00 212 0.007 0.007 235.300 0.040 14.040 14.160 14.04 14.260 14.380 14.240 100.000 99.400                           16.026 16.026 0.000 16.235 16.151 0.097
PRIMET_226 2014-09-28 19:15:00 226 1342.0 0.00 229 0.007 0.007 235.300 0.040 14.120 14.180 14.12 14.340 14.420 14.300 100.000 99.200                           16.110 16.110 0.000 16.298 16.172 0.130
PRIMET_226 2014-09-28 19:10:00 226 1342.0 0.00 213 0.007 0.007 235.300 0.048 14.190 14.220 14.19 14.400 14.490 14.370 100.000 99.000                           16.183 16.183 0.000 16.372 16.214 0.164
PRIMET_226 2014-09-28 19:05:00 226 1342.0 0.00 247 0.007 0.007 235.300 0.040 14.230 14.250 14.23 14.450 14.540 14.430 100.000 98.800                           16.225 16.225 0.000 16.436 16.246 0.197
PRIMET_226 2014-09-28 19:00:00 226 1342.0 0.00 217 0.007 0.007 235.300 0.093 14.270 14.300 14.27 14.510 14.620 14.500 100.000 98.700                           16.267 16.267 0.000 16.511 16.298 0.215
PRIMET_226 2014-09-28 18:55:00 226 1342.0 0.00 222 0.007 0.007 235.200 0.088 14.270 14.360 14.31 14.570 14.700 14.570 99.800 98.600                           16.309 16.267 0.033 16.586 16.362 0.232
PRIMET_226 2014-09-28 18:50:00 226 1342.0 0.00 204 0.007 0.007 235.200 0.056 14.260 14.390 14.36 14.630 14.760 14.650 99.300 98.300                           16.362 16.256 0.115 16.671 16.394 0.283
PRIMET_226 2014-09-28 18:45:00 226 1342.0 0.00 225 0.007 0.007 235.200 0.040 14.310 14.450 14.46 14.720 14.850 14.740 99.000 98.200                           16.468 16.309 0.165 16.769 16.457 0.302
PRIMET_226 2014-09-28 18:40:00 226 1342.0 0.00 208 0.007 0.007 234.700 0.502 14.320 14.480 14.57 14.800 14.920 14.830 98.400 97.700                           16.586 16.320 0.265 16.866 16.489 0.388
PRIMET_226 2014-09-28 18:35:00 226 1342.0 0.00 230 0.007 0.007 235.700 0.028 14.490 14.530 14.73 14.920 15.030 14.940 98.500 97.400                           16.758 16.500 0.251 16.986 16.543 0.442
PRIMET_226 2014-09-28 18:30:00 226 1342.0 0.00 210 0.007 0.007 235.700 0.048 14.620 14.640 14.85 15.040 15.150 15.080 98.500 97.200                           16.888 16.639 0.253 17.140 16.661 0.480
PRIMET_226 2014-09-28 18:25:00 226 1342.0 0.00 223 0.007 0.007 235.700 0.040 14.770 14.790 14.97 15.180 15.300 15.220 98.700 97.300                           17.019 16.801 0.221 17.295 16.823 0.467
PRIMET_226 2014-09-28 18:20:00 226 1342.0 0.00 221 0.007 0.007 235.700 0.028 14.910 14.900 15.07 15.300 15.420 15.330 99.000 97.300                           17.129 16.953 0.171 17.418 16.942 0.470
PRIMET_226 2014-09-28 18:15:00 226 1342.0 0.00 228 0.007 0.007 235.700 0.048 15.000 15.010 15.13 15.390 15.510 15.450 99.200 97.200                           17.195 17.052 0.138 17.552 17.063 0.491
PRIMET_226 2014-09-28 18:10:00 226 1342.0 0.00 213 0.007 0.007 234.900 0.369 15.040 15.100 15.20 15.460 15.590 15.580 99.000 97.000                           17.273 17.096 0.173 17.699 17.162 0.531
PRIMET_226 2014-09-28 18:05:00 226 1342.0 0.00 208 0.007 0.007 235.200 0.056 15.120 15.220 15.34 15.570 15.730 15.740 98.600 96.700                           17.429 17.184 0.244 17.881 17.295 0.590
PRIMET_226 2014-09-28 18:00:00 226 1342.0 0.00 232 0.007 0.007 235.200 0.000 15.230 15.300 15.43 15.710 15.860 15.840 98.700 96.600                           17.530 17.306 0.228 17.996 17.384 0.612
PRIMET_226 2014-09-28 17:55:00 226 1342.0 0.00 214 0.007 0.007 234.700 0.097 15.250 15.330 15.52 15.790 15.930 15.980 98.300 95.900                           17.631 17.328 0.300 18.158 17.418 0.744
PRIMET_226 2014-09-28 17:50:00 226 1342.0 0.00 226 0.007 0.007 234.700 0.040 15.370 15.410 15.65 15.940 16.090 16.110 98.200 95.600                           17.779 17.462 0.320 18.309 17.507 0.806
PRIMET_226 2014-09-28 17:45:00 226 1342.0 0.00 214 0.007 0.007 234.600 0.056 15.420 15.500 15.73 16.050 16.220 16.250 98.000 95.300                           17.870 17.518 0.357 18.473 17.609 0.868
PRIMET_226 2014-09-28 17:40:00 226 1342.0 0.00 226 0.007 0.007 234.700 0.256 15.490 15.560 15.86 16.200 16.380 16.390 97.700 94.800                           18.019 17.597 0.414 18.639 17.676 0.969
PRIMET_226 2014-09-28 17:35:00 226 1342.0 0.00 212 0.007 0.007 235.400 0.079 15.560 15.640 15.97 16.340 16.520 16.510 97.400 94.600                           18.146 17.676 0.472 18.782 17.767 1.014
PRIMET_226 2014-09-28 17:30:00 226 1342.0 0.00 217 0.007 0.007 235.300 0.074 15.630 15.660 16.14 16.480 16.640 16.660 96.800 93.800                           18.344 17.756 0.587 18.962 17.790 1.176
PRIMET_226 2014-09-28 17:25:00 226 1342.0 0.00 217 0.007 0.007 235.400 0.069 15.690 15.690 16.26 16.590 16.760 16.760 96.400 93.400                           18.485 17.824 0.665 19.083 17.824 1.259
PRIMET_226 2014-09-28 17:20:00 226 1342.0 0.00 225 0.007 0.007 235.400 0.069 15.720 15.740 16.34 16.700 16.870 16.880 96.100 93.000                           18.580 17.859 0.725 19.229 17.881 1.346
PRIMET_226 2014-09-28 17:15:00 226 1342.0 0.00 219 0.120 0.105 212.800 28.700 15.730 15.790 16.46 16.840 17.020 17.030 95.500 92.400                           18.722 17.870 0.842 19.412 17.939 1.475
PRIMET_226 2014-09-28 17:10:00 226 1342.0 0.00 206 0.175 0.164 89.200 20.870 15.780 15.820 16.64 17.010 17.200 17.230 94.600 91.400                           18.938 17.927 1.023 19.660 17.973 1.691
PRIMET_226 2014-09-28 17:05:00 226 1342.0 0.00 228 0.007 0.007 320.400 0.000 15.810 15.820 16.78 17.120 17.320 17.390 94.000 90.500                           19.107 17.962 1.146 19.859 17.973 1.887
PRIMET_226 2014-09-28 17:00:00 226 1342.0 0.00 212 0.007 0.007 321.000 0.063 15.860 15.850 16.98 17.320 17.500 17.580 93.100 89.600                           19.351 18.019 1.335 20.099 18.008 2.090
PRIMET_226 2014-09-28 16:55:00 226 1342.0 0.00 222 0.013 0.013 227.500 18.910 15.860 15.880 17.10 17.490 17.690 17.780 92.400 88.700                           19.498 18.019 1.482 20.354 18.042 2.300
PRIMET_226 2014-09-28 16:50:00 226 1342.0 0.00 210 0.600 0.597 207.800 5.449 15.660 15.660 17.33 17.680 17.890 18.010 89.900 86.100                           19.784 17.790 1.998 20.651 17.790 2.870
PRIMET_226 2014-09-28 16:45:00 226 1342.0 0.00 221 0.177 0.176 223.800 7.496 15.670 15.510 17.61 17.910 18.110 18.220 88.400 84.200                           20.137 17.801 2.336 20.925 17.620 3.306
PRIMET_226 2014-09-28 16:40:00 226 1342.0 0.00 217 0.101 0.101 331.300 0.788 16.040 16.020 17.88 18.140 18.300 18.460 89.000 85.700                           20.483 18.228 2.253 21.242 18.204 3.038
PRIMET_226 2014-09-28 16:35:00 226 1342.0 0.00 223 0.007 0.007 332.800 0.619 15.910 15.850 18.11 18.420 18.590 18.720 87.000 83.400                           20.781 18.077 2.702 21.591 18.008 3.584
PRIMET_226 2014-09-28 16:30:00 226 1342.0 0.00 219 0.080 0.070 273.900 29.230 15.720 15.510 18.25 18.600 18.800 18.900 85.200 80.700                           20.964 17.859 3.103 21.835 17.620 4.214
PRIMET_226 2014-09-28 16:25:00 226 1342.0 0.00 211 0.070 0.070 319.700 7.852 15.670 15.490 18.44 18.800 19.000 19.110 83.900 79.530                           21.216 17.801 3.416 22.123 17.597 4.529
PRIMET_226 2014-09-28 16:20:00 226 1342.0 0.00 211 0.343 0.111 274.400 66.600 15.470 15.250 18.48 18.920 19.150 19.210 82.700 77.850                           21.269 17.575 3.680 22.261 17.328 4.931
PRIMET_226 2014-09-28 16:15:00 226 1342.0 0.00 205 0.208 0.152 346.000 42.040 15.750 15.340 18.56 18.890 19.090 19.240 83.700 78.150                           21.376 17.893 3.484 22.303 17.429 4.873
PRIMET_226 2014-09-28 16:10:00 226 1342.0 0.00 213 0.321 0.137 301.100 61.340 15.870 15.400 18.81 19.120 19.340 19.540 83.000 77.040                           21.713 18.031 3.691 22.723 17.496 5.217
PRIMET_226 2014-09-28 16:05:00 226 1342.0 0.00 217 0.540 0.322 279.600 51.440 15.620 15.400 19.22 19.570 19.750 19.870 79.720 75.440                           22.275 17.745 4.517 23.193 17.496 5.696
PRIMET_226 2014-09-28 16:00:00 226 1342.0 0.00 205 0.568 0.349 234.200 50.320 15.190 14.980 19.14 19.570 19.810 19.900 77.950 73.330                           22.164 17.262 4.887 23.236 17.030 6.197
PRIMET_226 2014-09-28 15:55:00 226 1342.0 0.00 204 0.498 0.265 242.800 55.420 15.100 14.720 19.25 19.630 19.880 19.970 76.920 71.800                           22.317 17.162 5.151 23.337 16.747 6.581
PRIMET_226 2014-09-28 15:50:00 226 1342.0 0.00 213 0.350 0.208 286.900 51.580 15.370 14.940 19.28 19.600 19.840 19.990 78.090 72.720                           22.358 17.462 4.899 23.366 16.986 6.374
PRIMET_226 2014-09-28 15:45:00 226 1342.0 0.00 219 0.258 0.151 276.700 52.320 15.410 15.130 19.43 19.800 20.080 20.320 77.590 72.100                           22.568 17.507 5.057 23.847 17.195 6.653
PRIMET_226 2014-09-28 15:40:00 226 1342.0 0.00 221 0.342 0.236 243.700 45.220 15.360 15.030 19.60 19.930 20.290 20.600 76.510 70.440                           22.808 17.451 5.357 24.263 17.085 7.172
PRIMET_226 2014-09-28 15:35:00 226 1342.0 0.00 228 0.408 0.368 253.100 25.290 15.000 14.360 19.91 20.280 20.790 21.150 73.350 65.190                           23.250 17.052 6.196 25.097 16.362 8.736
PRIMET_226 2014-09-28 15:30:00 226 1342.0 0.00 219 0.509 0.434 223.500 31.090 14.550 13.960 20.51 20.870 21.420 21.580 68.750 61.910                           24.129 16.564 7.540 25.767 15.943 9.815
PRIMET_226 2014-09-28 15:25:00 226 1342.0 0.00 216 0.490 0.415 280.900 31.710 14.960 14.490 21.30 21.490 21.770 21.850 67.170 63.030                           25.329 17.008 8.316 26.195 16.500 9.684
PRIMET_226 2014-09-28 15:20:00 226 1342.0 0.00 211 0.688 0.431 255.800 49.480 14.810 14.440 21.62 21.920 22.070 22.110 65.250 61.900                           25.830 16.844 8.976 26.614 16.447 10.140
PRIMET_226 2014-09-28 15:15:00 226 1342.0 0.00 204 0.772 0.608 227.700 37.290 14.280 13.730 21.65 22.150 22.330 22.170 62.980 58.870                           25.877 16.277 9.580 26.711 15.707 10.986
PRIMET_226 2014-09-28 15:10:00 226 1342.0 0.00 206 0.351 0.226 255.300 48.410 15.270 14.640 21.66 21.850 22.000 21.990 67.030 63.080                           25.893 17.351 8.537 26.420 16.661 9.754
PRIMET_226 2014-09-28 15:05:00 226 1342.0 0.00 204 0.505 0.369 255.000 42.150 14.920 14.270 21.81 22.080 22.190 22.170 64.930 60.930                           26.132 16.964 9.164 26.711 16.267 10.436
PRIMET_226 2014-09-28 15:00:00 226 1342.0 0.00 202 0.717 0.521 215.600 42.320 14.590 13.940 21.85 22.230 22.210 22.060 63.490 60.090                           26.195 16.607 9.564 26.533 15.923 10.589
PRIMET_226 2014-09-28 14:55:00 226 1342.0 0.00 196 0.435 0.337 214.400 38.470 15.150 15.020 21.82 22.010 21.920 21.920 65.910 65.000                           26.148 17.217 8.914 26.308 17.074 9.208
PRIMET_226 2014-09-28 14:50:00 226 1342.0 0.00 196 0.570 0.200 250.600 65.290 15.440 14.800 22.20 22.140 22.090 22.140 65.550 63.210                           26.760 17.541 9.219 26.663 16.834 9.809
PRIMET_226 2014-09-28 14:45:00 226 1342.0 0.00 207 0.360 0.206 246.800 52.970 15.450 14.930 22.27 22.210 22.250 22.220 65.380 63.420                           26.874 17.552 9.304 26.793 16.975 9.801
PRIMET_226 2014-09-28 14:40:00 226 1342.0 0.00 214 0.356 0.286 250.200 35.940 15.040 14.330 22.58 22.380 22.340 22.200 62.490 61.080                           27.385 17.096 10.272 26.760 16.330 10.415
PRIMET_226 2014-09-28 14:35:00 226 1342.0 0.00 202 0.398 0.338 229.200 31.350 14.980 14.630 22.29 22.390 22.340 22.210 63.410 62.290                           26.907 17.030 9.845 26.776 16.650 10.097
PRIMET_226 2014-09-28 14:30:00 226 1342.0 0.00 202 0.395 0.285 240.700 42.700 15.320 14.520 22.33 22.290 22.310 22.310 64.560 61.460                           26.973 17.406 9.559 26.940 16.532 10.383
PRIMET_226 2014-09-28 14:25:00 226 1342.0 0.00 205 0.345 0.255 252.400 41.200 15.460 14.800 22.53 22.610 22.660 22.510 64.350 61.790                           27.302 17.563 9.733 27.269 16.834 10.420
PRIMET_226 2014-09-28 14:20:00 226 1342.0 0.00 202 0.428 0.358 231.800 32.870 15.210 14.620 22.94 22.840 22.770 22.560 61.850 60.960                           27.989 17.284 10.678 27.352 16.639 10.678
PRIMET_226 2014-09-28 14:15:00 226 1342.0 0.00 199 0.290 0.234 239.700 35.520 15.630 15.080 23.12 22.960 22.670 22.540 62.790 62.740                           28.295 17.756 10.529 27.319 17.140 10.179
PRIMET_226 2014-09-28 14:10:00 226 1342.0 0.00 204 0.181 0.162 228.000 26.270 15.860 15.630 22.95 23.050 22.800 22.660 64.390 64.560                           28.006 18.019 9.973 27.518 17.756 9.753
PRIMET_226 2014-09-28 14:05:00 226 1342.0 0.00 213 0.487 0.260 199.800 55.290 14.930 14.630 22.70 22.950 22.790 22.710 61.710 60.480                           27.585 16.975 10.562 27.602 16.650 10.908
PRIMET_226 2014-09-28 14:00:00 226 1342.0 0.00 206 0.406 0.291 213.200 43.060 15.260 14.930 21.84 21.890 21.890 21.940 66.420 64.640                           26.180 17.339 8.791 26.340 16.975 9.314
PRIMET_226 2014-09-28 13:55:00 226 1342.0 0.00 215 0.556 0.479 234.400 30.190 15.410 15.100 21.72 21.540 21.560 21.810 67.400 65.730                           25.988 17.507 8.472 26.132 17.162 8.955
PRIMET_226 2014-09-28 13:50:00 226 1342.0 0.00 201 0.381 0.170 205.500 60.220 14.490 13.930 22.82 22.800 22.780 22.870 59.660 57.310                           27.787 16.500 11.209 27.871 15.912 11.898
PRIMET_226 2014-09-28 13:45:00 226 1342.0 0.00 204 0.614 0.433 186.500 44.070 13.790 13.610 23.31 23.490 23.390 23.320 55.490 54.690                           28.622 15.768 12.740 28.639 15.585 12.976
PRIMET_226 2014-09-28 13:40:00 226 1342.0 0.00 205 0.537 0.295 239.800 54.360 15.000 14.670 23.13 23.250 23.180 23.150 60.300 58.960                           28.313 17.052 11.240 28.347 16.693 11.634
PRIMET_226 2014-09-28 13:35:00 226 1342.0 0.00 208 0.568 0.485 249.700 31.090 14.790 14.390 22.99 23.240 23.040 22.950 60.110 58.710                           28.074 16.823 11.199 28.006 16.394 11.564
PRIMET_226 2014-09-28 13:30:00 226 1342.0 0.00 199 0.619 0.295 206.000 58.650 13.980 13.600 22.33 22.560 22.510 22.350 59.370 57.810                           26.973 15.964 10.959 27.005 15.574 11.394
PRIMET_226 2014-09-28 13:25:00 226 1342.0 0.00 206 0.494 0.378 232.700 39.180 14.500 14.180 21.64 21.740 21.790 21.780 64.030 62.150                           25.862 16.511 9.302 26.084 16.172 9.873
PRIMET_226 2014-09-28 13:20:00 226 1342.0 0.00 205 1.038 0.888 213.600 30.840 13.190 12.900 21.33 21.590 21.530 21.310 60.030 58.860                           25.376 15.164 10.143 25.345 14.879 10.427
PRIMET_226 2014-09-28 13:15:00 226 1342.0 0.00 195 0.272 0.130 229.600 58.580 15.320 14.850 20.87 21.090 20.940 20.820 70.770 68.830                           24.669 17.406 7.211 24.594 16.888 7.666
PRIMET_226 2014-09-28 13:10:00 226 1342.0 0.00 198 0.390 0.310 164.300 36.650 15.090 14.620 20.59 20.590 20.580 20.590 70.960 68.860                           24.248 17.151 7.042 24.248 16.639 7.551
PRIMET_226 2014-09-28 13:05:00 226 1342.0 0.00 202 0.181 0.119 182.700 47.300 15.410 15.010 20.76 20.790 20.760 20.870 71.510 69.210                           24.503 17.507 6.981 24.669 17.063 7.596
PRIMET_226 2014-09-28 13:00:00 226 1342.0 0.00 211 0.604 0.367 229.600 50.720 13.440 13.020 20.67 21.060 21.120 20.980 63.530 60.570                           24.368 15.413 8.887 24.837 14.996 9.793
PRIMET_226 2014-09-28 12:55:00 226 1342.0 0.00 200 0.407 0.209 182.900 56.560 14.160 13.710 20.31 20.560 20.670 20.660 68.030 64.630                           23.833 16.151 7.619 24.353 15.686 8.614
PRIMET_226 2014-09-28 12:50:00 226 1342.0 0.00 203 0.442 0.083 276.900 72.960 14.370 13.510 20.34 20.520 20.590 20.510 68.740 64.280                           23.877 16.372 7.464 24.129 15.483 8.619
PRIMET_226 2014-09-28 12:45:00 226 1342.0 0.00 201 0.493 0.290 206.300 51.980 13.590 13.350 20.19 20.510 20.570 20.390 66.110 64.240                           23.657 15.564 8.017 23.951 15.323 8.565
PRIMET_226 2014-09-28 12:40:00 226 1342.0 0.00 200 0.457 0.338 233.200 41.380 14.970 14.210 19.79 20.040 20.150 20.090 73.940 69.060                           23.078 17.019 6.014 23.511 16.204 7.274
PRIMET_226 2014-09-28 12:35:00 226 1342.0 0.00 212 0.700 0.566 229.000 35.430 14.410 13.690 19.52 19.870 19.960 19.770 72.510 68.220                           22.695 16.415 6.239 23.049 15.666 7.325
PRIMET_226 2014-09-28 12:30:00 226 1342.0 0.00 211 0.987 0.802 219.300 35.030 14.770 14.590 19.41 19.580 19.650 19.610 74.780 72.990                           22.540 16.801 5.685 22.822 16.607 6.164
PRIMET_226 2014-09-28 12:25:00 226 1342.0 0.00 195 0.331 0.276 221.700 33.080 15.590 15.490 19.65 19.890 19.920 19.810 77.460 76.190                           22.878 17.710 5.157 23.107 17.597 5.502
PRIMET_226 2014-09-28 12:20:00 226 1342.0 0.00 201 0.555 0.371 212.500 46.650 14.960 14.460 19.60 19.850 19.940 19.830 74.650 71.240                           22.808 17.008 5.782 23.135 16.468 6.654
PRIMET_226 2014-09-28 12:15:00 226 1342.0 0.00 233 0.334 0.309 192.800 21.840 15.230 14.710 19.26 19.380 19.420 19.510 77.520 73.850                           22.330 17.306 5.020 22.680 16.736 5.931
PRIMET_226 2014-09-28 12:10:00 226 1342.0 0.00 216 0.453 0.439 178.200 14.630 14.740 14.000 19.07 19.110 19.120 19.400 76.010 70.970                           22.068 16.769 5.294 22.526 15.985 6.539
PRIMET_226 2014-09-28 12:05:00 226 1342.0 0.00 233 0.249 0.188 230.000 40.220 14.760 14.160 19.57 19.790 19.870 19.950 73.770 69.350                           22.765 16.790 5.971 23.308 16.151 7.144
PRIMET_226 2014-09-28 12:00:00 226 1342.0 0.00 209 0.776 0.627 220.900 35.590 14.720 14.130 20.06 20.290 20.310 20.260 71.380 67.910                           23.467 16.747 6.716 23.759 16.120 7.624
PRIMET_226 2014-09-28 11:55:00 226 1342.0 0.00 204 0.439 0.344 214.000 37.620 14.200 13.760 19.89 20.050 20.020 20.020 69.900 67.380                           23.222 16.193 6.990 23.409 15.737 7.636
PRIMET_226 2014-09-28 11:50:00 226 1342.0 0.00 203 0.409 0.275 150.800 46.410 14.800 14.140 19.50 19.720 19.710 19.510 74.280 71.140                           22.666 16.834 5.830 22.680 16.130 6.546
PRIMET_226 2014-09-28 11:45:00 226 1342.0 0.00 215 0.248 0.168 159.000 45.860 14.360 13.870 18.33 18.670 18.700 18.510 77.800 74.530                           21.070 16.362 4.678 21.309 15.850 5.427
PRIMET_226 2014-09-28 11:40:00 226 1342.0 0.00 214 0.352 0.266 205.300 40.060 14.520 14.170 17.59 17.670 17.750 17.840 82.200 79.110                           20.112 16.532 3.580 20.431 16.162 4.268
PRIMET_226 2014-09-28 11:35:00 226 1342.0 0.00 203 0.498 0.481 192.500 15.290 14.240 13.770 17.88 17.840 17.910 18.050 79.260 76.100                           20.483 16.235 4.248 20.703 15.748 4.948
PRIMET_226 2014-09-28 11:30:00 226 1342.0 0.00 194 0.377 0.328 201.100 29.320 14.190 13.730 18.84 18.670 18.720 18.850 74.420 72.230                           21.753 16.183 5.564 21.767 15.707 6.045
PRIMET_226 2014-09-28 11:25:00 226 1342.0 0.00 201 1.110 1.008 199.900 24.530 13.680 13.120 19.57 19.770 19.740 19.500 68.830 66.650                           22.765 15.656 7.096 22.666 15.094 7.559
PRIMET_226 2014-09-28 11:20:00 226 1342.0 0.00 199 0.829 0.776 200.400 20.390 13.910 13.350 18.93 19.110 19.100 18.970 72.700 69.890                           21.876 15.892 5.972 21.930 15.323 6.603
PRIMET_226 2014-09-28 11:15:00 226 1342.0 0.00 224 0.166 0.134 171.600 35.650 14.660 13.720 18.55 18.600 18.480 18.430 78.120 74.070                           21.362 16.682 4.674 21.202 15.697 5.498
PRIMET_226 2014-09-28 11:10:00 226 1342.0 0.00 201 0.280 0.136 138.600 58.070 14.310 13.470 18.03 18.060 17.870 17.720 78.860 76.180                           20.677 16.309 4.371 20.277 15.443 4.830
PRIMET_226 2014-09-28 11:05:00 226 1342.0 0.00 224 0.156 0.133 126.800 31.320 13.910 13.270 17.38 17.420 17.250 17.100 80.100 78.200                           19.847 15.892 3.950 19.498 15.243 4.251
PRIMET_226 2014-09-28 11:00:00 226 1342.0 0.00 199 0.125 0.125 96.700 2.368 13.770 13.050 16.63 16.740 16.700 16.520 83.200 79.980                           18.926 15.748 3.180 18.794 15.025 3.763
PRIMET_226 2014-09-28 10:55:00 226 1342.0 0.00 209 0.410 0.365 197.500 26.660 13.810 13.040 15.55 15.770 15.820 15.490 89.400 85.300                           17.665 15.789 1.873 17.597 15.016 2.587
PRIMET_226 2014-09-28 10:50:00 226 1342.0 0.00 209 0.437 0.404 220.400 22.160 13.490 13.110 14.63 14.840 14.910 14.600 92.900 90.800                           16.650 15.463 1.182 16.618 15.085 1.529
PRIMET_226 2014-09-28 10:45:00 226 1342.0 0.00 211 0.282 0.258 158.000 23.790 13.470 13.050 14.72 14.850 14.890 14.700 92.200 89.900                           16.747 15.443 1.306 16.725 15.025 1.689
PRIMET_226 2014-09-28 10:40:00 226 1342.0 0.00 221 0.007 0.007 144.500 0.324 13.390 12.980 14.93 15.090 15.110 14.860 90.500 88.500                           16.975 15.363 1.613 16.899 14.957 1.943
PRIMET_226 2014-09-28 10:35:00 226 1342.0 0.00 193 0.209 0.192 187.900 23.290 13.330 12.910 15.21 15.270 15.280 15.180 88.500 86.300                           17.284 15.303 1.988 17.250 14.889 2.363
PRIMET_226 2014-09-28 10:30:00 226 1342.0 0.00 237 0.280 0.199 134.000 43.540 13.320 12.900 15.93 15.970 15.950 15.870 84.500 82.500                           18.100 15.293 2.805 18.031 14.879 3.155
PRIMET_226 2014-09-28 10:25:00 226 1342.0 0.00 223 0.302 0.291 111.500 15.670 13.230 12.880 16.04 16.190 16.150 15.960 83.400 81.900                           18.228 15.203 3.026 18.135 14.859 3.282
PRIMET_226 2014-09-28 10:20:00 226 1342.0 0.00 246 0.485 0.366 175.500 40.240 13.090 12.780 15.54 15.780 15.780 15.610 85.300 83.200                           17.654 15.065 2.595 17.733 14.762 2.979
PRIMET_226 2014-09-28 10:15:00 226 1342.0 0.00 210 0.497 0.495 114.100 5.631 12.910 12.560 15.00 15.300 15.400 15.290 87.300 83.800                           17.052 14.889 2.166 17.373 14.551 2.814
PRIMET_226 2014-09-28 10:10:00 226 1342.0 0.00 228 0.651 0.458 122.000 44.120 12.820 12.540 14.93 15.120 15.180 14.930 87.200 85.700                           16.975 14.801 2.173 16.975 14.532 2.427
PRIMET_226 2014-09-28 10:05:00 226 1342.0 0.00 202 0.484 0.370 141.900 39.320 12.730 12.420 15.05 15.270 15.130 14.780 86.000 85.800                           17.107 14.714 2.395 16.812 14.418 2.387
PRIMET_226 2014-09-28 10:00:00 226 1342.0 0.00 234 0.409 0.408 114.900 3.086 12.660 12.360 14.87 14.950 14.820 14.650 86.600 86.200                           16.910 14.647 2.266 16.671 14.361 2.301
PRIMET_226 2014-09-28 09:55:00 226 1342.0 0.00 251 0.292 0.291 117.400 6.295 12.540 12.240 14.57 14.850 14.770 14.510 87.600 86.200                           16.586 14.532 2.057 16.521 14.248 2.280
PRIMET_226 2014-09-28 09:50:00 226 1342.0 0.00 203 0.514 0.478 122.300 21.300 12.370 12.130 14.02 14.520 14.550 14.320 89.800 86.600                           16.005 14.370 1.633 16.320 14.145 2.187
PRIMET_226 2014-09-28 09:45:00 226 1342.0 0.00 210 0.256 0.226 132.200 27.540 12.140 11.960 13.13 13.790 14.140 14.020 93.700 87.400                           15.104 14.154 0.952 16.005 13.988 2.017
PRIMET_226 2014-09-28 09:40:00 226 1342.0 0.00 202 0.582 0.562 110.200 15.230 11.810 11.750 12.64 13.040 13.490 13.660 94.600 88.300                           14.627 13.850 0.790 15.635 13.795 1.829
PRIMET_226 2014-09-28 09:35:00 226 1342.0 0.00 257 0.356 0.311 128.100 28.710 11.620 11.510 12.67 13.120 13.490 13.300 93.300 88.900                           14.656 13.677 0.982 15.273 13.578 1.695
PRIMET_226 2014-09-28 09:30:00 226 1342.0 0.00 202 0.421 0.386 92.300 23.220 11.690 11.500 12.75 13.050 13.170 12.930 93.300 91.100                           14.733 13.740 0.987 14.908 13.569 1.327
PRIMET_226 2014-09-28 09:25:00 226 1342.0 0.00 211 0.410 0.254 143.200 49.900 11.650 11.420 12.75 13.090 13.160 12.920 93.000 90.600                           14.733 13.704 1.031 14.898 13.497 1.400
PRIMET_226 2014-09-28 09:20:00 226 1342.0 0.00 206 0.220 0.163 134.300 41.500 11.490 11.310 12.58 13.090 13.220 12.930 93.000 89.900                           14.570 13.560 1.020 14.908 13.399 1.506
PRIMET_226 2014-09-28 09:15:00 226 1342.0 0.00 266 0.416 0.378 115.500 24.520 11.420 11.170 12.05 12.610 12.800 12.650 95.900 90.700                           14.071 13.497 0.577 14.637 13.275 1.361
PRIMET_226 2014-09-28 09:10:00 226 1342.0 0.00 257 0.268 0.178 145.300 46.940 11.290 11.060 11.86 12.230 12.420 12.460 96.300 91.200                           13.896 13.381 0.514 14.456 13.179 1.272
PRIMET_226 2014-09-28 09:05:00 226 1342.0 0.00 201 0.573 0.569 115.600 6.604 11.130 10.910 11.78 12.120 12.190 12.230 95.800 91.700                           13.822 13.240 0.581 14.239 13.048 1.182
PRIMET_226 2014-09-28 09:00:00 226 1342.0 0.00 197 0.385 0.310 199.400 35.870 11.110 10.820 11.85 12.230 12.280 12.070 95.200 92.100                           13.886 13.222 0.667 14.089 12.970 1.113
PRIMET_226 2014-09-28 08:55:00 226 1342.0 0.00 463 0.231 0.221 85.000 17.220 11.080 10.810 11.80 12.170 12.200 11.810 95.300 93.600                           13.841 13.196 0.651 13.850 12.961 0.886
PRIMET_226 2014-09-28 08:50:00 226 1342.0 0.00 202 0.280 0.279 105.500 4.663 11.080 10.770 11.75 12.160 12.300 11.900 95.700 92.800                           13.795 13.196 0.593 13.932 12.927 1.003
PRIMET_226 2014-09-28 08:45:00 226 1342.0 0.00 206 0.211 0.211 107.400 3.456 10.970 10.750 11.38 11.610 11.710 11.470 97.300 95.300                           13.461 13.100 0.363 13.542 12.910 0.636
PRIMET_226 2014-09-28 08:40:00 226 1342.0 0.00 222 0.498 0.497 109.300 3.672 10.930 10.680 11.36 11.560 11.610 11.330 97.200 95.800                           13.444 13.065 0.376 13.417 12.850 0.564
PRIMET_226 2014-09-28 08:35:00 226 1342.0 0.00 224 0.380 0.378 105.700 5.974 10.870 10.620 11.44 11.640 11.710 11.380 96.300 95.100                           13.515 13.013 0.500 13.461 12.798 0.660
PRIMET_226 2014-09-28 08:30:00 226 1342.0 0.00 248 0.199 0.174 162.000 28.310 10.840 10.590 11.57 11.770 11.830 11.470 95.300 94.300                           13.632 12.987 0.641 13.542 12.773 0.772
PRIMET_226 2014-09-28 08:25:00 226 1342.0 0.00 331 0.090 0.075 222.400 33.150 10.750 10.490 11.68 11.890 11.940 11.530 94.100 93.300                           13.731 12.910 0.810 13.596 12.688 0.911
PRIMET_226 2014-09-28 08:20:00 226 1342.0 0.00 252 0.033 0.032 68.420 18.330 10.820 10.570 11.78 12.020 12.040 11.560 93.800 93.600                           13.822 12.970 0.857 13.623 12.756 0.872
PRIMET_226 2014-09-28 08:15:00 226 1342.0 0.00 247 0.338 0.274 260.000 35.280 10.820 10.510 11.79 12.080 12.100 11.560 93.700 93.300                           13.831 12.970 0.871 13.623 12.705 0.913
PRIMET_226 2014-09-28 08:10:00 226 1342.0 0.00 292 0.683 0.569 252.400 33.150 10.770 10.500 11.66 11.960 12.000 11.470 94.200 93.800                           13.713 12.927 0.795 13.542 12.696 0.840
PRIMET_226 2014-09-28 08:05:00 226 1342.0 0.00 230 0.594 0.436 225.700 41.840 10.710 10.490 11.51 11.790 11.850 11.330 94.800 94.600                           13.578 12.875 0.706 13.417 12.688 0.725
PRIMET_226 2014-09-28 08:00:00 226 1342.0 0.00 270 0.909 0.789 215.200 29.500 10.710 10.470 11.39 11.670 11.740 11.210 95.600 95.200                           13.470 12.875 0.593 13.310 12.671 0.639
PRIMET_226 2014-09-28 07:55:00 226 1342.0 0.00 219 0.646 0.577 213.100 26.560 10.770 10.510 11.23 11.540 11.610 11.060 97.000 96.400                           13.328 12.927 0.400 13.179 12.705 0.474
PRIMET_226 2014-09-28 07:50:00 226 1342.0 0.00 219 0.466 0.387 229.500 33.430 10.660 10.440 10.98 11.310 11.390 10.840 97.900 97.400                           13.109 12.832 0.275 12.987 12.645 0.338
PRIMET_226 2014-09-28 07:45:00 226 1342.0 0.00 202 0.138 0.063 206.100 59.610 10.430 10.230 10.74 11.050 11.130 10.610 98.000 97.500                           12.901 12.637 0.258 12.790 12.469 0.320
PRIMET_226 2014-09-28 07:40:00 226 1342.0 0.00 386 0.495 0.460 213.500 21.530 10.370 10.150 10.61 10.890 10.960 10.480 98.400 97.800                           12.790 12.586 0.205 12.679 12.403 0.279
PRIMET_226 2014-09-28 07:35:00 226 1342.0 0.00 210 0.461 0.450 197.100 12.470 10.330 10.120 10.55 10.820 10.900 10.440 98.600 97.900                           12.739 12.553 0.178 12.645 12.378 0.266
PRIMET_226 2014-09-28 07:30:00 226 1342.0 0.00 207 0.339 0.312 211.000 22.960 10.320 10.120 10.54 10.790 10.880 10.440 98.500 97.900                           12.730 12.545 0.191 12.645 12.378 0.266
PRIMET_226 2014-09-28 07:25:00 226 1342.0 0.00 205 0.340 0.302 214.500 26.940 10.490 10.260 10.57 10.820 10.910 10.460 99.500 98.700                           12.756 12.688 0.064 12.662 12.494 0.165
PRIMET_226 2014-09-28 07:20:00 226 1342.0 0.00 196 0.155 0.129 218.900 33.350 10.520 10.270 10.60 10.860 10.950 10.480 99.500 98.600                           12.781 12.713 0.064 12.679 12.503 0.178
PRIMET_226 2014-09-28 07:15:00 226 1342.0 0.00 202 0.066 0.065 332.900 8.000 10.470 10.250 10.56 10.840 10.930 10.450 99.300 98.600                           12.747 12.671 0.089 12.654 12.486 0.177
PRIMET_226 2014-09-28 07:10:00 226 1342.0 0.00 210 0.028 0.025 340.100 28.140 10.420 10.170 10.59 10.850 10.930 10.450 98.900 98.100                           12.773 12.629 0.140 12.654 12.419 0.240
PRIMET_226 2014-09-28 07:05:00 226 1342.0 0.00 200 0.166 0.093 103.700 53.620 10.400 10.180 10.61 10.880 10.960 10.480 98.600 98.000                           12.790 12.612 0.179 12.679 12.428 0.254
PRIMET_226 2014-09-28 07:00:00 226 1342.0 0.00 195 0.076 0.032 271.700 61.900 10.480 10.270 10.60 10.880 10.970 10.490 99.200 98.500                           12.781 12.679 0.102 12.688 12.503 0.190
PRIMET_226 2014-09-28 06:55:00 226 1342.0 0.00 210 0.393 0.358 236.300 24.180 10.610 10.390 10.63 10.920 11.010 10.530 99.900 99.100                           12.807 12.790 0.013 12.722 12.603 0.114
PRIMET_226 2014-09-28 06:50:00 226 1342.0 0.00 220 0.030 0.030 206.200 8.610 10.650 10.540 10.65 10.960 11.050 10.550 100.000 99.900                           12.824 12.824 0.000 12.739 12.730 0.013
PRIMET_226 2014-09-28 06:45:00 226 1342.0 0.00 202 0.048 0.048 204.200 2.062 10.630 10.520 10.63 10.940 11.030 10.530 100.000 99.900                           12.807 12.807 0.000 12.722 12.713 0.013
PRIMET_226 2014-09-28 06:40:00 226 1342.0 0.00 201 0.036 0.036 203.600 3.213 10.590 10.440 10.59 10.890 10.990 10.500 100.000 99.600                           12.773 12.773 0.000 12.696 12.645 0.051
PRIMET_226 2014-09-28 06:35:00 226 1342.0 0.00 217 0.014 0.011 349.000 39.170 10.560 10.370 10.56 10.870 10.960 10.460 100.000 99.400                           12.747 12.747 0.000 12.662 12.586 0.076
PRIMET_226 2014-09-28 06:30:00 226 1342.0 0.00 230 0.285 0.191 219.400 46.450 10.520 10.430 10.52 10.830 10.920 10.430 100.000 100.000                           12.713 12.713 0.000 12.637 12.637 0.000
PRIMET_226 2014-09-28 06:25:00 226 1342.0 0.00 212 0.203 0.199 211.100 9.940 10.540 10.440 10.54 10.860 10.940 10.440 100.000 100.000                           12.730 12.730 0.000 12.645 12.645 0.000
PRIMET_226 2014-09-28 06:20:00 226 1342.0 0.00 204 0.008 0.008 272.100 20.780 10.500 10.420 10.50 10.830 10.920 10.420 100.000 100.000                           12.696 12.696 0.000 12.629 12.629 0.000
PRIMET_226 2014-09-28 06:15:00 226 1342.0 0.00 204 0.027 0.026 261.200 16.270 10.500 10.410 10.50 10.790 10.880 10.410 100.000 100.000                           12.696 12.696 0.000 12.620 12.620 0.000
PRIMET_226 2014-09-28 06:10:00 226 1342.0 0.00 201 0.057 0.055 228.800 13.760 10.510 10.420 10.51 10.820 10.910 10.420 100.000 100.000                           12.705 12.705 0.000 12.629 12.629 0.000
PRIMET_226 2014-09-28 06:05:00 226 1342.0 0.00 210 0.190 0.188 201.400 8.560 10.450 10.370 10.45 10.770 10.860 10.370 100.000 100.000                           12.654 12.654 0.000 12.586 12.586 0.000
PRIMET_226 2014-09-28 06:00:00 226 1342.0 0.00 209 0.019 0.016 216.100 29.610 10.440 10.320 10.44 10.720 10.800 10.320 100.000 100.000                           12.645 12.645 0.000 12.545 12.545 0.000
PRIMET_226 2014-09-28 05:55:00 226 1342.0 0.00 216 0.026 0.026 262.200 0.101 10.430 10.320 10.43 10.710 10.790 10.320 100.000 100.000                           12.637 12.637 0.000 12.545 12.545 0.000
PRIMET_226 2014-09-28 05:50:00 226 1342.0 0.00 211 0.007 0.007 265.000 4.775 10.430 10.340 10.43 10.700 10.800 10.340 100.000 100.000                           12.637 12.637 0.000 12.561 12.561 0.000
PRIMET_226 2014-09-28 05:45:00 226 1342.0 0.00 214 0.007 0.007 275.900 2.084 10.430 10.350 10.43 10.720 10.810 10.350 100.000 100.000                           12.637 12.637 0.000 12.570 12.570 0.000
PRIMET_226 2014-09-28 05:40:00 226 1342.0 0.00 205 0.008 0.008 274.500 0.930 10.470 10.380 10.47 10.750 10.850 10.380 100.000 100.000                           12.671 12.671 0.000 12.595 12.595 0.000
PRIMET_226 2014-09-28 05:35:00 226 1342.0 0.00 220 0.032 0.031 254.300 15.340 10.470 10.380 10.47 10.780 10.870 10.380 100.000 100.000                           12.671 12.671 0.000 12.595 12.595 0.000
PRIMET_226 2014-09-28 05:30:00 226 1342.0 0.00 210 0.255 0.237 217.100 21.750 10.450 10.370 10.45 10.750 10.840 10.370 100.000 100.000                           12.654 12.654 0.000 12.586 12.586 0.000
PRIMET_226 2014-09-28 05:25:00 226 1342.0 0.00 210 0.007 0.007 198.100 0.309 10.490 10.390 10.49 10.780 10.870 10.390 100.000 100.000                           12.688 12.688 0.000 12.603 12.603 0.000
PRIMET_226 2014-09-28 05:20:00 226 1342.0 0.00 216 0.101 0.101 198.500 0.093 10.470 10.370 10.47 10.780 10.860 10.370 100.000 100.000                           12.671 12.671 0.000 12.586 12.586 0.000
PRIMET_226 2014-09-28 05:15:00 226 1342.0 0.00 216 0.007 0.007 198.500 0.088 10.470 10.370 10.47 10.770 10.860 10.370 100.000 100.000                           12.671 12.671 0.000 12.586 12.586 0.000
PRIMET_226 2014-09-28 05:10:00 226 1342.0 0.00 205 0.090 0.090 197.900 1.343 10.460 10.370 10.46 10.750 10.830 10.370 100.000 100.000                           12.662 12.662 0.000 12.586 12.586 0.000
PRIMET_226 2014-09-28 05:05:00 226 1342.0 0.00 204 0.056 0.056 194.900 0.125 10.490 10.390 10.49 10.770 10.860 10.390 100.000 100.000                           12.688 12.688 0.000 12.603 12.603 0.000
PRIMET_226 2014-09-28 05:00:00 226 1342.0 0.00 202 0.099 0.099 194.600 1.113 10.490 10.380 10.49 10.780 10.870 10.380 100.000 100.000                           12.688 12.688 0.000 12.595 12.595 0.000
PRIMET_226 2014-09-28 04:55:00 226 1342.0 0.00 205 0.007 0.007 191.300 0.637 10.490 10.390 10.49 10.790 10.870 10.390 100.000 100.000                           12.688 12.688 0.000 12.603 12.603 0.000
PRIMET_226 2014-09-28 04:50:00 226 1342.0 0.00 203 0.007 0.007 193.000 0.986 10.470 10.370 10.47 10.770 10.860 10.370 100.000 100.000                           12.671 12.671 0.000 12.586 12.586 0.000
PRIMET_226 2014-09-28 04:45:00 226 1342.0 0.00 204 0.106 0.106 193.400 0.330 10.470 10.360 10.47 10.760 10.840 10.360 100.000 100.000                           12.671 12.671 0.000 12.578 12.578 0.000
PRIMET_226 2014-09-28 04:40:00 226 1342.0 0.00 214 0.007 0.007 191.100 0.040 10.460 10.360 10.46 10.770 10.850 10.360 100.000 100.000                           12.662 12.662 0.000 12.578 12.578 0.000
PRIMET_226 2014-09-28 04:35:00 226 1342.0 0.00 228 0.007 0.007 191.100 0.040 10.440 10.350 10.44 10.740 10.840 10.350 100.000 100.000                           12.645 12.645 0.000 12.570 12.570 0.000
PRIMET_226 2014-09-28 04:30:00 226 1342.0 0.00 257 0.007 0.007 191.100 0.040 10.420 10.320 10.42 10.710 10.790 10.320 100.000 100.000                           12.629 12.629 0.000 12.545 12.545 0.000
PRIMET_226 2014-09-28 04:25:00 226 1342.0 0.00 235 0.007 0.007 191.100 0.028 10.420 10.320 10.42 10.710 10.800 10.320 100.000 100.000                           12.629 12.629 0.000 12.545 12.545 0.000
PRIMET_226 2014-09-28 04:20:00 226 1342.0 0.00 211 0.007 0.007 191.100 0.000 10.410 10.320 10.41 10.710 10.800 10.320 100.000 100.000                           12.620 12.620 0.000 12.545 12.545 0.000
PRIMET_226 2014-09-28 04:15:00 226 1342.0 0.00 211 0.007 0.007 191.100 0.040 10.390 10.300 10.39 10.670 10.760 10.300 100.000 100.000                           12.603 12.603 0.000 12.528 12.528 0.000
PRIMET_226 2014-09-28 04:10:00 226 1342.0 0.00 220 0.007 0.007 191.100 0.000 10.380 10.290 10.38 10.670 10.760 10.290 100.000 100.000                           12.595 12.595 0.000 12.519 12.519 0.000
PRIMET_226 2014-09-28 04:05:00 226 1342.0 0.00 216 0.007 0.007 191.100 0.028 10.370 10.270 10.37 10.650 10.740 10.270 100.000 100.000                           12.586 12.586 0.000 12.503 12.503 0.000
PRIMET_226 2014-09-28 04:00:00 226 1342.0 0.00 210 0.007 0.007 191.100 0.040 10.370 10.280 10.37 10.660 10.750 10.280 100.000 100.000                           12.586 12.586 0.000 12.511 12.511 0.000
PRIMET_226 2014-09-28 03:55:00 226 1342.0 0.00 246 0.009 0.009 191.100 0.056 10.350 10.280 10.35 10.640 10.740 10.280 100.000 100.000                           12.570 12.570 0.000 12.511 12.511 0.000
PRIMET_226 2014-09-28 03:50:00 226 1342.0 0.00 221 0.007 0.007 191.100 0.048 10.340 10.280 10.34 10.650 10.750 10.280 100.000 100.000                           12.561 12.561 0.000 12.511 12.511 0.000
PRIMET_226 2014-09-28 03:45:00 226 1342.0 0.00 273 0.007 0.007 191.100 0.040 10.330 10.260 10.33 10.630 10.730 10.260 100.000 100.000                           12.553 12.553 -0.000 12.494 12.494 0.000
PRIMET_226 2014-09-28 03:40:00 226 1342.0 0.00 251 0.007 0.007 191.100 0.040 10.320 10.250 10.32 10.620 10.720 10.250 100.000 100.000                           12.545 12.545 0.000 12.486 12.486 0.000
PRIMET_226 2014-09-28 03:35:00 226 1342.0 0.00 251 0.007 0.007 191.100 0.040 10.310 10.250 10.31 10.610 10.710 10.250 100.000 100.000                           12.536 12.536 0.000 12.486 12.486 0.000
PRIMET_226 2014-09-28 03:30:00 226 1342.0 0.00 204 0.007 0.007 191.100 0.028 10.290 10.240 10.29 10.590 10.700 10.240 100.000 100.000                           12.519 12.519 0.000 12.478 12.478 0.000
PRIMET_226 2014-09-28 03:25:00 226 1342.0 0.00 278 0.007 0.007 191.100 0.028 10.300 10.240 10.30 10.600 10.710 10.240 100.000 100.000                           12.528 12.528 0.000 12.478 12.478 0.000
PRIMET_226 2014-09-28 03:20:00 226 1342.0 0.00 236 0.007 0.007 191.100 0.040 10.310 10.220 10.31 10.590 10.690 10.220 100.000 100.000                           12.536 12.536 0.000 12.461 12.461 0.000
PRIMET_226 2014-09-28 03:15:00 226 1342.0 0.00 246 0.007 0.007 191.100 0.028 10.320 10.240 10.32 10.610 10.700 10.240 100.000 100.000                           12.545 12.545 0.000 12.478 12.478 0.000
PRIMET_226 2014-09-28 03:10:00 226 1342.0 0.00 232 0.010 0.010 190.500 0.293 10.320 10.240 10.32 10.620 10.720 10.240 100.000 100.000                           12.545 12.545 0.000 12.478 12.478 0.000
PRIMET_226 2014-09-28 03:05:00 226 1342.0 0.00 210 0.024 0.024 190.400 0.140 10.300 10.210 10.30 10.580 10.680 10.210 100.000 100.000                           12.528 12.528 0.000 12.453 12.453 0.000
PRIMET_226 2014-09-28 03:00:00 226 1342.0 0.00 221 0.007 0.007 190.600 0.048 10.280 10.210 10.28 10.570 10.670 10.210 100.000 100.000                           12.511 12.511 0.000 12.453 12.453 0.000
PRIMET_226 2014-09-28 02:55:00 226 1342.0 0.00 219 0.007 0.007 190.600 0.048 10.250 10.190 10.25 10.540 10.640 10.190 100.000 100.000                           12.486 12.486 0.000 12.436 12.436 0.000
PRIMET_226 2014-09-28 02:50:00 226 1342.0 0.00 220 0.007 0.007 190.600 0.048 10.250 10.180 10.25 10.540 10.630 10.180 100.000 100.000                           12.486 12.486 0.000 12.428 12.428 0.000
PRIMET_226 2014-09-28 02:45:00 226 1342.0 0.00 216 0.007 0.007 190.600 0.048 10.240 10.170 10.24 10.540 10.620 10.170 100.000 100.000                           12.478 12.478 0.000 12.419 12.419 0.000
PRIMET_226 2014-09-28 02:40:00 226 1342.0 0.00 216 0.007 0.007 190.600 0.040 10.230 10.150 10.23 10.530 10.610 10.150 100.000 100.000                           12.469 12.469 0.000 12.403 12.403 0.000
PRIMET_226 2014-09-28 02:35:00 226 1342.0 0.00 250 0.007 0.007 190.600 0.028 10.230 10.150 10.23 10.520 10.610 10.150 100.000 100.000                           12.469 12.469 0.000 12.403 12.403 0.000
PRIMET_226 2014-09-28 02:30:00 226 1342.0 0.00 210 0.007 0.007 190.600 0.040 10.210 10.130 10.21 10.490 10.580 10.130 100.000 100.000                           12.453 12.453 0.000 12.386 12.386 0.000
PRIMET_226 2014-09-28 02:25:00 226 1342.0 0.00 206 0.034 0.034 190.600 0.040 10.180 10.120 10.18 10.470 10.560 10.120 100.000 100.000                           12.428 12.428 0.000 12.378 12.378 0.000
PRIMET_226 2014-09-28 02:20:00 226 1342.0 0.00 225 0.007 0.007 190.700 0.074 10.190 10.120 10.19 10.460 10.560 10.120 100.000 100.000                           12.436 12.436 0.000 12.378 12.378 0.000
PRIMET_226 2014-09-28 02:15:00 226 1342.0 0.00 220 0.007 0.007 190.600 0.119 10.170 10.110 10.17 10.450 10.540 10.110 100.000 100.000                           12.419 12.419 0.000 12.370 12.370 0.000
PRIMET_226 2014-09-28 02:10:00 226 1342.0 0.00 266 0.007 0.007 190.400 0.000 10.150 10.090 10.15 10.420 10.520 10.090 100.000 100.000                           12.403 12.403 0.000 12.353 12.353 0.000
PRIMET_226 2014-09-28 02:05:00 226 1342.0 0.00 273 0.007 0.007 190.400 0.000 10.110 10.060 10.11 10.390 10.480 10.060 100.000 100.000                           12.370 12.370 0.000 12.328 12.328 0.000
PRIMET_226 2014-09-28 02:00:00 226 1342.0 0.00 252 0.007 0.007 190.400 0.028 10.090 10.050 10.09 10.370 10.470 10.050 100.000 100.000                           12.353 12.353 0.000 12.320 12.320 0.000
PRIMET_226 2014-09-28 01:55:00 226 1342.0 0.00 203 0.007 0.007 190.400 0.000 10.090 10.040 10.09 10.370 10.470 10.040 100.000 100.000                           12.353 12.353 0.000 12.312 12.312 0.000
PRIMET_226 2014-09-28 01:50:00 226 1342.0 0.00 204 0.007 0.007 190.400 0.000 10.060 10.020 10.06 10.350 10.450 10.020 100.000 100.000                           12.328 12.328 0.000 12.295 12.295 0.000
PRIMET_226 2014-09-28 01:45:00 226 1342.0 0.00 191 0.007 0.007 190.300 0.206 10.030 10.000 10.03 10.320 10.410 10.000 100.000 100.000                           12.303 12.303 0.000 12.279 12.279 0.000
PRIMET_226 2014-09-28 01:40:00 226 1342.0 0.00 249 0.007 0.007 190.900 0.891 10.020 10.000 10.02 10.310 10.410 10.000 100.000 100.000                           12.295 12.295 0.000 12.279 12.279 0.000
PRIMET_226 2014-09-28 01:35:00 226 1342.0 0.00 210 0.007 0.007 191.500 0.309 10.020 10.000 10.02 10.310 10.410 10.000 100.000 100.000                           12.295 12.295 0.000 12.279 12.279 0.000
PRIMET_226 2014-09-28 01:30:00 226 1342.0 0.00 235 0.007 0.007 191.300 0.498 10.020 10.000 10.02 10.310 10.410 10.000 100.000 100.000                           12.295 12.295 0.000 12.279 12.279 0.000
PRIMET_226 2014-09-28 01:25:00 226 1342.0 0.00 254 0.007 0.007 192.100 0.048 10.020 9.990 10.02 10.300 10.400 9.990 100.000 100.000                           12.295 12.295 0.000 12.271 12.271 0.000
PRIMET_226 2014-09-28 01:20:00 226 1342.0 0.00 259 0.007 0.007 192.000 0.093 10.000 9.980 10.00 10.280 10.380 9.980 100.000 100.000                           12.279 12.279 0.000 12.262 12.262 0.000
PRIMET_226 2014-09-28 01:15:00 226 1342.0 0.00 201 0.007 0.007 192.100 0.028 10.000 9.980 10.00 10.280 10.380 9.980 100.000 100.000                           12.279 12.279 0.000 12.262 12.262 0.000
PRIMET_226 2014-09-28 01:10:00 226 1342.0 0.00 202 0.009 0.009 192.100 0.063 9.970 9.940 9.97 10.250 10.350 9.940 100.000 100.000                           12.254 12.254 0.000 12.229 12.229 0.000
PRIMET_226 2014-09-28 01:05:00 226 1342.0 0.00 260 0.007 0.007 192.100 0.108 9.930 9.910 9.93 10.220 10.320 9.910 100.000 100.000                           12.221 12.221 0.000 12.205 12.205 0.000
PRIMET_226 2014-09-28 01:00:00 226 1342.0 0.00 272 0.007 0.007 192.200 0.056 9.880 9.860 9.88 10.160 10.260 9.860 100.000 100.000                           12.180 12.180 0.000 12.164 12.164 0.000
PRIMET_226 2014-09-28 00:55:00 226 1342.0 0.00 253 0.007 0.007 192.200 0.048 9.860 9.840 9.86 10.140 10.230 9.840 100.000 100.000                           12.164 12.164 0.000 12.148 12.148 -0.000
PRIMET_226 2014-09-28 00:50:00 226 1342.0 0.00 210 0.008 0.008 192.200 0.069 9.820 9.820 9.82 10.110 10.210 9.820 100.000 100.000                           12.131 12.131 0.000 12.131 12.131 0.000
PRIMET_226 2014-09-28 00:45:00 226 1342.0 0.00 201 0.011 0.011 192.200 0.424 9.780 9.790 9.78 10.070 10.180 9.790 100.000 100.000                           12.099 12.099 -0.000 12.107 12.107 0.000
PRIMET_226 2014-09-28 00:40:00 226 1342.0 0.00 227 0.047 0.047 192.800 0.048 9.710 9.740 9.71 10.010 10.120 9.740 100.000 100.000                           12.042 12.042 0.000 12.066 12.066 0.000
PRIMET_226 2014-09-28 00:35:00 226 1342.0 0.00 214 0.007 0.007 192.800 0.056 9.670 9.710 9.67 9.960 10.080 9.710 100.000 100.000                           12.010 12.010 0.000 12.042 12.042 0.000
PRIMET_226 2014-09-28 00:30:00 226 1342.0 0.00 260 0.007 0.007 192.700 0.056 9.670 9.710 9.67 9.980 10.100 9.710 100.000 100.000                           12.010 12.010 0.000 12.042 12.042 0.000
PRIMET_226 2014-09-28 00:25:00 226 1342.0 0.00 245 0.007 0.007 192.600 0.343 9.640 9.680 9.64 9.960 10.060 9.680 100.000 100.000                           11.986 11.986 0.000 12.018 12.018 0.000
PRIMET_226 2014-09-28 00:20:00 226 1342.0 0.00 268 0.007 0.007 192.000 0.056 9.600 9.630 9.60 9.880 9.990 9.630 100.000 100.000                           11.953 11.953 0.000 11.978 11.978 0.000
PRIMET_226 2014-09-28 00:15:00 226 1342.0 0.00 239 0.007 0.007 192.000 0.063 9.540 9.580 9.54 9.830 9.950 9.580 100.000 100.000                           11.905 11.905 0.000 11.937 11.937 0.000
PRIMET_226 2014-09-28 00:10:00 226 1342.0 0.00 290 0.007 0.007 192.500 1.022 9.480 9.540 9.48 9.760 9.890 9.540 100.000 100.000                           11.857 11.857 0.000 11.905 11.905 0.000
PRIMET_226 2014-09-28 00:05:00 226 1342.0 0.00 280 0.007 0.007 194.500 0.122 9.430 9.510 9.43 9.730 9.860 9.510 100.000 100.000                           11.818 11.818 0.000 11.881 11.881 -0.000
PRIMET_226 2014-09-28 00:00:00 226 1342.0 0.00 272 0.049 0.049 194.700 0.069 9.390 9.480 9.39 9.690 9.810 9.480 100.000 100.000                           11.786 11.786 0.000 11.857 11.857 0.000
PRIMET_226 2014-09-27 23:55:00 226 1342.0 0.00 251 0.007 0.007 194.700 0.063 9.330 9.470 9.33 9.590 9.750 9.470 100.000 100.000                           11.738 11.738 -0.000 11.849 11.849 0.000
PRIMET_226 2014-09-27 23:50:00 226 1342.0 0.00 225 0.007 0.007 194.700 0.069 9.390 9.510 9.39 9.640 9.800 9.510 100.000 100.000                           11.786 11.786 0.000 11.881 11.881 -0.000
PRIMET_226 2014-09-27 23:45:00 226 1342.0 0.00 248 0.007 0.007 194.000 1.334 9.480 9.550 9.48 9.710 9.850 9.550 100.000 100.000                           11.857 11.857 0.000 11.913 11.913 0.000
PRIMET_226 2014-09-27 23:40:00 226 1342.0 0.00 240 0.007 0.007 193.200 2.206 9.510 9.570 9.51 9.780 9.900 9.570 100.000 100.000                           11.881 11.881 -0.000 11.929 11.929 0.000
PRIMET_226 2014-09-27 23:35:00 226 1342.0 0.00 250 0.007 0.007 191.200 2.060 9.530 9.590 9.53 9.780 9.900 9.590 100.000 100.000                           11.897 11.897 -0.000 11.945 11.945 0.000
PRIMET_226 2014-09-27 23:30:00 226 1342.0 0.00 268 0.007 0.007 191.200 0.000 9.550 9.610 9.55 9.790 9.910 9.610 100.000 100.000